<?xml version="1.0" encoding="UTF-8" standalone="no" ?>
<gpx xmlns="http://www.topografix.com/GPX/1/1" xmlns:xsi="http://www.w3.org/2001/XMLSchema-instance" xsi:schemaLocation="http://www.topografix.com/GPX/1/1 http://www.topografix.com/GPX/1/1/gpx.xsd" version="1.1" creator="VisuGPX - https://www.visugpx.com">
  <metadata>
    <name>Journée Défi Sport 2013 à Gabaston</name>
    <desc><![CDATA[Le 30 juin 2013 à Gabaston avait lieu la journée Défi Sport. Il y avait 2 circuits de marche, l\'un de 10 et l\'autre de 15km. C\'est ce second que j\'ai enregistré, à une vitesse pas très raisonnable de 6km/h. Mais c\'était pour le sport!
C\'est une belle boucle, avec très peu de goudron et beaucoup de petits chemins que j\'espère la commune conservera dans l\'état très longtemps, car ils sont très beaux.]]></desc>
  </metadata>
  <trk>
    <name><![CDATA[Tracé actuel: 30 JUIN 2013 08:39]]></name>
    <trkseg>
      <trkpt lat="43.35878" lon="-0.20779">
        <ele>306.32</ele>
        <time>2013-06-30T06:39:07Z</time>
      </trkpt>
      <trkpt lat="43.35887" lon="-0.20765">
        <ele>305.36</ele>
        <time>2013-06-30T06:39:21Z</time>
      </trkpt>
      <trkpt lat="43.35891" lon="-0.20753">
        <ele>305.36</ele>
        <time>2013-06-30T06:39:29Z</time>
      </trkpt>
      <trkpt lat="43.35892" lon="-0.2074">
        <ele>304.88</ele>
        <time>2013-06-30T06:39:37Z</time>
      </trkpt>
      <trkpt lat="43.35887" lon="-0.20728">
        <ele>304.88</ele>
        <time>2013-06-30T06:39:44Z</time>
      </trkpt>
      <trkpt lat="43.35878" lon="-0.2072">
        <ele>304.39</ele>
        <time>2013-06-30T06:39:54Z</time>
      </trkpt>
      <trkpt lat="43.3587" lon="-0.20712">
        <ele>304.39</ele>
        <time>2013-06-30T06:40:02Z</time>
      </trkpt>
      <trkpt lat="43.35864" lon="-0.20703">
        <ele>304.39</ele>
        <time>2013-06-30T06:40:10Z</time>
      </trkpt>
      <trkpt lat="43.35856" lon="-0.20694">
        <ele>304.39</ele>
        <time>2013-06-30T06:40:19Z</time>
      </trkpt>
      <trkpt lat="43.3585" lon="-0.20683">
        <ele>304.39</ele>
        <time>2013-06-30T06:40:27Z</time>
      </trkpt>
      <trkpt lat="43.35843" lon="-0.20673">
        <ele>304.39</ele>
        <time>2013-06-30T06:40:34Z</time>
      </trkpt>
      <trkpt lat="43.35837" lon="-0.20663">
        <ele>303.91</ele>
        <time>2013-06-30T06:40:42Z</time>
      </trkpt>
      <trkpt lat="43.35831" lon="-0.20653">
        <ele>304.39</ele>
        <time>2013-06-30T06:40:49Z</time>
      </trkpt>
      <trkpt lat="43.35824" lon="-0.20644">
        <ele>304.39</ele>
        <time>2013-06-30T06:40:56Z</time>
      </trkpt>
      <trkpt lat="43.35819" lon="-0.20633">
        <ele>304.39</ele>
        <time>2013-06-30T06:41:03Z</time>
      </trkpt>
      <trkpt lat="43.35812" lon="-0.20623">
        <ele>303.91</ele>
        <time>2013-06-30T06:41:10Z</time>
      </trkpt>
      <trkpt lat="43.35805" lon="-0.20613">
        <ele>304.39</ele>
        <time>2013-06-30T06:41:17Z</time>
      </trkpt>
      <trkpt lat="43.35799" lon="-0.20603">
        <ele>304.88</ele>
        <time>2013-06-30T06:41:24Z</time>
      </trkpt>
      <trkpt lat="43.35794" lon="-0.20592">
        <ele>304.39</ele>
        <time>2013-06-30T06:41:32Z</time>
      </trkpt>
      <trkpt lat="43.35799" lon="-0.2058">
        <ele>304.39</ele>
        <time>2013-06-30T06:41:39Z</time>
      </trkpt>
      <trkpt lat="43.35804" lon="-0.2057">
        <ele>303.91</ele>
        <time>2013-06-30T06:41:46Z</time>
      </trkpt>
      <trkpt lat="43.35812" lon="-0.20559">
        <ele>303.43</ele>
        <time>2013-06-30T06:41:54Z</time>
      </trkpt>
      <trkpt lat="43.35817" lon="-0.20547">
        <ele>302.47</ele>
        <time>2013-06-30T06:42:01Z</time>
      </trkpt>
      <trkpt lat="43.35822" lon="-0.20536">
        <ele>301.51</ele>
        <time>2013-06-30T06:42:08Z</time>
      </trkpt>
      <trkpt lat="43.35828" lon="-0.20526">
        <ele>300.55</ele>
        <time>2013-06-30T06:42:15Z</time>
      </trkpt>
      <trkpt lat="43.35832" lon="-0.20514">
        <ele>300.07</ele>
        <time>2013-06-30T06:42:22Z</time>
      </trkpt>
      <trkpt lat="43.35835" lon="-0.20501">
        <ele>299.59</ele>
        <time>2013-06-30T06:42:30Z</time>
      </trkpt>
      <trkpt lat="43.35839" lon="-0.2049">
        <ele>298.15</ele>
        <time>2013-06-30T06:42:38Z</time>
      </trkpt>
      <trkpt lat="43.35842" lon="-0.20476">
        <ele>297.67</ele>
        <time>2013-06-30T06:42:46Z</time>
      </trkpt>
      <trkpt lat="43.35846" lon="-0.20465">
        <ele>297.18</ele>
        <time>2013-06-30T06:42:53Z</time>
      </trkpt>
      <trkpt lat="43.3585" lon="-0.20452">
        <ele>297.18</ele>
        <time>2013-06-30T06:43:00Z</time>
      </trkpt>
      <trkpt lat="43.35854" lon="-0.2044">
        <ele>296.22</ele>
        <time>2013-06-30T06:43:07Z</time>
      </trkpt>
      <trkpt lat="43.35858" lon="-0.20429">
        <ele>296.22</ele>
        <time>2013-06-30T06:43:14Z</time>
      </trkpt>
      <trkpt lat="43.35862" lon="-0.20419">
        <ele>296.22</ele>
        <time>2013-06-30T06:43:21Z</time>
      </trkpt>
      <trkpt lat="43.3587" lon="-0.20412">
        <ele>295.74</ele>
        <time>2013-06-30T06:43:28Z</time>
      </trkpt>
      <trkpt lat="43.35878" lon="-0.2041">
        <ele>295.74</ele>
        <time>2013-06-30T06:43:36Z</time>
      </trkpt>
      <trkpt lat="43.35887" lon="-0.20412">
        <ele>295.74</ele>
        <time>2013-06-30T06:43:44Z</time>
      </trkpt>
      <trkpt lat="43.35897" lon="-0.20416">
        <ele>295.74</ele>
        <time>2013-06-30T06:43:51Z</time>
      </trkpt>
      <trkpt lat="43.35907" lon="-0.20417">
        <ele>295.74</ele>
        <time>2013-06-30T06:43:58Z</time>
      </trkpt>
      <trkpt lat="43.35918" lon="-0.20416">
        <ele>295.74</ele>
        <time>2013-06-30T06:44:05Z</time>
      </trkpt>
      <trkpt lat="43.35928" lon="-0.20411">
        <ele>295.26</ele>
        <time>2013-06-30T06:44:12Z</time>
      </trkpt>
      <trkpt lat="43.35937" lon="-0.20402">
        <ele>295.26</ele>
        <time>2013-06-30T06:44:20Z</time>
      </trkpt>
      <trkpt lat="43.35948" lon="-0.20394">
        <ele>295.26</ele>
        <time>2013-06-30T06:44:28Z</time>
      </trkpt>
      <trkpt lat="43.35957" lon="-0.20384">
        <ele>295.26</ele>
        <time>2013-06-30T06:44:36Z</time>
      </trkpt>
      <trkpt lat="43.35965" lon="-0.20376">
        <ele>294.78</ele>
        <time>2013-06-30T06:44:43Z</time>
      </trkpt>
      <trkpt lat="43.35972" lon="-0.20368">
        <ele>294.78</ele>
        <time>2013-06-30T06:44:50Z</time>
      </trkpt>
      <trkpt lat="43.35981" lon="-0.20357">
        <ele>294.78</ele>
        <time>2013-06-30T06:44:59Z</time>
      </trkpt>
      <trkpt lat="43.3599" lon="-0.20348">
        <ele>294.3</ele>
        <time>2013-06-30T06:45:07Z</time>
      </trkpt>
      <trkpt lat="43.35998" lon="-0.20338">
        <ele>294.3</ele>
        <time>2013-06-30T06:45:15Z</time>
      </trkpt>
      <trkpt lat="43.36006" lon="-0.20328">
        <ele>294.3</ele>
        <time>2013-06-30T06:45:23Z</time>
      </trkpt>
      <trkpt lat="43.36013" lon="-0.2032">
        <ele>294.3</ele>
        <time>2013-06-30T06:45:30Z</time>
      </trkpt>
      <trkpt lat="43.3602" lon="-0.20312">
        <ele>293.82</ele>
        <time>2013-06-30T06:45:37Z</time>
      </trkpt>
      <trkpt lat="43.36028" lon="-0.20304">
        <ele>294.3</ele>
        <time>2013-06-30T06:45:44Z</time>
      </trkpt>
      <trkpt lat="43.36035" lon="-0.20297">
        <ele>293.82</ele>
        <time>2013-06-30T06:45:51Z</time>
      </trkpt>
      <trkpt lat="43.36045" lon="-0.20289">
        <ele>293.82</ele>
        <time>2013-06-30T06:45:59Z</time>
      </trkpt>
      <trkpt lat="43.36054" lon="-0.20284">
        <ele>293.82</ele>
        <time>2013-06-30T06:46:06Z</time>
      </trkpt>
      <trkpt lat="43.36063" lon="-0.2028">
        <ele>293.34</ele>
        <time>2013-06-30T06:46:13Z</time>
      </trkpt>
      <trkpt lat="43.36072" lon="-0.20275">
        <ele>293.82</ele>
        <time>2013-06-30T06:46:21Z</time>
      </trkpt>
      <trkpt lat="43.36082" lon="-0.20273">
        <ele>293.34</ele>
        <time>2013-06-30T06:46:29Z</time>
      </trkpt>
      <trkpt lat="43.36091" lon="-0.20269">
        <ele>293.34</ele>
        <time>2013-06-30T06:46:37Z</time>
      </trkpt>
      <trkpt lat="43.36101" lon="-0.20267">
        <ele>292.38</ele>
        <time>2013-06-30T06:46:45Z</time>
      </trkpt>
      <trkpt lat="43.3611" lon="-0.20265">
        <ele>291.9</ele>
        <time>2013-06-30T06:46:52Z</time>
      </trkpt>
      <trkpt lat="43.36121" lon="-0.20263">
        <ele>291.9</ele>
        <time>2013-06-30T06:47:00Z</time>
      </trkpt>
      <trkpt lat="43.3613" lon="-0.20261">
        <ele>291.42</ele>
        <time>2013-06-30T06:47:07Z</time>
      </trkpt>
      <trkpt lat="43.36139" lon="-0.20258">
        <ele>290.94</ele>
        <time>2013-06-30T06:47:16Z</time>
      </trkpt>
      <trkpt lat="43.36148" lon="-0.20255">
        <ele>290.94</ele>
        <time>2013-06-30T06:47:23Z</time>
      </trkpt>
      <trkpt lat="43.36158" lon="-0.20251">
        <ele>290.94</ele>
        <time>2013-06-30T06:47:30Z</time>
      </trkpt>
      <trkpt lat="43.36169" lon="-0.20249">
        <ele>290.46</ele>
        <time>2013-06-30T06:47:37Z</time>
      </trkpt>
      <trkpt lat="43.36178" lon="-0.20248">
        <ele>290.46</ele>
        <time>2013-06-30T06:47:44Z</time>
      </trkpt>
      <trkpt lat="43.36188" lon="-0.20245">
        <ele>290.46</ele>
        <time>2013-06-30T06:47:51Z</time>
      </trkpt>
      <trkpt lat="43.36198" lon="-0.20242">
        <ele>290.46</ele>
        <time>2013-06-30T06:47:59Z</time>
      </trkpt>
      <trkpt lat="43.36207" lon="-0.20239">
        <ele>289.97</ele>
        <time>2013-06-30T06:48:06Z</time>
      </trkpt>
      <trkpt lat="43.36216" lon="-0.20236">
        <ele>289.97</ele>
        <time>2013-06-30T06:48:13Z</time>
      </trkpt>
      <trkpt lat="43.36225" lon="-0.20233">
        <ele>289.97</ele>
        <time>2013-06-30T06:48:20Z</time>
      </trkpt>
      <trkpt lat="43.36235" lon="-0.20231">
        <ele>289.97</ele>
        <time>2013-06-30T06:48:28Z</time>
      </trkpt>
      <trkpt lat="43.36245" lon="-0.20228">
        <ele>289.49</ele>
        <time>2013-06-30T06:48:35Z</time>
      </trkpt>
      <trkpt lat="43.36254" lon="-0.20223">
        <ele>289.01</ele>
        <time>2013-06-30T06:48:42Z</time>
      </trkpt>
      <trkpt lat="43.36263" lon="-0.20221">
        <ele>289.49</ele>
        <time>2013-06-30T06:48:49Z</time>
      </trkpt>
      <trkpt lat="43.36271" lon="-0.20216">
        <ele>289.01</ele>
        <time>2013-06-30T06:48:56Z</time>
      </trkpt>
      <trkpt lat="43.36281" lon="-0.20212">
        <ele>288.53</ele>
        <time>2013-06-30T06:49:04Z</time>
      </trkpt>
      <trkpt lat="43.36291" lon="-0.20209">
        <ele>288.05</ele>
        <time>2013-06-30T06:49:11Z</time>
      </trkpt>
      <trkpt lat="43.363" lon="-0.20208">
        <ele>287.57</ele>
        <time>2013-06-30T06:49:18Z</time>
      </trkpt>
      <trkpt lat="43.3631" lon="-0.20206">
        <ele>287.57</ele>
        <time>2013-06-30T06:49:25Z</time>
      </trkpt>
      <trkpt lat="43.36319" lon="-0.20198">
        <ele>286.61</ele>
        <time>2013-06-30T06:49:32Z</time>
      </trkpt>
      <trkpt lat="43.36325" lon="-0.20187">
        <ele>286.61</ele>
        <time>2013-06-30T06:49:39Z</time>
      </trkpt>
      <trkpt lat="43.36331" lon="-0.20178">
        <ele>285.65</ele>
        <time>2013-06-30T06:49:46Z</time>
      </trkpt>
      <trkpt lat="43.36337" lon="-0.20168">
        <ele>284.69</ele>
        <time>2013-06-30T06:49:53Z</time>
      </trkpt>
      <trkpt lat="43.36344" lon="-0.20159">
        <ele>284.21</ele>
        <time>2013-06-30T06:50:01Z</time>
      </trkpt>
      <trkpt lat="43.36353" lon="-0.2015">
        <ele>283.25</ele>
        <time>2013-06-30T06:50:09Z</time>
      </trkpt>
      <trkpt lat="43.36362" lon="-0.20145">
        <ele>282.77</ele>
        <time>2013-06-30T06:50:16Z</time>
      </trkpt>
      <trkpt lat="43.36369" lon="-0.20139">
        <ele>282.77</ele>
        <time>2013-06-30T06:50:23Z</time>
      </trkpt>
      <trkpt lat="43.36379" lon="-0.20134">
        <ele>282.28</ele>
        <time>2013-06-30T06:50:30Z</time>
      </trkpt>
      <trkpt lat="43.36383" lon="-0.20123">
        <ele>282.28</ele>
        <time>2013-06-30T06:50:37Z</time>
      </trkpt>
      <trkpt lat="43.36375" lon="-0.20114">
        <ele>282.28</ele>
        <time>2013-06-30T06:50:44Z</time>
      </trkpt>
      <trkpt lat="43.36366" lon="-0.20107">
        <ele>281.8</ele>
        <time>2013-06-30T06:50:51Z</time>
      </trkpt>
      <trkpt lat="43.36363" lon="-0.20092">
        <ele>281.8</ele>
        <time>2013-06-30T06:51:00Z</time>
      </trkpt>
      <trkpt lat="43.36363" lon="-0.20078">
        <ele>281.8</ele>
        <time>2013-06-30T06:51:07Z</time>
      </trkpt>
      <trkpt lat="43.3636" lon="-0.20065">
        <ele>280.84</ele>
        <time>2013-06-30T06:51:14Z</time>
      </trkpt>
      <trkpt lat="43.36352" lon="-0.20057">
        <ele>281.32</ele>
        <time>2013-06-30T06:51:21Z</time>
      </trkpt>
      <trkpt lat="43.36343" lon="-0.20049">
        <ele>281.32</ele>
        <time>2013-06-30T06:51:28Z</time>
      </trkpt>
      <trkpt lat="43.36334" lon="-0.20041">
        <ele>281.32</ele>
        <time>2013-06-30T06:51:35Z</time>
      </trkpt>
      <trkpt lat="43.36326" lon="-0.20035">
        <ele>281.32</ele>
        <time>2013-06-30T06:51:42Z</time>
      </trkpt>
      <trkpt lat="43.36317" lon="-0.20029">
        <ele>281.32</ele>
        <time>2013-06-30T06:51:49Z</time>
      </trkpt>
      <trkpt lat="43.36309" lon="-0.20024">
        <ele>281.32</ele>
        <time>2013-06-30T06:51:56Z</time>
      </trkpt>
      <trkpt lat="43.363" lon="-0.20017">
        <ele>281.32</ele>
        <time>2013-06-30T06:52:03Z</time>
      </trkpt>
      <trkpt lat="43.36292" lon="-0.20011">
        <ele>281.32</ele>
        <time>2013-06-30T06:52:10Z</time>
      </trkpt>
      <trkpt lat="43.36282" lon="-0.20008">
        <ele>281.32</ele>
        <time>2013-06-30T06:52:17Z</time>
      </trkpt>
      <trkpt lat="43.36273" lon="-0.20003">
        <ele>281.8</ele>
        <time>2013-06-30T06:52:25Z</time>
      </trkpt>
      <trkpt lat="43.36263" lon="-0.19999">
        <ele>281.32</ele>
        <time>2013-06-30T06:52:32Z</time>
      </trkpt>
      <trkpt lat="43.36255" lon="-0.19994">
        <ele>281.32</ele>
        <time>2013-06-30T06:52:39Z</time>
      </trkpt>
      <trkpt lat="43.36244" lon="-0.19989">
        <ele>281.8</ele>
        <time>2013-06-30T06:52:47Z</time>
      </trkpt>
      <trkpt lat="43.36236" lon="-0.19982">
        <ele>282.77</ele>
        <time>2013-06-30T06:52:54Z</time>
      </trkpt>
      <trkpt lat="43.36226" lon="-0.19976">
        <ele>282.28</ele>
        <time>2013-06-30T06:53:02Z</time>
      </trkpt>
      <trkpt lat="43.36216" lon="-0.19969">
        <ele>281.8</ele>
        <time>2013-06-30T06:53:11Z</time>
      </trkpt>
      <trkpt lat="43.36207" lon="-0.19962">
        <ele>282.28</ele>
        <time>2013-06-30T06:53:18Z</time>
      </trkpt>
      <trkpt lat="43.36199" lon="-0.19953">
        <ele>282.77</ele>
        <time>2013-06-30T06:53:26Z</time>
      </trkpt>
      <trkpt lat="43.36192" lon="-0.19942">
        <ele>282.77</ele>
        <time>2013-06-30T06:53:34Z</time>
      </trkpt>
      <trkpt lat="43.36185" lon="-0.1993">
        <ele>282.77</ele>
        <time>2013-06-30T06:53:42Z</time>
      </trkpt>
      <trkpt lat="43.36178" lon="-0.1992">
        <ele>282.77</ele>
        <time>2013-06-30T06:53:49Z</time>
      </trkpt>
      <trkpt lat="43.36171" lon="-0.19909">
        <ele>283.73</ele>
        <time>2013-06-30T06:53:57Z</time>
      </trkpt>
      <trkpt lat="43.36165" lon="-0.19899">
        <ele>283.25</ele>
        <time>2013-06-30T06:54:05Z</time>
      </trkpt>
      <trkpt lat="43.36159" lon="-0.19888">
        <ele>283.25</ele>
        <time>2013-06-30T06:54:13Z</time>
      </trkpt>
      <trkpt lat="43.36151" lon="-0.19879">
        <ele>283.73</ele>
        <time>2013-06-30T06:54:21Z</time>
      </trkpt>
      <trkpt lat="43.36142" lon="-0.19874">
        <ele>283.73</ele>
        <time>2013-06-30T06:54:29Z</time>
      </trkpt>
      <trkpt lat="43.36131" lon="-0.19874">
        <ele>284.21</ele>
        <time>2013-06-30T06:54:37Z</time>
      </trkpt>
      <trkpt lat="43.36122" lon="-0.19873">
        <ele>284.69</ele>
        <time>2013-06-30T06:54:44Z</time>
      </trkpt>
      <trkpt lat="43.36112" lon="-0.1987">
        <ele>284.21</ele>
        <time>2013-06-30T06:54:51Z</time>
      </trkpt>
      <trkpt lat="43.36103" lon="-0.19871">
        <ele>285.17</ele>
        <time>2013-06-30T06:54:58Z</time>
      </trkpt>
      <trkpt lat="43.36093" lon="-0.19873">
        <ele>285.17</ele>
        <time>2013-06-30T06:55:05Z</time>
      </trkpt>
      <trkpt lat="43.36083" lon="-0.19877">
        <ele>285.65</ele>
        <time>2013-06-30T06:55:14Z</time>
      </trkpt>
      <trkpt lat="43.3607" lon="-0.19881">
        <ele>286.61</ele>
        <time>2013-06-30T06:55:24Z</time>
      </trkpt>
      <trkpt lat="43.36058" lon="-0.19886">
        <ele>286.61</ele>
        <time>2013-06-30T06:55:33Z</time>
      </trkpt>
      <trkpt lat="43.36047" lon="-0.1989">
        <ele>286.61</ele>
        <time>2013-06-30T06:55:41Z</time>
      </trkpt>
      <trkpt lat="43.36037" lon="-0.19892">
        <ele>286.61</ele>
        <time>2013-06-30T06:55:48Z</time>
      </trkpt>
      <trkpt lat="43.36027" lon="-0.19898">
        <ele>286.61</ele>
        <time>2013-06-30T06:55:55Z</time>
      </trkpt>
      <trkpt lat="43.36018" lon="-0.19908">
        <ele>287.09</ele>
        <time>2013-06-30T06:56:03Z</time>
      </trkpt>
      <trkpt lat="43.36009" lon="-0.19914">
        <ele>287.57</ele>
        <time>2013-06-30T06:56:10Z</time>
      </trkpt>
      <trkpt lat="43.36" lon="-0.19921">
        <ele>287.57</ele>
        <time>2013-06-30T06:56:19Z</time>
      </trkpt>
      <trkpt lat="43.3599" lon="-0.19921">
        <ele>288.05</ele>
        <time>2013-06-30T06:56:28Z</time>
      </trkpt>
      <trkpt lat="43.3598" lon="-0.19914">
        <ele>287.57</ele>
        <time>2013-06-30T06:56:37Z</time>
      </trkpt>
      <trkpt lat="43.35972" lon="-0.19905">
        <ele>287.57</ele>
        <time>2013-06-30T06:56:44Z</time>
      </trkpt>
      <trkpt lat="43.35963" lon="-0.19897">
        <ele>287.57</ele>
        <time>2013-06-30T06:56:53Z</time>
      </trkpt>
      <trkpt lat="43.35954" lon="-0.19887">
        <ele>287.09</ele>
        <time>2013-06-30T06:57:02Z</time>
      </trkpt>
      <trkpt lat="43.35945" lon="-0.1988">
        <ele>286.61</ele>
        <time>2013-06-30T06:57:10Z</time>
      </trkpt>
      <trkpt lat="43.35934" lon="-0.19877">
        <ele>286.61</ele>
        <time>2013-06-30T06:57:17Z</time>
      </trkpt>
      <trkpt lat="43.35924" lon="-0.19873">
        <ele>286.61</ele>
        <time>2013-06-30T06:57:24Z</time>
      </trkpt>
      <trkpt lat="43.35912" lon="-0.19871">
        <ele>287.57</ele>
        <time>2013-06-30T06:57:32Z</time>
      </trkpt>
      <trkpt lat="43.35901" lon="-0.1987">
        <ele>286.61</ele>
        <time>2013-06-30T06:57:40Z</time>
      </trkpt>
      <trkpt lat="43.3589" lon="-0.1987">
        <ele>286.61</ele>
        <time>2013-06-30T06:57:47Z</time>
      </trkpt>
      <trkpt lat="43.35879" lon="-0.19869">
        <ele>287.09</ele>
        <time>2013-06-30T06:57:55Z</time>
      </trkpt>
      <trkpt lat="43.35867" lon="-0.19866">
        <ele>287.09</ele>
        <time>2013-06-30T06:58:04Z</time>
      </trkpt>
      <trkpt lat="43.35856" lon="-0.19861">
        <ele>287.57</ele>
        <time>2013-06-30T06:58:12Z</time>
      </trkpt>
      <trkpt lat="43.35844" lon="-0.19856">
        <ele>287.57</ele>
        <time>2013-06-30T06:58:20Z</time>
      </trkpt>
      <trkpt lat="43.35834" lon="-0.1985">
        <ele>287.57</ele>
        <time>2013-06-30T06:58:28Z</time>
      </trkpt>
      <trkpt lat="43.35821" lon="-0.19842">
        <ele>287.57</ele>
        <time>2013-06-30T06:58:36Z</time>
      </trkpt>
      <trkpt lat="43.35809" lon="-0.19838">
        <ele>287.57</ele>
        <time>2013-06-30T06:58:44Z</time>
      </trkpt>
      <trkpt lat="43.35798" lon="-0.19835">
        <ele>287.09</ele>
        <time>2013-06-30T06:58:52Z</time>
      </trkpt>
      <trkpt lat="43.35796" lon="-0.19821">
        <ele>287.57</ele>
        <time>2013-06-30T06:59:00Z</time>
      </trkpt>
      <trkpt lat="43.35802" lon="-0.19809">
        <ele>287.57</ele>
        <time>2013-06-30T06:59:08Z</time>
      </trkpt>
      <trkpt lat="43.35806" lon="-0.19797">
        <ele>288.05</ele>
        <time>2013-06-30T06:59:17Z</time>
      </trkpt>
      <trkpt lat="43.35798" lon="-0.19783">
        <ele>288.05</ele>
        <time>2013-06-30T06:59:26Z</time>
      </trkpt>
      <trkpt lat="43.35789" lon="-0.19773">
        <ele>288.05</ele>
        <time>2013-06-30T06:59:34Z</time>
      </trkpt>
      <trkpt lat="43.35783" lon="-0.19762">
        <ele>288.05</ele>
        <time>2013-06-30T06:59:41Z</time>
      </trkpt>
      <trkpt lat="43.35774" lon="-0.19752">
        <ele>288.53</ele>
        <time>2013-06-30T06:59:49Z</time>
      </trkpt>
      <trkpt lat="43.35764" lon="-0.19746">
        <ele>289.01</ele>
        <time>2013-06-30T06:59:57Z</time>
      </trkpt>
      <trkpt lat="43.35753" lon="-0.19731">
        <ele>288.53</ele>
        <time>2013-06-30T07:00:05Z</time>
      </trkpt>
      <trkpt lat="43.35745" lon="-0.19717">
        <ele>288.05</ele>
        <time>2013-06-30T07:00:11Z</time>
      </trkpt>
      <trkpt lat="43.35737" lon="-0.19709">
        <ele>288.53</ele>
        <time>2013-06-30T07:00:17Z</time>
      </trkpt>
      <trkpt lat="43.35728" lon="-0.19706">
        <ele>288.53</ele>
        <time>2013-06-30T07:00:23Z</time>
      </trkpt>
      <trkpt lat="43.35717" lon="-0.19702">
        <ele>288.53</ele>
        <time>2013-06-30T07:00:30Z</time>
      </trkpt>
      <trkpt lat="43.35708" lon="-0.19699">
        <ele>288.53</ele>
        <time>2013-06-30T07:00:36Z</time>
      </trkpt>
      <trkpt lat="43.35699" lon="-0.19697">
        <ele>288.53</ele>
        <time>2013-06-30T07:00:42Z</time>
      </trkpt>
      <trkpt lat="43.3569" lon="-0.19694">
        <ele>288.53</ele>
        <time>2013-06-30T07:00:48Z</time>
      </trkpt>
      <trkpt lat="43.35681" lon="-0.19692">
        <ele>288.05</ele>
        <time>2013-06-30T07:00:54Z</time>
      </trkpt>
      <trkpt lat="43.35671" lon="-0.19687">
        <ele>287.57</ele>
        <time>2013-06-30T07:01:00Z</time>
      </trkpt>
      <trkpt lat="43.35661" lon="-0.19683">
        <ele>288.05</ele>
        <time>2013-06-30T07:01:07Z</time>
      </trkpt>
      <trkpt lat="43.35652" lon="-0.19679">
        <ele>287.57</ele>
        <time>2013-06-30T07:01:13Z</time>
      </trkpt>
      <trkpt lat="43.35641" lon="-0.19677">
        <ele>287.09</ele>
        <time>2013-06-30T07:01:20Z</time>
      </trkpt>
      <trkpt lat="43.35631" lon="-0.19673">
        <ele>286.13</ele>
        <time>2013-06-30T07:01:27Z</time>
      </trkpt>
      <trkpt lat="43.35621" lon="-0.19668">
        <ele>284.21</ele>
        <time>2013-06-30T07:01:34Z</time>
      </trkpt>
      <trkpt lat="43.35612" lon="-0.19662">
        <ele>284.21</ele>
        <time>2013-06-30T07:01:40Z</time>
      </trkpt>
      <trkpt lat="43.356" lon="-0.1966">
        <ele>283.73</ele>
        <time>2013-06-30T07:01:47Z</time>
      </trkpt>
      <trkpt lat="43.3559" lon="-0.19659">
        <ele>283.73</ele>
        <time>2013-06-30T07:01:54Z</time>
      </trkpt>
      <trkpt lat="43.35581" lon="-0.19657">
        <ele>284.21</ele>
        <time>2013-06-30T07:02:00Z</time>
      </trkpt>
      <trkpt lat="43.3557" lon="-0.19653">
        <ele>284.69</ele>
        <time>2013-06-30T07:02:07Z</time>
      </trkpt>
      <trkpt lat="43.35562" lon="-0.19648">
        <ele>284.69</ele>
        <time>2013-06-30T07:02:13Z</time>
      </trkpt>
      <trkpt lat="43.35552" lon="-0.19643">
        <ele>285.65</ele>
        <time>2013-06-30T07:02:20Z</time>
      </trkpt>
      <trkpt lat="43.35543" lon="-0.19639">
        <ele>286.13</ele>
        <time>2013-06-30T07:02:27Z</time>
      </trkpt>
      <trkpt lat="43.35533" lon="-0.19636">
        <ele>286.13</ele>
        <time>2013-06-30T07:02:34Z</time>
      </trkpt>
      <trkpt lat="43.35522" lon="-0.19635">
        <ele>286.13</ele>
        <time>2013-06-30T07:02:41Z</time>
      </trkpt>
      <trkpt lat="43.35516" lon="-0.19642">
        <ele>287.09</ele>
        <time>2013-06-30T07:02:47Z</time>
      </trkpt>
      <trkpt lat="43.3551" lon="-0.19651">
        <ele>287.09</ele>
        <time>2013-06-30T07:02:54Z</time>
      </trkpt>
      <trkpt lat="43.355" lon="-0.19659">
        <ele>288.05</ele>
        <time>2013-06-30T07:03:01Z</time>
      </trkpt>
      <trkpt lat="43.35491" lon="-0.19667">
        <ele>288.05</ele>
        <time>2013-06-30T07:03:08Z</time>
      </trkpt>
      <trkpt lat="43.35483" lon="-0.19672">
        <ele>289.01</ele>
        <time>2013-06-30T07:03:14Z</time>
      </trkpt>
      <trkpt lat="43.35474" lon="-0.1968">
        <ele>289.49</ele>
        <time>2013-06-30T07:03:21Z</time>
      </trkpt>
      <trkpt lat="43.35469" lon="-0.19693">
        <ele>289.49</ele>
        <time>2013-06-30T07:03:28Z</time>
      </trkpt>
      <trkpt lat="43.35464" lon="-0.19707">
        <ele>289.49</ele>
        <time>2013-06-30T07:03:35Z</time>
      </trkpt>
      <trkpt lat="43.35458" lon="-0.19719">
        <ele>289.97</ele>
        <time>2013-06-30T07:03:42Z</time>
      </trkpt>
      <trkpt lat="43.35453" lon="-0.1973">
        <ele>289.97</ele>
        <time>2013-06-30T07:03:49Z</time>
      </trkpt>
      <trkpt lat="43.35447" lon="-0.19742">
        <ele>289.97</ele>
        <time>2013-06-30T07:03:56Z</time>
      </trkpt>
      <trkpt lat="43.35442" lon="-0.19755">
        <ele>290.94</ele>
        <time>2013-06-30T07:04:03Z</time>
      </trkpt>
      <trkpt lat="43.35436" lon="-0.19766">
        <ele>290.94</ele>
        <time>2013-06-30T07:04:09Z</time>
      </trkpt>
      <trkpt lat="43.35431" lon="-0.19777">
        <ele>291.42</ele>
        <time>2013-06-30T07:04:16Z</time>
      </trkpt>
      <trkpt lat="43.35426" lon="-0.19789">
        <ele>291.9</ele>
        <time>2013-06-30T07:04:23Z</time>
      </trkpt>
      <trkpt lat="43.35422" lon="-0.19801">
        <ele>292.38</ele>
        <time>2013-06-30T07:04:30Z</time>
      </trkpt>
      <trkpt lat="43.35415" lon="-0.19811">
        <ele>293.34</ele>
        <time>2013-06-30T07:04:37Z</time>
      </trkpt>
      <trkpt lat="43.35408" lon="-0.19822">
        <ele>294.3</ele>
        <time>2013-06-30T07:04:45Z</time>
      </trkpt>
      <trkpt lat="43.35401" lon="-0.19834">
        <ele>295.26</ele>
        <time>2013-06-30T07:04:53Z</time>
      </trkpt>
      <trkpt lat="43.35394" lon="-0.19851">
        <ele>297.18</ele>
        <time>2013-06-30T07:05:03Z</time>
      </trkpt>
      <trkpt lat="43.35391" lon="-0.19865">
        <ele>297.18</ele>
        <time>2013-06-30T07:05:10Z</time>
      </trkpt>
      <trkpt lat="43.3539" lon="-0.1988">
        <ele>296.7</ele>
        <time>2013-06-30T07:05:17Z</time>
      </trkpt>
      <trkpt lat="43.35383" lon="-0.1989">
        <ele>297.18</ele>
        <time>2013-06-30T07:05:24Z</time>
      </trkpt>
      <trkpt lat="43.35374" lon="-0.19896">
        <ele>297.18</ele>
        <time>2013-06-30T07:05:32Z</time>
      </trkpt>
      <trkpt lat="43.35365" lon="-0.199">
        <ele>298.63</ele>
        <time>2013-06-30T07:05:39Z</time>
      </trkpt>
      <trkpt lat="43.35355" lon="-0.19905">
        <ele>299.11</ele>
        <time>2013-06-30T07:05:46Z</time>
      </trkpt>
      <trkpt lat="43.35347" lon="-0.19913">
        <ele>299.11</ele>
        <time>2013-06-30T07:05:53Z</time>
      </trkpt>
      <trkpt lat="43.3534" lon="-0.19924">
        <ele>299.59</ele>
        <time>2013-06-30T07:06:00Z</time>
      </trkpt>
      <trkpt lat="43.35334" lon="-0.19933">
        <ele>300.07</ele>
        <time>2013-06-30T07:06:07Z</time>
      </trkpt>
      <trkpt lat="43.35329" lon="-0.19944">
        <ele>300.07</ele>
        <time>2013-06-30T07:06:13Z</time>
      </trkpt>
      <trkpt lat="43.35321" lon="-0.19954">
        <ele>300.07</ele>
        <time>2013-06-30T07:06:20Z</time>
      </trkpt>
      <trkpt lat="43.35314" lon="-0.19965">
        <ele>300.55</ele>
        <time>2013-06-30T07:06:26Z</time>
      </trkpt>
      <trkpt lat="43.35308" lon="-0.19973">
        <ele>300.55</ele>
        <time>2013-06-30T07:06:33Z</time>
      </trkpt>
      <trkpt lat="43.35303" lon="-0.19985">
        <ele>301.51</ele>
        <time>2013-06-30T07:06:40Z</time>
      </trkpt>
      <trkpt lat="43.35299" lon="-0.19995">
        <ele>301.51</ele>
        <time>2013-06-30T07:06:46Z</time>
      </trkpt>
      <trkpt lat="43.35295" lon="-0.20007">
        <ele>302.95</ele>
        <time>2013-06-30T07:06:53Z</time>
      </trkpt>
      <trkpt lat="43.35291" lon="-0.20019">
        <ele>303.43</ele>
        <time>2013-06-30T07:07:00Z</time>
      </trkpt>
      <trkpt lat="43.35288" lon="-0.20031">
        <ele>303.43</ele>
        <time>2013-06-30T07:07:07Z</time>
      </trkpt>
      <trkpt lat="43.35287" lon="-0.20043">
        <ele>303.91</ele>
        <time>2013-06-30T07:07:13Z</time>
      </trkpt>
      <trkpt lat="43.35281" lon="-0.20048">
        <ele>302.95</ele>
        <time>2013-06-30T07:07:33Z</time>
      </trkpt>
      <trkpt lat="43.35274" lon="-0.20038">
        <ele>304.39</ele>
        <time>2013-06-30T07:07:59Z</time>
      </trkpt>
      <trkpt lat="43.35267" lon="-0.20029">
        <ele>304.39</ele>
        <time>2013-06-30T07:08:06Z</time>
      </trkpt>
      <trkpt lat="43.35258" lon="-0.20019">
        <ele>304.39</ele>
        <time>2013-06-30T07:08:13Z</time>
      </trkpt>
      <trkpt lat="43.35251" lon="-0.20009">
        <ele>304.39</ele>
        <time>2013-06-30T07:08:19Z</time>
      </trkpt>
      <trkpt lat="43.35244" lon="-0.19999">
        <ele>304.39</ele>
        <time>2013-06-30T07:08:25Z</time>
      </trkpt>
      <trkpt lat="43.35238" lon="-0.19989">
        <ele>304.39</ele>
        <time>2013-06-30T07:08:31Z</time>
      </trkpt>
      <trkpt lat="43.35231" lon="-0.19979">
        <ele>303.91</ele>
        <time>2013-06-30T07:08:37Z</time>
      </trkpt>
      <trkpt lat="43.35223" lon="-0.1997">
        <ele>303.91</ele>
        <time>2013-06-30T07:08:44Z</time>
      </trkpt>
      <trkpt lat="43.35217" lon="-0.1996">
        <ele>303.91</ele>
        <time>2013-06-30T07:08:50Z</time>
      </trkpt>
      <trkpt lat="43.3521" lon="-0.19951">
        <ele>303.91</ele>
        <time>2013-06-30T07:08:56Z</time>
      </trkpt>
      <trkpt lat="43.35204" lon="-0.1994">
        <ele>303.91</ele>
        <time>2013-06-30T07:09:02Z</time>
      </trkpt>
      <trkpt lat="43.35194" lon="-0.19932">
        <ele>303.91</ele>
        <time>2013-06-30T07:09:09Z</time>
      </trkpt>
      <trkpt lat="43.35186" lon="-0.19925">
        <ele>303.43</ele>
        <time>2013-06-30T07:09:15Z</time>
      </trkpt>
      <trkpt lat="43.35179" lon="-0.19917">
        <ele>303.91</ele>
        <time>2013-06-30T07:09:21Z</time>
      </trkpt>
      <trkpt lat="43.35172" lon="-0.19908">
        <ele>303.91</ele>
        <time>2013-06-30T07:09:27Z</time>
      </trkpt>
      <trkpt lat="43.35165" lon="-0.199">
        <ele>303.91</ele>
        <time>2013-06-30T07:09:34Z</time>
      </trkpt>
      <trkpt lat="43.35156" lon="-0.19892">
        <ele>303.43</ele>
        <time>2013-06-30T07:09:40Z</time>
      </trkpt>
      <trkpt lat="43.35149" lon="-0.19884">
        <ele>303.43</ele>
        <time>2013-06-30T07:09:46Z</time>
      </trkpt>
      <trkpt lat="43.35143" lon="-0.19871">
        <ele>303.43</ele>
        <time>2013-06-30T07:09:53Z</time>
      </trkpt>
      <trkpt lat="43.35136" lon="-0.19861">
        <ele>303.43</ele>
        <time>2013-06-30T07:10:00Z</time>
      </trkpt>
      <trkpt lat="43.3513" lon="-0.19851">
        <ele>302.95</ele>
        <time>2013-06-30T07:10:06Z</time>
      </trkpt>
      <trkpt lat="43.35125" lon="-0.19839">
        <ele>302.95</ele>
        <time>2013-06-30T07:10:12Z</time>
      </trkpt>
      <trkpt lat="43.35122" lon="-0.19828">
        <ele>302.95</ele>
        <time>2013-06-30T07:10:18Z</time>
      </trkpt>
      <trkpt lat="43.35119" lon="-0.19816">
        <ele>302.47</ele>
        <time>2013-06-30T07:10:24Z</time>
      </trkpt>
      <trkpt lat="43.35117" lon="-0.19803">
        <ele>302.95</ele>
        <time>2013-06-30T07:10:31Z</time>
      </trkpt>
      <trkpt lat="43.35115" lon="-0.19789">
        <ele>302.95</ele>
        <time>2013-06-30T07:10:37Z</time>
      </trkpt>
      <trkpt lat="43.35112" lon="-0.19776">
        <ele>303.43</ele>
        <time>2013-06-30T07:10:43Z</time>
      </trkpt>
      <trkpt lat="43.35109" lon="-0.19764">
        <ele>303.43</ele>
        <time>2013-06-30T07:10:49Z</time>
      </trkpt>
      <trkpt lat="43.35103" lon="-0.19754">
        <ele>303.91</ele>
        <time>2013-06-30T07:10:55Z</time>
      </trkpt>
      <trkpt lat="43.35093" lon="-0.1975">
        <ele>304.39</ele>
        <time>2013-06-30T07:11:02Z</time>
      </trkpt>
      <trkpt lat="43.35083" lon="-0.19748">
        <ele>304.39</ele>
        <time>2013-06-30T07:11:09Z</time>
      </trkpt>
      <trkpt lat="43.35073" lon="-0.19746">
        <ele>304.88</ele>
        <time>2013-06-30T07:11:15Z</time>
      </trkpt>
      <trkpt lat="43.35064" lon="-0.19743">
        <ele>304.88</ele>
        <time>2013-06-30T07:11:21Z</time>
      </trkpt>
      <trkpt lat="43.35056" lon="-0.1974">
        <ele>304.88</ele>
        <time>2013-06-30T07:11:27Z</time>
      </trkpt>
      <trkpt lat="43.35046" lon="-0.19736">
        <ele>304.88</ele>
        <time>2013-06-30T07:11:33Z</time>
      </trkpt>
      <trkpt lat="43.35038" lon="-0.19735">
        <ele>304.88</ele>
        <time>2013-06-30T07:11:39Z</time>
      </trkpt>
      <trkpt lat="43.35029" lon="-0.19732">
        <ele>304.88</ele>
        <time>2013-06-30T07:11:44Z</time>
      </trkpt>
      <trkpt lat="43.35019" lon="-0.19728">
        <ele>305.36</ele>
        <time>2013-06-30T07:11:50Z</time>
      </trkpt>
      <trkpt lat="43.3501" lon="-0.19723">
        <ele>305.84</ele>
        <time>2013-06-30T07:11:56Z</time>
      </trkpt>
      <trkpt lat="43.35001" lon="-0.19721">
        <ele>304.88</ele>
        <time>2013-06-30T07:12:03Z</time>
      </trkpt>
      <trkpt lat="43.34991" lon="-0.19718">
        <ele>305.84</ele>
        <time>2013-06-30T07:12:09Z</time>
      </trkpt>
      <trkpt lat="43.34982" lon="-0.19713">
        <ele>305.36</ele>
        <time>2013-06-30T07:12:15Z</time>
      </trkpt>
      <trkpt lat="43.34973" lon="-0.1971">
        <ele>305.84</ele>
        <time>2013-06-30T07:12:21Z</time>
      </trkpt>
      <trkpt lat="43.34965" lon="-0.19706">
        <ele>305.36</ele>
        <time>2013-06-30T07:12:27Z</time>
      </trkpt>
      <trkpt lat="43.34956" lon="-0.19699">
        <ele>306.32</ele>
        <time>2013-06-30T07:12:33Z</time>
      </trkpt>
      <trkpt lat="43.34947" lon="-0.19696">
        <ele>305.84</ele>
        <time>2013-06-30T07:12:40Z</time>
      </trkpt>
      <trkpt lat="43.34937" lon="-0.19694">
        <ele>305.84</ele>
        <time>2013-06-30T07:12:46Z</time>
      </trkpt>
      <trkpt lat="43.34928" lon="-0.19689">
        <ele>305.36</ele>
        <time>2013-06-30T07:12:52Z</time>
      </trkpt>
      <trkpt lat="43.34921" lon="-0.1968">
        <ele>305.84</ele>
        <time>2013-06-30T07:12:58Z</time>
      </trkpt>
      <trkpt lat="43.34912" lon="-0.19671">
        <ele>305.84</ele>
        <time>2013-06-30T07:13:04Z</time>
      </trkpt>
      <trkpt lat="43.34903" lon="-0.19665">
        <ele>305.84</ele>
        <time>2013-06-30T07:13:11Z</time>
      </trkpt>
      <trkpt lat="43.34895" lon="-0.19658">
        <ele>305.84</ele>
        <time>2013-06-30T07:13:17Z</time>
      </trkpt>
      <trkpt lat="43.34885" lon="-0.19651">
        <ele>306.32</ele>
        <time>2013-06-30T07:13:24Z</time>
      </trkpt>
      <trkpt lat="43.34877" lon="-0.1964">
        <ele>306.32</ele>
        <time>2013-06-30T07:13:31Z</time>
      </trkpt>
      <trkpt lat="43.34875" lon="-0.19627">
        <ele>305.36</ele>
        <time>2013-06-30T07:13:37Z</time>
      </trkpt>
      <trkpt lat="43.34874" lon="-0.19611">
        <ele>305.84</ele>
        <time>2013-06-30T07:13:44Z</time>
      </trkpt>
      <trkpt lat="43.34875" lon="-0.19596">
        <ele>305.84</ele>
        <time>2013-06-30T07:13:51Z</time>
      </trkpt>
      <trkpt lat="43.3488" lon="-0.19584">
        <ele>305.36</ele>
        <time>2013-06-30T07:13:57Z</time>
      </trkpt>
      <trkpt lat="43.34884" lon="-0.19571">
        <ele>305.84</ele>
        <time>2013-06-30T07:14:03Z</time>
      </trkpt>
      <trkpt lat="43.34885" lon="-0.19559">
        <ele>305.36</ele>
        <time>2013-06-30T07:14:09Z</time>
      </trkpt>
      <trkpt lat="43.34889" lon="-0.19547">
        <ele>304.39</ele>
        <time>2013-06-30T07:14:15Z</time>
      </trkpt>
      <trkpt lat="43.34893" lon="-0.19534">
        <ele>304.88</ele>
        <time>2013-06-30T07:14:21Z</time>
      </trkpt>
      <trkpt lat="43.34889" lon="-0.19522">
        <ele>304.39</ele>
        <time>2013-06-30T07:14:27Z</time>
      </trkpt>
      <trkpt lat="43.34879" lon="-0.19515">
        <ele>304.39</ele>
        <time>2013-06-30T07:14:33Z</time>
      </trkpt>
      <trkpt lat="43.34872" lon="-0.19506">
        <ele>304.39</ele>
        <time>2013-06-30T07:14:39Z</time>
      </trkpt>
      <trkpt lat="43.3487" lon="-0.19494">
        <ele>303.43</ele>
        <time>2013-06-30T07:14:45Z</time>
      </trkpt>
      <trkpt lat="43.34873" lon="-0.19481">
        <ele>303.43</ele>
        <time>2013-06-30T07:14:52Z</time>
      </trkpt>
      <trkpt lat="43.34879" lon="-0.19469">
        <ele>303.43</ele>
        <time>2013-06-30T07:14:58Z</time>
      </trkpt>
      <trkpt lat="43.34883" lon="-0.19457">
        <ele>303.43</ele>
        <time>2013-06-30T07:15:04Z</time>
      </trkpt>
      <trkpt lat="43.34887" lon="-0.19445">
        <ele>302.95</ele>
        <time>2013-06-30T07:15:10Z</time>
      </trkpt>
      <trkpt lat="43.34892" lon="-0.19434">
        <ele>302.95</ele>
        <time>2013-06-30T07:15:16Z</time>
      </trkpt>
      <trkpt lat="43.34896" lon="-0.19422">
        <ele>301.99</ele>
        <time>2013-06-30T07:15:22Z</time>
      </trkpt>
      <trkpt lat="43.34899" lon="-0.1941">
        <ele>300.55</ele>
        <time>2013-06-30T07:15:28Z</time>
      </trkpt>
      <trkpt lat="43.34896" lon="-0.19396">
        <ele>300.07</ele>
        <time>2013-06-30T07:15:34Z</time>
      </trkpt>
      <trkpt lat="43.34889" lon="-0.19384">
        <ele>298.63</ele>
        <time>2013-06-30T07:15:40Z</time>
      </trkpt>
      <trkpt lat="43.34883" lon="-0.19372">
        <ele>298.15</ele>
        <time>2013-06-30T07:15:46Z</time>
      </trkpt>
      <trkpt lat="43.34878" lon="-0.19361">
        <ele>297.18</ele>
        <time>2013-06-30T07:15:52Z</time>
      </trkpt>
      <trkpt lat="43.34872" lon="-0.19349">
        <ele>296.7</ele>
        <time>2013-06-30T07:15:58Z</time>
      </trkpt>
      <trkpt lat="43.34869" lon="-0.19337">
        <ele>295.26</ele>
        <time>2013-06-30T07:16:03Z</time>
      </trkpt>
      <trkpt lat="43.34864" lon="-0.19324">
        <ele>294.3</ele>
        <time>2013-06-30T07:16:10Z</time>
      </trkpt>
      <trkpt lat="43.34864" lon="-0.19312">
        <ele>293.82</ele>
        <time>2013-06-30T07:16:17Z</time>
      </trkpt>
      <trkpt lat="43.3487" lon="-0.193">
        <ele>293.34</ele>
        <time>2013-06-30T07:16:24Z</time>
      </trkpt>
      <trkpt lat="43.34879" lon="-0.1929">
        <ele>293.34</ele>
        <time>2013-06-30T07:16:30Z</time>
      </trkpt>
      <trkpt lat="43.34885" lon="-0.19279">
        <ele>292.86</ele>
        <time>2013-06-30T07:16:36Z</time>
      </trkpt>
      <trkpt lat="43.34892" lon="-0.19269">
        <ele>292.86</ele>
        <time>2013-06-30T07:16:43Z</time>
      </trkpt>
      <trkpt lat="43.34901" lon="-0.19257">
        <ele>292.86</ele>
        <time>2013-06-30T07:16:51Z</time>
      </trkpt>
      <trkpt lat="43.34908" lon="-0.19247">
        <ele>292.86</ele>
        <time>2013-06-30T07:16:57Z</time>
      </trkpt>
      <trkpt lat="43.34908" lon="-0.19232">
        <ele>292.86</ele>
        <time>2013-06-30T07:17:04Z</time>
      </trkpt>
      <trkpt lat="43.34896" lon="-0.19225">
        <ele>292.86</ele>
        <time>2013-06-30T07:17:11Z</time>
      </trkpt>
      <trkpt lat="43.34888" lon="-0.19218">
        <ele>292.86</ele>
        <time>2013-06-30T07:17:17Z</time>
      </trkpt>
      <trkpt lat="43.3488" lon="-0.19209">
        <ele>292.86</ele>
        <time>2013-06-30T07:17:23Z</time>
      </trkpt>
      <trkpt lat="43.34872" lon="-0.19201">
        <ele>293.34</ele>
        <time>2013-06-30T07:17:29Z</time>
      </trkpt>
      <trkpt lat="43.34863" lon="-0.19193">
        <ele>293.34</ele>
        <time>2013-06-30T07:17:36Z</time>
      </trkpt>
      <trkpt lat="43.34854" lon="-0.19186">
        <ele>293.34</ele>
        <time>2013-06-30T07:17:43Z</time>
      </trkpt>
      <trkpt lat="43.34845" lon="-0.19176">
        <ele>293.34</ele>
        <time>2013-06-30T07:17:50Z</time>
      </trkpt>
      <trkpt lat="43.34837" lon="-0.19167">
        <ele>293.34</ele>
        <time>2013-06-30T07:17:57Z</time>
      </trkpt>
      <trkpt lat="43.34828" lon="-0.19158">
        <ele>292.86</ele>
        <time>2013-06-30T07:18:04Z</time>
      </trkpt>
      <trkpt lat="43.34819" lon="-0.1915">
        <ele>293.34</ele>
        <time>2013-06-30T07:18:11Z</time>
      </trkpt>
      <trkpt lat="43.34813" lon="-0.1914">
        <ele>293.34</ele>
        <time>2013-06-30T07:18:17Z</time>
      </trkpt>
      <trkpt lat="43.34807" lon="-0.19128">
        <ele>293.34</ele>
        <time>2013-06-30T07:18:24Z</time>
      </trkpt>
      <trkpt lat="43.34801" lon="-0.19118">
        <ele>293.34</ele>
        <time>2013-06-30T07:18:30Z</time>
      </trkpt>
      <trkpt lat="43.34795" lon="-0.19108">
        <ele>293.82</ele>
        <time>2013-06-30T07:18:36Z</time>
      </trkpt>
      <trkpt lat="43.34788" lon="-0.19096">
        <ele>293.82</ele>
        <time>2013-06-30T07:18:43Z</time>
      </trkpt>
      <trkpt lat="43.34781" lon="-0.19088">
        <ele>293.82</ele>
        <time>2013-06-30T07:18:49Z</time>
      </trkpt>
      <trkpt lat="43.34772" lon="-0.19077">
        <ele>293.82</ele>
        <time>2013-06-30T07:18:57Z</time>
      </trkpt>
      <trkpt lat="43.34763" lon="-0.19068">
        <ele>293.82</ele>
        <time>2013-06-30T07:19:05Z</time>
      </trkpt>
      <trkpt lat="43.34754" lon="-0.19062">
        <ele>293.82</ele>
        <time>2013-06-30T07:19:11Z</time>
      </trkpt>
      <trkpt lat="43.34744" lon="-0.1906">
        <ele>293.82</ele>
        <time>2013-06-30T07:19:18Z</time>
      </trkpt>
      <trkpt lat="43.34734" lon="-0.19062">
        <ele>294.3</ele>
        <time>2013-06-30T07:19:24Z</time>
      </trkpt>
      <trkpt lat="43.34728" lon="-0.1907">
        <ele>293.82</ele>
        <time>2013-06-30T07:19:30Z</time>
      </trkpt>
      <trkpt lat="43.34721" lon="-0.19081">
        <ele>293.82</ele>
        <time>2013-06-30T07:19:37Z</time>
      </trkpt>
      <trkpt lat="43.34716" lon="-0.19093">
        <ele>293.82</ele>
        <time>2013-06-30T07:19:43Z</time>
      </trkpt>
      <trkpt lat="43.34711" lon="-0.19105">
        <ele>294.3</ele>
        <time>2013-06-30T07:19:49Z</time>
      </trkpt>
      <trkpt lat="43.34705" lon="-0.19116">
        <ele>294.3</ele>
        <time>2013-06-30T07:19:55Z</time>
      </trkpt>
      <trkpt lat="43.34697" lon="-0.19124">
        <ele>294.3</ele>
        <time>2013-06-30T07:20:02Z</time>
      </trkpt>
      <trkpt lat="43.34689" lon="-0.1913">
        <ele>294.78</ele>
        <time>2013-06-30T07:20:09Z</time>
      </trkpt>
      <trkpt lat="43.34681" lon="-0.19136">
        <ele>294.78</ele>
        <time>2013-06-30T07:20:16Z</time>
      </trkpt>
      <trkpt lat="43.34672" lon="-0.19141">
        <ele>294.78</ele>
        <time>2013-06-30T07:20:22Z</time>
      </trkpt>
      <trkpt lat="43.34664" lon="-0.19146">
        <ele>295.26</ele>
        <time>2013-06-30T07:20:28Z</time>
      </trkpt>
      <trkpt lat="43.34655" lon="-0.19151">
        <ele>294.78</ele>
        <time>2013-06-30T07:20:34Z</time>
      </trkpt>
      <trkpt lat="43.34646" lon="-0.19159">
        <ele>295.26</ele>
        <time>2013-06-30T07:20:41Z</time>
      </trkpt>
      <trkpt lat="43.34638" lon="-0.19166">
        <ele>295.74</ele>
        <time>2013-06-30T07:20:47Z</time>
      </trkpt>
      <trkpt lat="43.34629" lon="-0.19171">
        <ele>295.26</ele>
        <time>2013-06-30T07:20:53Z</time>
      </trkpt>
      <trkpt lat="43.34621" lon="-0.19175">
        <ele>295.74</ele>
        <time>2013-06-30T07:20:59Z</time>
      </trkpt>
      <trkpt lat="43.34612" lon="-0.19182">
        <ele>295.26</ele>
        <time>2013-06-30T07:21:06Z</time>
      </trkpt>
      <trkpt lat="43.34603" lon="-0.19189">
        <ele>295.74</ele>
        <time>2013-06-30T07:21:12Z</time>
      </trkpt>
      <trkpt lat="43.34595" lon="-0.19194">
        <ele>295.74</ele>
        <time>2013-06-30T07:21:18Z</time>
      </trkpt>
      <trkpt lat="43.34587" lon="-0.19202">
        <ele>296.22</ele>
        <time>2013-06-30T07:21:24Z</time>
      </trkpt>
      <trkpt lat="43.3458" lon="-0.1921">
        <ele>296.22</ele>
        <time>2013-06-30T07:21:30Z</time>
      </trkpt>
      <trkpt lat="43.34571" lon="-0.19215">
        <ele>296.7</ele>
        <time>2013-06-30T07:21:37Z</time>
      </trkpt>
      <trkpt lat="43.34562" lon="-0.19213">
        <ele>296.7</ele>
        <time>2013-06-30T07:21:43Z</time>
      </trkpt>
      <trkpt lat="43.34553" lon="-0.19209">
        <ele>297.18</ele>
        <time>2013-06-30T07:21:49Z</time>
      </trkpt>
      <trkpt lat="43.34543" lon="-0.19207">
        <ele>297.18</ele>
        <time>2013-06-30T07:21:56Z</time>
      </trkpt>
      <trkpt lat="43.34534" lon="-0.19204">
        <ele>297.18</ele>
        <time>2013-06-30T07:22:02Z</time>
      </trkpt>
      <trkpt lat="43.34525" lon="-0.192">
        <ele>297.18</ele>
        <time>2013-06-30T07:22:08Z</time>
      </trkpt>
      <trkpt lat="43.34515" lon="-0.19198">
        <ele>297.18</ele>
        <time>2013-06-30T07:22:15Z</time>
      </trkpt>
      <trkpt lat="43.34506" lon="-0.192">
        <ele>297.67</ele>
        <time>2013-06-30T07:22:21Z</time>
      </trkpt>
      <trkpt lat="43.34498" lon="-0.19209">
        <ele>297.67</ele>
        <time>2013-06-30T07:22:28Z</time>
      </trkpt>
      <trkpt lat="43.34491" lon="-0.19222">
        <ele>297.67</ele>
        <time>2013-06-30T07:22:35Z</time>
      </trkpt>
      <trkpt lat="43.34483" lon="-0.19234">
        <ele>297.67</ele>
        <time>2013-06-30T07:22:44Z</time>
      </trkpt>
      <trkpt lat="43.34477" lon="-0.19247">
        <ele>298.15</ele>
        <time>2013-06-30T07:22:51Z</time>
      </trkpt>
      <trkpt lat="43.34468" lon="-0.1926">
        <ele>298.63</ele>
        <time>2013-06-30T07:22:59Z</time>
      </trkpt>
      <trkpt lat="43.34458" lon="-0.19259">
        <ele>298.15</ele>
        <time>2013-06-30T07:23:07Z</time>
      </trkpt>
      <trkpt lat="43.34451" lon="-0.19249">
        <ele>299.11</ele>
        <time>2013-06-30T07:23:14Z</time>
      </trkpt>
      <trkpt lat="43.34442" lon="-0.19249">
        <ele>299.59</ele>
        <time>2013-06-30T07:23:20Z</time>
      </trkpt>
      <trkpt lat="43.34432" lon="-0.19252">
        <ele>301.51</ele>
        <time>2013-06-30T07:23:28Z</time>
      </trkpt>
      <trkpt lat="43.3442" lon="-0.19252">
        <ele>303.43</ele>
        <time>2013-06-30T07:23:36Z</time>
      </trkpt>
      <trkpt lat="43.3441" lon="-0.19252">
        <ele>304.39</ele>
        <time>2013-06-30T07:23:44Z</time>
      </trkpt>
      <trkpt lat="43.34407" lon="-0.19267">
        <ele>305.36</ele>
        <time>2013-06-30T07:23:51Z</time>
      </trkpt>
      <trkpt lat="43.34405" lon="-0.19281">
        <ele>305.36</ele>
        <time>2013-06-30T07:23:58Z</time>
      </trkpt>
      <trkpt lat="43.34403" lon="-0.19297">
        <ele>305.36</ele>
        <time>2013-06-30T07:24:06Z</time>
      </trkpt>
      <trkpt lat="43.34401" lon="-0.19311">
        <ele>305.84</ele>
        <time>2013-06-30T07:24:13Z</time>
      </trkpt>
      <trkpt lat="43.344" lon="-0.19326">
        <ele>306.32</ele>
        <time>2013-06-30T07:24:20Z</time>
      </trkpt>
      <trkpt lat="43.34398" lon="-0.19342">
        <ele>306.8</ele>
        <time>2013-06-30T07:24:28Z</time>
      </trkpt>
      <trkpt lat="43.34396" lon="-0.19356">
        <ele>306.8</ele>
        <time>2013-06-30T07:24:35Z</time>
      </trkpt>
      <trkpt lat="43.34393" lon="-0.19371">
        <ele>307.76</ele>
        <time>2013-06-30T07:24:42Z</time>
      </trkpt>
      <trkpt lat="43.34391" lon="-0.19384">
        <ele>307.76</ele>
        <time>2013-06-30T07:24:48Z</time>
      </trkpt>
      <trkpt lat="43.34386" lon="-0.19395">
        <ele>308.24</ele>
        <time>2013-06-30T07:24:55Z</time>
      </trkpt>
      <trkpt lat="43.34379" lon="-0.19404">
        <ele>308.72</ele>
        <time>2013-06-30T07:25:02Z</time>
      </trkpt>
      <trkpt lat="43.34372" lon="-0.19412">
        <ele>309.2</ele>
        <time>2013-06-30T07:25:08Z</time>
      </trkpt>
      <trkpt lat="43.34365" lon="-0.19421">
        <ele>309.2</ele>
        <time>2013-06-30T07:25:14Z</time>
      </trkpt>
      <trkpt lat="43.34356" lon="-0.19429">
        <ele>310.16</ele>
        <time>2013-06-30T07:25:21Z</time>
      </trkpt>
      <trkpt lat="43.34348" lon="-0.19438">
        <ele>310.16</ele>
        <time>2013-06-30T07:25:28Z</time>
      </trkpt>
      <trkpt lat="43.34338" lon="-0.19446">
        <ele>310.16</ele>
        <time>2013-06-30T07:25:35Z</time>
      </trkpt>
      <trkpt lat="43.34331" lon="-0.19455">
        <ele>310.64</ele>
        <time>2013-06-30T07:25:41Z</time>
      </trkpt>
      <trkpt lat="43.34323" lon="-0.1946">
        <ele>311.6</ele>
        <time>2013-06-30T07:25:47Z</time>
      </trkpt>
      <trkpt lat="43.34314" lon="-0.19469">
        <ele>312.09</ele>
        <time>2013-06-30T07:25:54Z</time>
      </trkpt>
      <trkpt lat="43.34306" lon="-0.19477">
        <ele>312.09</ele>
        <time>2013-06-30T07:26:01Z</time>
      </trkpt>
      <trkpt lat="43.34297" lon="-0.19484">
        <ele>312.57</ele>
        <time>2013-06-30T07:26:07Z</time>
      </trkpt>
      <trkpt lat="43.3429" lon="-0.19492">
        <ele>312.57</ele>
        <time>2013-06-30T07:26:13Z</time>
      </trkpt>
      <trkpt lat="43.34282" lon="-0.19498">
        <ele>313.05</ele>
        <time>2013-06-30T07:26:19Z</time>
      </trkpt>
      <trkpt lat="43.34274" lon="-0.19505">
        <ele>313.05</ele>
        <time>2013-06-30T07:26:26Z</time>
      </trkpt>
      <trkpt lat="43.34264" lon="-0.19514">
        <ele>314.01</ele>
        <time>2013-06-30T07:26:34Z</time>
      </trkpt>
      <trkpt lat="43.34254" lon="-0.19523">
        <ele>314.01</ele>
        <time>2013-06-30T07:26:41Z</time>
      </trkpt>
      <trkpt lat="43.34246" lon="-0.1953">
        <ele>314.01</ele>
        <time>2013-06-30T07:26:47Z</time>
      </trkpt>
      <trkpt lat="43.34238" lon="-0.19537">
        <ele>314.97</ele>
        <time>2013-06-30T07:26:54Z</time>
      </trkpt>
      <trkpt lat="43.34229" lon="-0.19546">
        <ele>314.97</ele>
        <time>2013-06-30T07:27:01Z</time>
      </trkpt>
      <trkpt lat="43.34221" lon="-0.19554">
        <ele>315.45</ele>
        <time>2013-06-30T07:27:07Z</time>
      </trkpt>
      <trkpt lat="43.34213" lon="-0.1956">
        <ele>315.93</ele>
        <time>2013-06-30T07:27:13Z</time>
      </trkpt>
      <trkpt lat="43.34205" lon="-0.19567">
        <ele>315.45</ele>
        <time>2013-06-30T07:27:19Z</time>
      </trkpt>
      <trkpt lat="43.34196" lon="-0.19575">
        <ele>316.41</ele>
        <time>2013-06-30T07:27:26Z</time>
      </trkpt>
      <trkpt lat="43.34189" lon="-0.19582">
        <ele>316.41</ele>
        <time>2013-06-30T07:27:32Z</time>
      </trkpt>
      <trkpt lat="43.34182" lon="-0.19592">
        <ele>316.89</ele>
        <time>2013-06-30T07:27:38Z</time>
      </trkpt>
      <trkpt lat="43.34174" lon="-0.19598">
        <ele>316.89</ele>
        <time>2013-06-30T07:27:44Z</time>
      </trkpt>
      <trkpt lat="43.34166" lon="-0.19604">
        <ele>317.85</ele>
        <time>2013-06-30T07:27:50Z</time>
      </trkpt>
      <trkpt lat="43.34158" lon="-0.19612">
        <ele>317.85</ele>
        <time>2013-06-30T07:27:57Z</time>
      </trkpt>
      <trkpt lat="43.34151" lon="-0.1962">
        <ele>317.85</ele>
        <time>2013-06-30T07:28:03Z</time>
      </trkpt>
      <trkpt lat="43.34142" lon="-0.19628">
        <ele>318.33</ele>
        <time>2013-06-30T07:28:10Z</time>
      </trkpt>
      <trkpt lat="43.34134" lon="-0.19638">
        <ele>318.33</ele>
        <time>2013-06-30T07:28:17Z</time>
      </trkpt>
      <trkpt lat="43.34126" lon="-0.19647">
        <ele>318.33</ele>
        <time>2013-06-30T07:28:23Z</time>
      </trkpt>
      <trkpt lat="43.34119" lon="-0.19656">
        <ele>317.85</ele>
        <time>2013-06-30T07:28:29Z</time>
      </trkpt>
      <trkpt lat="43.34112" lon="-0.19664">
        <ele>318.33</ele>
        <time>2013-06-30T07:28:35Z</time>
      </trkpt>
      <trkpt lat="43.34105" lon="-0.19673">
        <ele>318.81</ele>
        <time>2013-06-30T07:28:41Z</time>
      </trkpt>
      <trkpt lat="43.34098" lon="-0.1968">
        <ele>318.33</ele>
        <time>2013-06-30T07:28:47Z</time>
      </trkpt>
      <trkpt lat="43.3409" lon="-0.19689">
        <ele>318.33</ele>
        <time>2013-06-30T07:28:54Z</time>
      </trkpt>
      <trkpt lat="43.34082" lon="-0.197">
        <ele>318.33</ele>
        <time>2013-06-30T07:29:01Z</time>
      </trkpt>
      <trkpt lat="43.34075" lon="-0.19709">
        <ele>318.81</ele>
        <time>2013-06-30T07:29:07Z</time>
      </trkpt>
      <trkpt lat="43.34068" lon="-0.19718">
        <ele>318.81</ele>
        <time>2013-06-30T07:29:13Z</time>
      </trkpt>
      <trkpt lat="43.34059" lon="-0.19725">
        <ele>318.33</ele>
        <time>2013-06-30T07:29:19Z</time>
      </trkpt>
      <trkpt lat="43.34052" lon="-0.19733">
        <ele>318.81</ele>
        <time>2013-06-30T07:29:25Z</time>
      </trkpt>
      <trkpt lat="43.34044" lon="-0.1974">
        <ele>318.33</ele>
        <time>2013-06-30T07:29:31Z</time>
      </trkpt>
      <trkpt lat="43.34037" lon="-0.19748">
        <ele>318.81</ele>
        <time>2013-06-30T07:29:37Z</time>
      </trkpt>
      <trkpt lat="43.34029" lon="-0.19757">
        <ele>319.3</ele>
        <time>2013-06-30T07:29:44Z</time>
      </trkpt>
      <trkpt lat="43.34021" lon="-0.19766">
        <ele>319.3</ele>
        <time>2013-06-30T07:29:50Z</time>
      </trkpt>
      <trkpt lat="43.34014" lon="-0.19775">
        <ele>319.78</ele>
        <time>2013-06-30T07:29:56Z</time>
      </trkpt>
      <trkpt lat="43.34006" lon="-0.19783">
        <ele>319.78</ele>
        <time>2013-06-30T07:30:02Z</time>
      </trkpt>
      <trkpt lat="43.34" lon="-0.19791">
        <ele>320.26</ele>
        <time>2013-06-30T07:30:08Z</time>
      </trkpt>
      <trkpt lat="43.33992" lon="-0.19798">
        <ele>320.74</ele>
        <time>2013-06-30T07:30:14Z</time>
      </trkpt>
      <trkpt lat="43.33987" lon="-0.19808">
        <ele>320.74</ele>
        <time>2013-06-30T07:30:21Z</time>
      </trkpt>
      <trkpt lat="43.33998" lon="-0.19816">
        <ele>321.22</ele>
        <time>2013-06-30T07:30:29Z</time>
      </trkpt>
      <trkpt lat="43.34009" lon="-0.19824">
        <ele>320.74</ele>
        <time>2013-06-30T07:30:36Z</time>
      </trkpt>
      <trkpt lat="43.3402" lon="-0.19831">
        <ele>320.74</ele>
        <time>2013-06-30T07:30:43Z</time>
      </trkpt>
      <trkpt lat="43.3403" lon="-0.19839">
        <ele>320.26</ele>
        <time>2013-06-30T07:30:49Z</time>
      </trkpt>
      <trkpt lat="43.34037" lon="-0.19847">
        <ele>320.26</ele>
        <time>2013-06-30T07:30:55Z</time>
      </trkpt>
      <trkpt lat="43.34046" lon="-0.19856">
        <ele>319.78</ele>
        <time>2013-06-30T07:31:01Z</time>
      </trkpt>
      <trkpt lat="43.34055" lon="-0.19862">
        <ele>320.74</ele>
        <time>2013-06-30T07:31:07Z</time>
      </trkpt>
      <trkpt lat="43.34064" lon="-0.19867">
        <ele>320.26</ele>
        <time>2013-06-30T07:31:13Z</time>
      </trkpt>
      <trkpt lat="43.34073" lon="-0.19872">
        <ele>320.26</ele>
        <time>2013-06-30T07:31:19Z</time>
      </trkpt>
      <trkpt lat="43.34081" lon="-0.19877">
        <ele>320.26</ele>
        <time>2013-06-30T07:31:25Z</time>
      </trkpt>
      <trkpt lat="43.34091" lon="-0.19882">
        <ele>320.74</ele>
        <time>2013-06-30T07:31:31Z</time>
      </trkpt>
      <trkpt lat="43.341" lon="-0.19889">
        <ele>320.26</ele>
        <time>2013-06-30T07:31:37Z</time>
      </trkpt>
      <trkpt lat="43.3411" lon="-0.19895">
        <ele>320.26</ele>
        <time>2013-06-30T07:31:43Z</time>
      </trkpt>
      <trkpt lat="43.34119" lon="-0.199">
        <ele>319.78</ele>
        <time>2013-06-30T07:31:49Z</time>
      </trkpt>
      <trkpt lat="43.34129" lon="-0.19907">
        <ele>319.78</ele>
        <time>2013-06-30T07:31:55Z</time>
      </trkpt>
      <trkpt lat="43.34138" lon="-0.19911">
        <ele>319.78</ele>
        <time>2013-06-30T07:32:01Z</time>
      </trkpt>
      <trkpt lat="43.34146" lon="-0.19917">
        <ele>319.3</ele>
        <time>2013-06-30T07:32:07Z</time>
      </trkpt>
      <trkpt lat="43.34156" lon="-0.19923">
        <ele>319.3</ele>
        <time>2013-06-30T07:32:14Z</time>
      </trkpt>
      <trkpt lat="43.34165" lon="-0.1993">
        <ele>319.78</ele>
        <time>2013-06-30T07:32:21Z</time>
      </trkpt>
      <trkpt lat="43.34175" lon="-0.19936">
        <ele>319.3</ele>
        <time>2013-06-30T07:32:28Z</time>
      </trkpt>
      <trkpt lat="43.34186" lon="-0.19943">
        <ele>319.3</ele>
        <time>2013-06-30T07:32:35Z</time>
      </trkpt>
      <trkpt lat="43.34196" lon="-0.19951">
        <ele>318.81</ele>
        <time>2013-06-30T07:32:42Z</time>
      </trkpt>
      <trkpt lat="43.34205" lon="-0.19957">
        <ele>318.33</ele>
        <time>2013-06-30T07:32:48Z</time>
      </trkpt>
      <trkpt lat="43.34214" lon="-0.19963">
        <ele>319.3</ele>
        <time>2013-06-30T07:32:54Z</time>
      </trkpt>
      <trkpt lat="43.34222" lon="-0.19969">
        <ele>320.74</ele>
        <time>2013-06-30T07:33:00Z</time>
      </trkpt>
      <trkpt lat="43.34231" lon="-0.19975">
        <ele>319.3</ele>
        <time>2013-06-30T07:33:06Z</time>
      </trkpt>
      <trkpt lat="43.3424" lon="-0.19982">
        <ele>318.81</ele>
        <time>2013-06-30T07:33:12Z</time>
      </trkpt>
      <trkpt lat="43.34249" lon="-0.19987">
        <ele>319.3</ele>
        <time>2013-06-30T07:33:18Z</time>
      </trkpt>
      <trkpt lat="43.34258" lon="-0.19993">
        <ele>319.3</ele>
        <time>2013-06-30T07:33:24Z</time>
      </trkpt>
      <trkpt lat="43.34267" lon="-0.19999">
        <ele>318.81</ele>
        <time>2013-06-30T07:33:30Z</time>
      </trkpt>
      <trkpt lat="43.34275" lon="-0.20003">
        <ele>318.81</ele>
        <time>2013-06-30T07:33:36Z</time>
      </trkpt>
      <trkpt lat="43.34284" lon="-0.20008">
        <ele>318.81</ele>
        <time>2013-06-30T07:33:42Z</time>
      </trkpt>
      <trkpt lat="43.34293" lon="-0.20014">
        <ele>318.81</ele>
        <time>2013-06-30T07:33:48Z</time>
      </trkpt>
      <trkpt lat="43.34301" lon="-0.20018">
        <ele>318.81</ele>
        <time>2013-06-30T07:33:54Z</time>
      </trkpt>
      <trkpt lat="43.3431" lon="-0.20023">
        <ele>318.33</ele>
        <time>2013-06-30T07:34:00Z</time>
      </trkpt>
      <trkpt lat="43.34318" lon="-0.2003">
        <ele>318.33</ele>
        <time>2013-06-30T07:34:07Z</time>
      </trkpt>
      <trkpt lat="43.34325" lon="-0.20035">
        <ele>318.33</ele>
        <time>2013-06-30T07:34:48Z</time>
      </trkpt>
      <trkpt lat="43.34335" lon="-0.20037">
        <ele>318.33</ele>
        <time>2013-06-30T07:34:54Z</time>
      </trkpt>
      <trkpt lat="43.34345" lon="-0.2004">
        <ele>318.33</ele>
        <time>2013-06-30T07:35:00Z</time>
      </trkpt>
      <trkpt lat="43.34355" lon="-0.20044">
        <ele>317.85</ele>
        <time>2013-06-30T07:35:06Z</time>
      </trkpt>
      <trkpt lat="43.34365" lon="-0.20048">
        <ele>317.85</ele>
        <time>2013-06-30T07:35:13Z</time>
      </trkpt>
      <trkpt lat="43.34375" lon="-0.20052">
        <ele>317.85</ele>
        <time>2013-06-30T07:35:19Z</time>
      </trkpt>
      <trkpt lat="43.34384" lon="-0.20056">
        <ele>317.85</ele>
        <time>2013-06-30T07:35:25Z</time>
      </trkpt>
      <trkpt lat="43.34394" lon="-0.20058">
        <ele>317.37</ele>
        <time>2013-06-30T07:35:31Z</time>
      </trkpt>
      <trkpt lat="43.34404" lon="-0.2006">
        <ele>317.37</ele>
        <time>2013-06-30T07:35:37Z</time>
      </trkpt>
      <trkpt lat="43.34414" lon="-0.20062">
        <ele>317.85</ele>
        <time>2013-06-30T07:35:43Z</time>
      </trkpt>
      <trkpt lat="43.34425" lon="-0.20063">
        <ele>317.85</ele>
        <time>2013-06-30T07:35:49Z</time>
      </trkpt>
      <trkpt lat="43.34433" lon="-0.20066">
        <ele>317.37</ele>
        <time>2013-06-30T07:35:55Z</time>
      </trkpt>
      <trkpt lat="43.34443" lon="-0.20069">
        <ele>317.37</ele>
        <time>2013-06-30T07:36:01Z</time>
      </trkpt>
      <trkpt lat="43.34453" lon="-0.20073">
        <ele>317.85</ele>
        <time>2013-06-30T07:36:07Z</time>
      </trkpt>
      <trkpt lat="43.34463" lon="-0.20075">
        <ele>317.37</ele>
        <time>2013-06-30T07:36:13Z</time>
      </trkpt>
      <trkpt lat="43.34472" lon="-0.20077">
        <ele>317.37</ele>
        <time>2013-06-30T07:36:19Z</time>
      </trkpt>
      <trkpt lat="43.34482" lon="-0.2008">
        <ele>317.37</ele>
        <time>2013-06-30T07:36:25Z</time>
      </trkpt>
      <trkpt lat="43.34492" lon="-0.20083">
        <ele>317.85</ele>
        <time>2013-06-30T07:36:31Z</time>
      </trkpt>
      <trkpt lat="43.34501" lon="-0.20085">
        <ele>317.85</ele>
        <time>2013-06-30T07:36:37Z</time>
      </trkpt>
      <trkpt lat="43.3451" lon="-0.20088">
        <ele>317.37</ele>
        <time>2013-06-30T07:36:42Z</time>
      </trkpt>
      <trkpt lat="43.34519" lon="-0.20092">
        <ele>317.37</ele>
        <time>2013-06-30T07:36:48Z</time>
      </trkpt>
      <trkpt lat="43.34529" lon="-0.20097">
        <ele>317.37</ele>
        <time>2013-06-30T07:36:54Z</time>
      </trkpt>
      <trkpt lat="43.34538" lon="-0.201">
        <ele>316.89</ele>
        <time>2013-06-30T07:37:00Z</time>
      </trkpt>
      <trkpt lat="43.34547" lon="-0.20105">
        <ele>316.89</ele>
        <time>2013-06-30T07:37:06Z</time>
      </trkpt>
      <trkpt lat="43.34556" lon="-0.20108">
        <ele>316.89</ele>
        <time>2013-06-30T07:37:12Z</time>
      </trkpt>
      <trkpt lat="43.34565" lon="-0.20111">
        <ele>316.41</ele>
        <time>2013-06-30T07:37:18Z</time>
      </trkpt>
      <trkpt lat="43.34574" lon="-0.20118">
        <ele>316.89</ele>
        <time>2013-06-30T07:37:25Z</time>
      </trkpt>
      <trkpt lat="43.34583" lon="-0.20125">
        <ele>316.89</ele>
        <time>2013-06-30T07:37:32Z</time>
      </trkpt>
      <trkpt lat="43.34592" lon="-0.20131">
        <ele>316.89</ele>
        <time>2013-06-30T07:37:38Z</time>
      </trkpt>
      <trkpt lat="43.346" lon="-0.20137">
        <ele>316.89</ele>
        <time>2013-06-30T07:37:44Z</time>
      </trkpt>
      <trkpt lat="43.34608" lon="-0.20143">
        <ele>317.37</ele>
        <time>2013-06-30T07:37:50Z</time>
      </trkpt>
      <trkpt lat="43.34617" lon="-0.20149">
        <ele>316.89</ele>
        <time>2013-06-30T07:37:56Z</time>
      </trkpt>
      <trkpt lat="43.34625" lon="-0.20156">
        <ele>316.89</ele>
        <time>2013-06-30T07:38:02Z</time>
      </trkpt>
      <trkpt lat="43.34633" lon="-0.20162">
        <ele>316.89</ele>
        <time>2013-06-30T07:38:08Z</time>
      </trkpt>
      <trkpt lat="43.34642" lon="-0.2017">
        <ele>316.89</ele>
        <time>2013-06-30T07:38:14Z</time>
      </trkpt>
      <trkpt lat="43.3465" lon="-0.20176">
        <ele>316.89</ele>
        <time>2013-06-30T07:38:20Z</time>
      </trkpt>
      <trkpt lat="43.34658" lon="-0.20183">
        <ele>316.89</ele>
        <time>2013-06-30T07:38:26Z</time>
      </trkpt>
      <trkpt lat="43.34667" lon="-0.2019">
        <ele>316.41</ele>
        <time>2013-06-30T07:38:32Z</time>
      </trkpt>
      <trkpt lat="43.34675" lon="-0.20197">
        <ele>315.93</ele>
        <time>2013-06-30T07:38:38Z</time>
      </trkpt>
      <trkpt lat="43.34683" lon="-0.20205">
        <ele>316.41</ele>
        <time>2013-06-30T07:38:44Z</time>
      </trkpt>
      <trkpt lat="43.3469" lon="-0.20212">
        <ele>316.41</ele>
        <time>2013-06-30T07:38:50Z</time>
      </trkpt>
      <trkpt lat="43.34691" lon="-0.20226">
        <ele>316.41</ele>
        <time>2013-06-30T07:38:57Z</time>
      </trkpt>
      <trkpt lat="43.34683" lon="-0.20234">
        <ele>315.93</ele>
        <time>2013-06-30T07:39:03Z</time>
      </trkpt>
      <trkpt lat="43.34673" lon="-0.20241">
        <ele>316.41</ele>
        <time>2013-06-30T07:39:10Z</time>
      </trkpt>
      <trkpt lat="43.34665" lon="-0.20251">
        <ele>316.89</ele>
        <time>2013-06-30T07:39:17Z</time>
      </trkpt>
      <trkpt lat="43.34656" lon="-0.20261">
        <ele>316.89</ele>
        <time>2013-06-30T07:39:24Z</time>
      </trkpt>
      <trkpt lat="43.34648" lon="-0.20269">
        <ele>316.89</ele>
        <time>2013-06-30T07:39:30Z</time>
      </trkpt>
      <trkpt lat="43.34639" lon="-0.20279">
        <ele>316.89</ele>
        <time>2013-06-30T07:39:37Z</time>
      </trkpt>
      <trkpt lat="43.34631" lon="-0.20288">
        <ele>317.37</ele>
        <time>2013-06-30T07:39:44Z</time>
      </trkpt>
      <trkpt lat="43.34623" lon="-0.20298">
        <ele>317.37</ele>
        <time>2013-06-30T07:39:51Z</time>
      </trkpt>
      <trkpt lat="43.34614" lon="-0.20308">
        <ele>317.37</ele>
        <time>2013-06-30T07:39:58Z</time>
      </trkpt>
      <trkpt lat="43.34605" lon="-0.20319">
        <ele>317.37</ele>
        <time>2013-06-30T07:40:06Z</time>
      </trkpt>
      <trkpt lat="43.34597" lon="-0.20329">
        <ele>316.89</ele>
        <time>2013-06-30T07:40:13Z</time>
      </trkpt>
      <trkpt lat="43.3459" lon="-0.2034">
        <ele>317.37</ele>
        <time>2013-06-30T07:40:20Z</time>
      </trkpt>
      <trkpt lat="43.34583" lon="-0.2035">
        <ele>317.37</ele>
        <time>2013-06-30T07:40:26Z</time>
      </trkpt>
      <trkpt lat="43.34576" lon="-0.20359">
        <ele>316.89</ele>
        <time>2013-06-30T07:40:32Z</time>
      </trkpt>
      <trkpt lat="43.34568" lon="-0.20369">
        <ele>316.89</ele>
        <time>2013-06-30T07:40:39Z</time>
      </trkpt>
      <trkpt lat="43.3456" lon="-0.2038">
        <ele>316.41</ele>
        <time>2013-06-30T07:40:46Z</time>
      </trkpt>
      <trkpt lat="43.34552" lon="-0.20391">
        <ele>316.41</ele>
        <time>2013-06-30T07:40:54Z</time>
      </trkpt>
      <trkpt lat="43.34544" lon="-0.20403">
        <ele>316.41</ele>
        <time>2013-06-30T07:41:01Z</time>
      </trkpt>
      <trkpt lat="43.34536" lon="-0.20416">
        <ele>316.89</ele>
        <time>2013-06-30T07:41:09Z</time>
      </trkpt>
      <trkpt lat="43.34529" lon="-0.20429">
        <ele>316.89</ele>
        <time>2013-06-30T07:41:16Z</time>
      </trkpt>
      <trkpt lat="43.34523" lon="-0.20442">
        <ele>316.89</ele>
        <time>2013-06-30T07:41:23Z</time>
      </trkpt>
      <trkpt lat="43.34516" lon="-0.20454">
        <ele>316.89</ele>
        <time>2013-06-30T07:41:30Z</time>
      </trkpt>
      <trkpt lat="43.34511" lon="-0.20467">
        <ele>316.41</ele>
        <time>2013-06-30T07:41:37Z</time>
      </trkpt>
      <trkpt lat="43.34505" lon="-0.20479">
        <ele>316.89</ele>
        <time>2013-06-30T07:41:44Z</time>
      </trkpt>
      <trkpt lat="43.34499" lon="-0.20491">
        <ele>316.41</ele>
        <time>2013-06-30T07:41:50Z</time>
      </trkpt>
      <trkpt lat="43.34493" lon="-0.20505">
        <ele>316.41</ele>
        <time>2013-06-30T07:41:57Z</time>
      </trkpt>
      <trkpt lat="43.34488" lon="-0.20518">
        <ele>316.41</ele>
        <time>2013-06-30T07:42:04Z</time>
      </trkpt>
      <trkpt lat="43.34482" lon="-0.20531">
        <ele>315.45</ele>
        <time>2013-06-30T07:42:11Z</time>
      </trkpt>
      <trkpt lat="43.34477" lon="-0.20544">
        <ele>315.45</ele>
        <time>2013-06-30T07:42:18Z</time>
      </trkpt>
      <trkpt lat="43.34472" lon="-0.20561">
        <ele>315.45</ele>
        <time>2013-06-30T07:42:26Z</time>
      </trkpt>
      <trkpt lat="43.34467" lon="-0.20575">
        <ele>314.97</ele>
        <time>2013-06-30T07:42:33Z</time>
      </trkpt>
      <trkpt lat="43.34461" lon="-0.20588">
        <ele>314.97</ele>
        <time>2013-06-30T07:42:40Z</time>
      </trkpt>
      <trkpt lat="43.34456" lon="-0.206">
        <ele>314.97</ele>
        <time>2013-06-30T07:42:47Z</time>
      </trkpt>
      <trkpt lat="43.3445" lon="-0.20613">
        <ele>314.49</ele>
        <time>2013-06-30T07:42:54Z</time>
      </trkpt>
      <trkpt lat="43.34446" lon="-0.20626">
        <ele>314.49</ele>
        <time>2013-06-30T07:43:01Z</time>
      </trkpt>
      <trkpt lat="43.34439" lon="-0.20638">
        <ele>314.49</ele>
        <time>2013-06-30T07:43:08Z</time>
      </trkpt>
      <trkpt lat="43.34433" lon="-0.2065">
        <ele>314.49</ele>
        <time>2013-06-30T07:43:14Z</time>
      </trkpt>
      <trkpt lat="43.34428" lon="-0.20663">
        <ele>314.49</ele>
        <time>2013-06-30T07:43:21Z</time>
      </trkpt>
      <trkpt lat="43.34421" lon="-0.20675">
        <ele>314.01</ele>
        <time>2013-06-30T07:43:28Z</time>
      </trkpt>
      <trkpt lat="43.34417" lon="-0.20689">
        <ele>313.53</ele>
        <time>2013-06-30T07:43:35Z</time>
      </trkpt>
      <trkpt lat="43.34411" lon="-0.20701">
        <ele>313.05</ele>
        <time>2013-06-30T07:43:43Z</time>
      </trkpt>
      <trkpt lat="43.34406" lon="-0.20714">
        <ele>313.05</ele>
        <time>2013-06-30T07:43:50Z</time>
      </trkpt>
      <trkpt lat="43.34402" lon="-0.20727">
        <ele>312.57</ele>
        <time>2013-06-30T07:43:56Z</time>
      </trkpt>
      <trkpt lat="43.34397" lon="-0.20741">
        <ele>312.57</ele>
        <time>2013-06-30T07:44:02Z</time>
      </trkpt>
      <trkpt lat="43.34399" lon="-0.20755">
        <ele>312.57</ele>
        <time>2013-06-30T07:44:10Z</time>
      </trkpt>
      <trkpt lat="43.34405" lon="-0.2077">
        <ele>312.09</ele>
        <time>2013-06-30T07:44:17Z</time>
      </trkpt>
      <trkpt lat="43.34412" lon="-0.20786">
        <ele>311.6</ele>
        <time>2013-06-30T07:44:25Z</time>
      </trkpt>
      <trkpt lat="43.34417" lon="-0.20801">
        <ele>311.6</ele>
        <time>2013-06-30T07:44:33Z</time>
      </trkpt>
      <trkpt lat="43.34424" lon="-0.20813">
        <ele>311.6</ele>
        <time>2013-06-30T07:44:41Z</time>
      </trkpt>
      <trkpt lat="43.34432" lon="-0.20825">
        <ele>311.12</ele>
        <time>2013-06-30T07:44:49Z</time>
      </trkpt>
      <trkpt lat="43.3444" lon="-0.20836">
        <ele>311.12</ele>
        <time>2013-06-30T07:44:56Z</time>
      </trkpt>
      <trkpt lat="43.34447" lon="-0.20846">
        <ele>311.12</ele>
        <time>2013-06-30T07:45:03Z</time>
      </trkpt>
      <trkpt lat="43.34454" lon="-0.2086">
        <ele>311.12</ele>
        <time>2013-06-30T07:45:12Z</time>
      </trkpt>
      <trkpt lat="43.34462" lon="-0.20871">
        <ele>311.6</ele>
        <time>2013-06-30T07:45:19Z</time>
      </trkpt>
      <trkpt lat="43.34469" lon="-0.20883">
        <ele>311.12</ele>
        <time>2013-06-30T07:45:27Z</time>
      </trkpt>
      <trkpt lat="43.34475" lon="-0.20895">
        <ele>311.12</ele>
        <time>2013-06-30T07:45:35Z</time>
      </trkpt>
      <trkpt lat="43.34483" lon="-0.20906">
        <ele>311.12</ele>
        <time>2013-06-30T07:45:42Z</time>
      </trkpt>
      <trkpt lat="43.34489" lon="-0.20918">
        <ele>311.12</ele>
        <time>2013-06-30T07:45:50Z</time>
      </trkpt>
      <trkpt lat="43.34496" lon="-0.20931">
        <ele>311.6</ele>
        <time>2013-06-30T07:45:57Z</time>
      </trkpt>
      <trkpt lat="43.34501" lon="-0.20946">
        <ele>311.12</ele>
        <time>2013-06-30T07:46:04Z</time>
      </trkpt>
      <trkpt lat="43.34509" lon="-0.20957">
        <ele>311.12</ele>
        <time>2013-06-30T07:46:11Z</time>
      </trkpt>
      <trkpt lat="43.34516" lon="-0.2097">
        <ele>311.12</ele>
        <time>2013-06-30T07:46:19Z</time>
      </trkpt>
      <trkpt lat="43.34522" lon="-0.20983">
        <ele>311.12</ele>
        <time>2013-06-30T07:46:26Z</time>
      </trkpt>
      <trkpt lat="43.34528" lon="-0.20995">
        <ele>311.12</ele>
        <time>2013-06-30T07:46:34Z</time>
      </trkpt>
      <trkpt lat="43.34532" lon="-0.2101">
        <ele>310.16</ele>
        <time>2013-06-30T07:46:42Z</time>
      </trkpt>
      <trkpt lat="43.34538" lon="-0.21029">
        <ele>309.68</ele>
        <time>2013-06-30T07:46:51Z</time>
      </trkpt>
      <trkpt lat="43.34542" lon="-0.21045">
        <ele>309.68</ele>
        <time>2013-06-30T07:46:59Z</time>
      </trkpt>
      <trkpt lat="43.34548" lon="-0.21063">
        <ele>309.68</ele>
        <time>2013-06-30T07:47:07Z</time>
      </trkpt>
      <trkpt lat="43.34552" lon="-0.21077">
        <ele>309.2</ele>
        <time>2013-06-30T07:47:14Z</time>
      </trkpt>
      <trkpt lat="43.34555" lon="-0.21092">
        <ele>309.68</ele>
        <time>2013-06-30T07:47:21Z</time>
      </trkpt>
      <trkpt lat="43.34558" lon="-0.21106">
        <ele>309.2</ele>
        <time>2013-06-30T07:47:28Z</time>
      </trkpt>
      <trkpt lat="43.34563" lon="-0.21119">
        <ele>309.2</ele>
        <time>2013-06-30T07:47:36Z</time>
      </trkpt>
      <trkpt lat="43.34567" lon="-0.21138">
        <ele>308.72</ele>
        <time>2013-06-30T07:47:46Z</time>
      </trkpt>
      <trkpt lat="43.34573" lon="-0.21155">
        <ele>308.24</ele>
        <time>2013-06-30T07:47:55Z</time>
      </trkpt>
      <trkpt lat="43.34579" lon="-0.21167">
        <ele>308.24</ele>
        <time>2013-06-30T07:48:01Z</time>
      </trkpt>
      <trkpt lat="43.34583" lon="-0.21184">
        <ele>308.24</ele>
        <time>2013-06-30T07:48:09Z</time>
      </trkpt>
      <trkpt lat="43.34589" lon="-0.212">
        <ele>308.24</ele>
        <time>2013-06-30T07:48:17Z</time>
      </trkpt>
      <trkpt lat="43.34595" lon="-0.21217">
        <ele>307.76</ele>
        <time>2013-06-30T07:48:26Z</time>
      </trkpt>
      <trkpt lat="43.34602" lon="-0.2123">
        <ele>307.76</ele>
        <time>2013-06-30T07:48:34Z</time>
      </trkpt>
      <trkpt lat="43.34609" lon="-0.21243">
        <ele>307.76</ele>
        <time>2013-06-30T07:48:42Z</time>
      </trkpt>
      <trkpt lat="43.34618" lon="-0.21256">
        <ele>307.76</ele>
        <time>2013-06-30T07:48:51Z</time>
      </trkpt>
      <trkpt lat="43.34626" lon="-0.21267">
        <ele>307.76</ele>
        <time>2013-06-30T07:48:58Z</time>
      </trkpt>
      <trkpt lat="43.34634" lon="-0.21281">
        <ele>307.76</ele>
        <time>2013-06-30T07:49:06Z</time>
      </trkpt>
      <trkpt lat="43.34644" lon="-0.21292">
        <ele>307.76</ele>
        <time>2013-06-30T07:49:13Z</time>
      </trkpt>
      <trkpt lat="43.34652" lon="-0.21301">
        <ele>307.28</ele>
        <time>2013-06-30T07:49:20Z</time>
      </trkpt>
      <trkpt lat="43.3466" lon="-0.21311">
        <ele>307.28</ele>
        <time>2013-06-30T07:49:27Z</time>
      </trkpt>
      <trkpt lat="43.34668" lon="-0.21321">
        <ele>307.28</ele>
        <time>2013-06-30T07:49:34Z</time>
      </trkpt>
      <trkpt lat="43.34678" lon="-0.21331">
        <ele>307.28</ele>
        <time>2013-06-30T07:49:42Z</time>
      </trkpt>
      <trkpt lat="43.34687" lon="-0.21341">
        <ele>307.28</ele>
        <time>2013-06-30T07:49:49Z</time>
      </trkpt>
      <trkpt lat="43.34695" lon="-0.2135">
        <ele>307.28</ele>
        <time>2013-06-30T07:49:55Z</time>
      </trkpt>
      <trkpt lat="43.34703" lon="-0.21358">
        <ele>308.24</ele>
        <time>2013-06-30T07:50:01Z</time>
      </trkpt>
      <trkpt lat="43.34712" lon="-0.21365">
        <ele>308.24</ele>
        <time>2013-06-30T07:50:07Z</time>
      </trkpt>
      <trkpt lat="43.34719" lon="-0.21371">
        <ele>308.24</ele>
        <time>2013-06-30T07:50:13Z</time>
      </trkpt>
      <trkpt lat="43.34728" lon="-0.21379">
        <ele>307.28</ele>
        <time>2013-06-30T07:50:19Z</time>
      </trkpt>
      <trkpt lat="43.34735" lon="-0.21386">
        <ele>307.76</ele>
        <time>2013-06-30T07:50:25Z</time>
      </trkpt>
      <trkpt lat="43.34743" lon="-0.21393">
        <ele>307.76</ele>
        <time>2013-06-30T07:50:31Z</time>
      </trkpt>
      <trkpt lat="43.34751" lon="-0.21401">
        <ele>306.8</ele>
        <time>2013-06-30T07:50:37Z</time>
      </trkpt>
      <trkpt lat="43.34758" lon="-0.2141">
        <ele>306.8</ele>
        <time>2013-06-30T07:50:43Z</time>
      </trkpt>
      <trkpt lat="43.34765" lon="-0.21419">
        <ele>306.8</ele>
        <time>2013-06-30T07:50:49Z</time>
      </trkpt>
      <trkpt lat="43.34772" lon="-0.21429">
        <ele>306.8</ele>
        <time>2013-06-30T07:50:55Z</time>
      </trkpt>
      <trkpt lat="43.34779" lon="-0.21437">
        <ele>306.32</ele>
        <time>2013-06-30T07:51:01Z</time>
      </trkpt>
      <trkpt lat="43.3479" lon="-0.21439">
        <ele>305.84</ele>
        <time>2013-06-30T07:51:08Z</time>
      </trkpt>
      <trkpt lat="43.34798" lon="-0.21427">
        <ele>306.32</ele>
        <time>2013-06-30T07:51:15Z</time>
      </trkpt>
      <trkpt lat="43.34806" lon="-0.21416">
        <ele>307.28</ele>
        <time>2013-06-30T07:51:22Z</time>
      </trkpt>
      <trkpt lat="43.34813" lon="-0.21405">
        <ele>307.28</ele>
        <time>2013-06-30T07:51:29Z</time>
      </trkpt>
      <trkpt lat="43.34818" lon="-0.21394">
        <ele>308.24</ele>
        <time>2013-06-30T07:51:35Z</time>
      </trkpt>
      <trkpt lat="43.34826" lon="-0.21383">
        <ele>308.24</ele>
        <time>2013-06-30T07:51:42Z</time>
      </trkpt>
      <trkpt lat="43.34834" lon="-0.21374">
        <ele>308.24</ele>
        <time>2013-06-30T07:51:49Z</time>
      </trkpt>
      <trkpt lat="43.34843" lon="-0.21367">
        <ele>309.2</ele>
        <time>2013-06-30T07:51:56Z</time>
      </trkpt>
      <trkpt lat="43.34853" lon="-0.21362">
        <ele>308.72</ele>
        <time>2013-06-30T07:52:03Z</time>
      </trkpt>
      <trkpt lat="43.34864" lon="-0.21356">
        <ele>309.2</ele>
        <time>2013-06-30T07:52:11Z</time>
      </trkpt>
      <trkpt lat="43.34873" lon="-0.21349">
        <ele>309.2</ele>
        <time>2013-06-30T07:52:18Z</time>
      </trkpt>
      <trkpt lat="43.34883" lon="-0.21348">
        <ele>308.72</ele>
        <time>2013-06-30T07:52:26Z</time>
      </trkpt>
      <trkpt lat="43.34892" lon="-0.21357">
        <ele>308.72</ele>
        <time>2013-06-30T07:52:34Z</time>
      </trkpt>
      <trkpt lat="43.34902" lon="-0.21365">
        <ele>308.24</ele>
        <time>2013-06-30T07:52:41Z</time>
      </trkpt>
      <trkpt lat="43.3491" lon="-0.21374">
        <ele>307.28</ele>
        <time>2013-06-30T07:52:47Z</time>
      </trkpt>
      <trkpt lat="43.34919" lon="-0.21384">
        <ele>306.32</ele>
        <time>2013-06-30T07:52:54Z</time>
      </trkpt>
      <trkpt lat="43.34927" lon="-0.21394">
        <ele>306.32</ele>
        <time>2013-06-30T07:53:01Z</time>
      </trkpt>
      <trkpt lat="43.34934" lon="-0.21404">
        <ele>305.36</ele>
        <time>2013-06-30T07:53:08Z</time>
      </trkpt>
      <trkpt lat="43.34942" lon="-0.21417">
        <ele>305.84</ele>
        <time>2013-06-30T07:53:16Z</time>
      </trkpt>
      <trkpt lat="43.3495" lon="-0.21425">
        <ele>306.32</ele>
        <time>2013-06-30T07:53:23Z</time>
      </trkpt>
      <trkpt lat="43.34959" lon="-0.21435">
        <ele>305.84</ele>
        <time>2013-06-30T07:53:31Z</time>
      </trkpt>
      <trkpt lat="43.34969" lon="-0.21447">
        <ele>305.84</ele>
        <time>2013-06-30T07:53:39Z</time>
      </trkpt>
      <trkpt lat="43.34976" lon="-0.21462">
        <ele>305.84</ele>
        <time>2013-06-30T07:53:48Z</time>
      </trkpt>
      <trkpt lat="43.34985" lon="-0.21475">
        <ele>305.84</ele>
        <time>2013-06-30T07:53:57Z</time>
      </trkpt>
      <trkpt lat="43.34994" lon="-0.21487">
        <ele>305.84</ele>
        <time>2013-06-30T07:54:04Z</time>
      </trkpt>
      <trkpt lat="43.35002" lon="-0.21498">
        <ele>305.36</ele>
        <time>2013-06-30T07:54:11Z</time>
      </trkpt>
      <trkpt lat="43.35011" lon="-0.21507">
        <ele>305.36</ele>
        <time>2013-06-30T07:54:18Z</time>
      </trkpt>
      <trkpt lat="43.35019" lon="-0.21518">
        <ele>304.39</ele>
        <time>2013-06-30T07:54:25Z</time>
      </trkpt>
      <trkpt lat="43.35027" lon="-0.21529">
        <ele>304.88</ele>
        <time>2013-06-30T07:54:32Z</time>
      </trkpt>
      <trkpt lat="43.35035" lon="-0.21538">
        <ele>304.88</ele>
        <time>2013-06-30T07:54:38Z</time>
      </trkpt>
      <trkpt lat="43.35043" lon="-0.21547">
        <ele>304.39</ele>
        <time>2013-06-30T07:54:44Z</time>
      </trkpt>
      <trkpt lat="43.3505" lon="-0.21557">
        <ele>304.39</ele>
        <time>2013-06-30T07:54:50Z</time>
      </trkpt>
      <trkpt lat="43.35058" lon="-0.21567">
        <ele>303.91</ele>
        <time>2013-06-30T07:54:57Z</time>
      </trkpt>
      <trkpt lat="43.35065" lon="-0.21577">
        <ele>303.91</ele>
        <time>2013-06-30T07:55:03Z</time>
      </trkpt>
      <trkpt lat="43.35072" lon="-0.21587">
        <ele>303.91</ele>
        <time>2013-06-30T07:55:10Z</time>
      </trkpt>
      <trkpt lat="43.35081" lon="-0.21595">
        <ele>303.43</ele>
        <time>2013-06-30T07:55:17Z</time>
      </trkpt>
      <trkpt lat="43.35089" lon="-0.21605">
        <ele>303.43</ele>
        <time>2013-06-30T07:55:23Z</time>
      </trkpt>
      <trkpt lat="43.35097" lon="-0.21615">
        <ele>302.95</ele>
        <time>2013-06-30T07:55:31Z</time>
      </trkpt>
      <trkpt lat="43.35105" lon="-0.21625">
        <ele>302.47</ele>
        <time>2013-06-30T07:55:38Z</time>
      </trkpt>
      <trkpt lat="43.35112" lon="-0.21637">
        <ele>302.47</ele>
        <time>2013-06-30T07:55:45Z</time>
      </trkpt>
      <trkpt lat="43.35119" lon="-0.21646">
        <ele>302.95</ele>
        <time>2013-06-30T07:55:51Z</time>
      </trkpt>
      <trkpt lat="43.35126" lon="-0.21657">
        <ele>302.47</ele>
        <time>2013-06-30T07:55:57Z</time>
      </trkpt>
      <trkpt lat="43.35133" lon="-0.21667">
        <ele>302.47</ele>
        <time>2013-06-30T07:56:03Z</time>
      </trkpt>
      <trkpt lat="43.35141" lon="-0.21676">
        <ele>301.99</ele>
        <time>2013-06-30T07:56:09Z</time>
      </trkpt>
      <trkpt lat="43.35148" lon="-0.21684">
        <ele>301.99</ele>
        <time>2013-06-30T07:56:15Z</time>
      </trkpt>
      <trkpt lat="43.35155" lon="-0.21695">
        <ele>301.51</ele>
        <time>2013-06-30T07:56:22Z</time>
      </trkpt>
      <trkpt lat="43.35161" lon="-0.21705">
        <ele>301.51</ele>
        <time>2013-06-30T07:56:28Z</time>
      </trkpt>
      <trkpt lat="43.35168" lon="-0.21715">
        <ele>301.99</ele>
        <time>2013-06-30T07:56:34Z</time>
      </trkpt>
      <trkpt lat="43.35176" lon="-0.21726">
        <ele>301.51</ele>
        <time>2013-06-30T07:56:41Z</time>
      </trkpt>
      <trkpt lat="43.35184" lon="-0.21736">
        <ele>301.51</ele>
        <time>2013-06-30T07:56:48Z</time>
      </trkpt>
      <trkpt lat="43.35192" lon="-0.21748">
        <ele>301.51</ele>
        <time>2013-06-30T07:56:55Z</time>
      </trkpt>
      <trkpt lat="43.352" lon="-0.21758">
        <ele>301.03</ele>
        <time>2013-06-30T07:57:02Z</time>
      </trkpt>
      <trkpt lat="43.35209" lon="-0.21764">
        <ele>301.03</ele>
        <time>2013-06-30T07:57:08Z</time>
      </trkpt>
      <trkpt lat="43.35218" lon="-0.21772">
        <ele>301.03</ele>
        <time>2013-06-30T07:57:15Z</time>
      </trkpt>
      <trkpt lat="43.35225" lon="-0.21779">
        <ele>301.51</ele>
        <time>2013-06-30T07:57:22Z</time>
      </trkpt>
      <trkpt lat="43.35235" lon="-0.2179">
        <ele>301.51</ele>
        <time>2013-06-30T07:57:29Z</time>
      </trkpt>
      <trkpt lat="43.35245" lon="-0.21798">
        <ele>301.03</ele>
        <time>2013-06-30T07:57:36Z</time>
      </trkpt>
      <trkpt lat="43.35253" lon="-0.21805">
        <ele>301.03</ele>
        <time>2013-06-30T07:57:42Z</time>
      </trkpt>
      <trkpt lat="43.35263" lon="-0.21813">
        <ele>301.03</ele>
        <time>2013-06-30T07:57:49Z</time>
      </trkpt>
      <trkpt lat="43.35272" lon="-0.21819">
        <ele>300.55</ele>
        <time>2013-06-30T07:57:56Z</time>
      </trkpt>
      <trkpt lat="43.35284" lon="-0.21823">
        <ele>300.55</ele>
        <time>2013-06-30T07:58:03Z</time>
      </trkpt>
      <trkpt lat="43.35295" lon="-0.21818">
        <ele>301.03</ele>
        <time>2013-06-30T07:58:09Z</time>
      </trkpt>
      <trkpt lat="43.35303" lon="-0.21809">
        <ele>301.51</ele>
        <time>2013-06-30T07:58:15Z</time>
      </trkpt>
      <trkpt lat="43.35309" lon="-0.218">
        <ele>301.51</ele>
        <time>2013-06-30T07:58:21Z</time>
      </trkpt>
      <trkpt lat="43.35316" lon="-0.2179">
        <ele>301.99</ele>
        <time>2013-06-30T07:58:27Z</time>
      </trkpt>
      <trkpt lat="43.35322" lon="-0.21781">
        <ele>302.47</ele>
        <time>2013-06-30T07:58:33Z</time>
      </trkpt>
      <trkpt lat="43.35328" lon="-0.21771">
        <ele>302.47</ele>
        <time>2013-06-30T07:58:39Z</time>
      </trkpt>
      <trkpt lat="43.35335" lon="-0.21762">
        <ele>302.47</ele>
        <time>2013-06-30T07:58:45Z</time>
      </trkpt>
      <trkpt lat="43.35342" lon="-0.21752">
        <ele>302.95</ele>
        <time>2013-06-30T07:58:51Z</time>
      </trkpt>
      <trkpt lat="43.35348" lon="-0.21743">
        <ele>302.95</ele>
        <time>2013-06-30T07:58:57Z</time>
      </trkpt>
      <trkpt lat="43.35354" lon="-0.21734">
        <ele>303.43</ele>
        <time>2013-06-30T07:59:03Z</time>
      </trkpt>
      <trkpt lat="43.35361" lon="-0.21725">
        <ele>303.43</ele>
        <time>2013-06-30T07:59:09Z</time>
      </trkpt>
      <trkpt lat="43.35368" lon="-0.21716">
        <ele>303.43</ele>
        <time>2013-06-30T07:59:15Z</time>
      </trkpt>
      <trkpt lat="43.35375" lon="-0.21708">
        <ele>303.91</ele>
        <time>2013-06-30T07:59:21Z</time>
      </trkpt>
      <trkpt lat="43.35384" lon="-0.21702">
        <ele>303.91</ele>
        <time>2013-06-30T07:59:28Z</time>
      </trkpt>
      <trkpt lat="43.35393" lon="-0.21698">
        <ele>303.91</ele>
        <time>2013-06-30T07:59:34Z</time>
      </trkpt>
      <trkpt lat="43.35401" lon="-0.21696">
        <ele>304.39</ele>
        <time>2013-06-30T07:59:40Z</time>
      </trkpt>
      <trkpt lat="43.3541" lon="-0.21699">
        <ele>304.88</ele>
        <time>2013-06-30T07:59:46Z</time>
      </trkpt>
      <trkpt lat="43.35418" lon="-0.21705">
        <ele>305.36</ele>
        <time>2013-06-30T07:59:53Z</time>
      </trkpt>
      <trkpt lat="43.35425" lon="-0.21716">
        <ele>305.36</ele>
        <time>2013-06-30T08:00:01Z</time>
      </trkpt>
      <trkpt lat="43.35428" lon="-0.21731">
        <ele>306.32</ele>
        <time>2013-06-30T08:00:08Z</time>
      </trkpt>
      <trkpt lat="43.35431" lon="-0.21744">
        <ele>306.32</ele>
        <time>2013-06-30T08:00:15Z</time>
      </trkpt>
      <trkpt lat="43.35435" lon="-0.21758">
        <ele>306.8</ele>
        <time>2013-06-30T08:00:23Z</time>
      </trkpt>
      <trkpt lat="43.35437" lon="-0.21773">
        <ele>306.8</ele>
        <time>2013-06-30T08:00:31Z</time>
      </trkpt>
      <trkpt lat="43.35438" lon="-0.21787">
        <ele>306.8</ele>
        <time>2013-06-30T08:00:38Z</time>
      </trkpt>
      <trkpt lat="43.35442" lon="-0.21804">
        <ele>306.32</ele>
        <time>2013-06-30T08:00:47Z</time>
      </trkpt>
      <trkpt lat="43.35448" lon="-0.21819">
        <ele>306.8</ele>
        <time>2013-06-30T08:00:55Z</time>
      </trkpt>
      <trkpt lat="43.35451" lon="-0.21831">
        <ele>307.28</ele>
        <time>2013-06-30T08:01:02Z</time>
      </trkpt>
      <trkpt lat="43.35456" lon="-0.21843">
        <ele>307.28</ele>
        <time>2013-06-30T08:01:09Z</time>
      </trkpt>
      <trkpt lat="43.3546" lon="-0.21857">
        <ele>306.8</ele>
        <time>2013-06-30T08:01:16Z</time>
      </trkpt>
      <trkpt lat="43.35464" lon="-0.21871">
        <ele>306.32</ele>
        <time>2013-06-30T08:01:23Z</time>
      </trkpt>
      <trkpt lat="43.35467" lon="-0.21886">
        <ele>306.32</ele>
        <time>2013-06-30T08:01:30Z</time>
      </trkpt>
      <trkpt lat="43.35471" lon="-0.219">
        <ele>306.32</ele>
        <time>2013-06-30T08:01:37Z</time>
      </trkpt>
      <trkpt lat="43.35476" lon="-0.21915">
        <ele>306.32</ele>
        <time>2013-06-30T08:01:44Z</time>
      </trkpt>
      <trkpt lat="43.3548" lon="-0.21932">
        <ele>305.84</ele>
        <time>2013-06-30T08:01:52Z</time>
      </trkpt>
      <trkpt lat="43.35485" lon="-0.21944">
        <ele>306.32</ele>
        <time>2013-06-30T08:01:58Z</time>
      </trkpt>
      <trkpt lat="43.35489" lon="-0.21956">
        <ele>305.84</ele>
        <time>2013-06-30T08:02:04Z</time>
      </trkpt>
      <trkpt lat="43.35493" lon="-0.2197">
        <ele>304.88</ele>
        <time>2013-06-30T08:02:11Z</time>
      </trkpt>
      <trkpt lat="43.35497" lon="-0.21985">
        <ele>304.39</ele>
        <time>2013-06-30T08:02:18Z</time>
      </trkpt>
      <trkpt lat="43.35501" lon="-0.21998">
        <ele>304.88</ele>
        <time>2013-06-30T08:02:24Z</time>
      </trkpt>
      <trkpt lat="43.35505" lon="-0.22011">
        <ele>304.39</ele>
        <time>2013-06-30T08:02:31Z</time>
      </trkpt>
      <trkpt lat="43.35511" lon="-0.22026">
        <ele>304.88</ele>
        <time>2013-06-30T08:02:39Z</time>
      </trkpt>
      <trkpt lat="43.35516" lon="-0.22039">
        <ele>303.91</ele>
        <time>2013-06-30T08:02:45Z</time>
      </trkpt>
      <trkpt lat="43.35521" lon="-0.22052">
        <ele>303.91</ele>
        <time>2013-06-30T08:02:52Z</time>
      </trkpt>
      <trkpt lat="43.35524" lon="-0.22066">
        <ele>303.43</ele>
        <time>2013-06-30T08:02:58Z</time>
      </trkpt>
      <trkpt lat="43.35527" lon="-0.22078">
        <ele>303.43</ele>
        <time>2013-06-30T08:03:04Z</time>
      </trkpt>
      <trkpt lat="43.3553" lon="-0.22092">
        <ele>302.95</ele>
        <time>2013-06-30T08:03:11Z</time>
      </trkpt>
      <trkpt lat="43.35535" lon="-0.22105">
        <ele>303.91</ele>
        <time>2013-06-30T08:03:18Z</time>
      </trkpt>
      <trkpt lat="43.35539" lon="-0.22119">
        <ele>302.95</ele>
        <time>2013-06-30T08:03:24Z</time>
      </trkpt>
      <trkpt lat="43.35543" lon="-0.22132">
        <ele>302.95</ele>
        <time>2013-06-30T08:03:31Z</time>
      </trkpt>
      <trkpt lat="43.35546" lon="-0.22145">
        <ele>302.95</ele>
        <time>2013-06-30T08:03:38Z</time>
      </trkpt>
      <trkpt lat="43.3555" lon="-0.22159">
        <ele>302.95</ele>
        <time>2013-06-30T08:03:45Z</time>
      </trkpt>
      <trkpt lat="43.35556" lon="-0.2217">
        <ele>302.95</ele>
        <time>2013-06-30T08:03:52Z</time>
      </trkpt>
      <trkpt lat="43.35564" lon="-0.2218">
        <ele>302.95</ele>
        <time>2013-06-30T08:03:59Z</time>
      </trkpt>
      <trkpt lat="43.35569" lon="-0.22193">
        <ele>302.95</ele>
        <time>2013-06-30T08:04:06Z</time>
      </trkpt>
      <trkpt lat="43.35575" lon="-0.22206">
        <ele>303.91</ele>
        <time>2013-06-30T08:04:14Z</time>
      </trkpt>
      <trkpt lat="43.35581" lon="-0.22219">
        <ele>303.43</ele>
        <time>2013-06-30T08:04:21Z</time>
      </trkpt>
      <trkpt lat="43.35586" lon="-0.22232">
        <ele>302.95</ele>
        <time>2013-06-30T08:04:28Z</time>
      </trkpt>
      <trkpt lat="43.35592" lon="-0.22245">
        <ele>302.95</ele>
        <time>2013-06-30T08:04:35Z</time>
      </trkpt>
      <trkpt lat="43.35595" lon="-0.2226">
        <ele>303.43</ele>
        <time>2013-06-30T08:04:43Z</time>
      </trkpt>
      <trkpt lat="43.35601" lon="-0.22274">
        <ele>303.43</ele>
        <time>2013-06-30T08:04:50Z</time>
      </trkpt>
      <trkpt lat="43.35607" lon="-0.22286">
        <ele>303.43</ele>
        <time>2013-06-30T08:04:56Z</time>
      </trkpt>
      <trkpt lat="43.35612" lon="-0.22298">
        <ele>303.91</ele>
        <time>2013-06-30T08:05:03Z</time>
      </trkpt>
      <trkpt lat="43.35617" lon="-0.2231">
        <ele>303.91</ele>
        <time>2013-06-30T08:05:10Z</time>
      </trkpt>
      <trkpt lat="43.35622" lon="-0.22322">
        <ele>304.39</ele>
        <time>2013-06-30T08:05:16Z</time>
      </trkpt>
      <trkpt lat="43.35629" lon="-0.22334">
        <ele>303.43</ele>
        <time>2013-06-30T08:05:23Z</time>
      </trkpt>
      <trkpt lat="43.35634" lon="-0.22347">
        <ele>303.91</ele>
        <time>2013-06-30T08:05:29Z</time>
      </trkpt>
      <trkpt lat="43.35638" lon="-0.22359">
        <ele>303.91</ele>
        <time>2013-06-30T08:05:36Z</time>
      </trkpt>
      <trkpt lat="43.35644" lon="-0.2237">
        <ele>303.43</ele>
        <time>2013-06-30T08:05:42Z</time>
      </trkpt>
      <trkpt lat="43.35651" lon="-0.22382">
        <ele>303.43</ele>
        <time>2013-06-30T08:05:49Z</time>
      </trkpt>
      <trkpt lat="43.35655" lon="-0.22394">
        <ele>303.43</ele>
        <time>2013-06-30T08:05:55Z</time>
      </trkpt>
      <trkpt lat="43.35661" lon="-0.22405">
        <ele>303.43</ele>
        <time>2013-06-30T08:06:02Z</time>
      </trkpt>
      <trkpt lat="43.35667" lon="-0.22417">
        <ele>303.43</ele>
        <time>2013-06-30T08:06:09Z</time>
      </trkpt>
      <trkpt lat="43.35672" lon="-0.22429">
        <ele>302.95</ele>
        <time>2013-06-30T08:06:15Z</time>
      </trkpt>
      <trkpt lat="43.35678" lon="-0.22441">
        <ele>302.95</ele>
        <time>2013-06-30T08:06:22Z</time>
      </trkpt>
      <trkpt lat="43.35684" lon="-0.22452">
        <ele>302.47</ele>
        <time>2013-06-30T08:06:28Z</time>
      </trkpt>
      <trkpt lat="43.35691" lon="-0.22465">
        <ele>302.95</ele>
        <time>2013-06-30T08:06:36Z</time>
      </trkpt>
      <trkpt lat="43.35697" lon="-0.22476">
        <ele>302.47</ele>
        <time>2013-06-30T08:06:43Z</time>
      </trkpt>
      <trkpt lat="43.35703" lon="-0.22489">
        <ele>302.95</ele>
        <time>2013-06-30T08:06:51Z</time>
      </trkpt>
      <trkpt lat="43.35711" lon="-0.22501">
        <ele>302.95</ele>
        <time>2013-06-30T08:06:58Z</time>
      </trkpt>
      <trkpt lat="43.35716" lon="-0.22514">
        <ele>302.47</ele>
        <time>2013-06-30T08:07:05Z</time>
      </trkpt>
      <trkpt lat="43.35723" lon="-0.22526">
        <ele>302.47</ele>
        <time>2013-06-30T08:07:12Z</time>
      </trkpt>
      <trkpt lat="43.3573" lon="-0.22538">
        <ele>302.47</ele>
        <time>2013-06-30T08:07:19Z</time>
      </trkpt>
      <trkpt lat="43.35736" lon="-0.22549">
        <ele>301.99</ele>
        <time>2013-06-30T08:07:26Z</time>
      </trkpt>
      <trkpt lat="43.35742" lon="-0.2256">
        <ele>302.47</ele>
        <time>2013-06-30T08:07:33Z</time>
      </trkpt>
      <trkpt lat="43.35748" lon="-0.2257">
        <ele>301.99</ele>
        <time>2013-06-30T08:07:39Z</time>
      </trkpt>
      <trkpt lat="43.35753" lon="-0.22581">
        <ele>302.47</ele>
        <time>2013-06-30T08:07:45Z</time>
      </trkpt>
      <trkpt lat="43.3576" lon="-0.22593">
        <ele>302.47</ele>
        <time>2013-06-30T08:07:52Z</time>
      </trkpt>
      <trkpt lat="43.35766" lon="-0.22604">
        <ele>301.99</ele>
        <time>2013-06-30T08:07:59Z</time>
      </trkpt>
      <trkpt lat="43.35772" lon="-0.22615">
        <ele>302.47</ele>
        <time>2013-06-30T08:08:06Z</time>
      </trkpt>
      <trkpt lat="43.3578" lon="-0.22626">
        <ele>301.99</ele>
        <time>2013-06-30T08:08:13Z</time>
      </trkpt>
      <trkpt lat="43.35787" lon="-0.22636">
        <ele>302.47</ele>
        <time>2013-06-30T08:08:20Z</time>
      </trkpt>
      <trkpt lat="43.35794" lon="-0.22649">
        <ele>301.99</ele>
        <time>2013-06-30T08:08:28Z</time>
      </trkpt>
      <trkpt lat="43.35801" lon="-0.22661">
        <ele>301.99</ele>
        <time>2013-06-30T08:08:36Z</time>
      </trkpt>
      <trkpt lat="43.35809" lon="-0.22674">
        <ele>301.99</ele>
        <time>2013-06-30T08:08:44Z</time>
      </trkpt>
      <trkpt lat="43.35817" lon="-0.22683">
        <ele>301.99</ele>
        <time>2013-06-30T08:08:50Z</time>
      </trkpt>
      <trkpt lat="43.35826" lon="-0.22685">
        <ele>301.99</ele>
        <time>2013-06-30T08:08:56Z</time>
      </trkpt>
      <trkpt lat="43.35835" lon="-0.22683">
        <ele>301.99</ele>
        <time>2013-06-30T08:09:02Z</time>
      </trkpt>
      <trkpt lat="43.35846" lon="-0.22682">
        <ele>301.99</ele>
        <time>2013-06-30T08:09:09Z</time>
      </trkpt>
      <trkpt lat="43.35856" lon="-0.2268">
        <ele>301.51</ele>
        <time>2013-06-30T08:09:16Z</time>
      </trkpt>
      <trkpt lat="43.35866" lon="-0.22673">
        <ele>301.99</ele>
        <time>2013-06-30T08:09:23Z</time>
      </trkpt>
      <trkpt lat="43.35871" lon="-0.22663">
        <ele>301.99</ele>
        <time>2013-06-30T08:09:29Z</time>
      </trkpt>
      <trkpt lat="43.35874" lon="-0.22651">
        <ele>302.47</ele>
        <time>2013-06-30T08:09:35Z</time>
      </trkpt>
      <trkpt lat="43.35882" lon="-0.22647">
        <ele>301.99</ele>
        <time>2013-06-30T08:09:41Z</time>
      </trkpt>
      <trkpt lat="43.35892" lon="-0.2265">
        <ele>301.51</ele>
        <time>2013-06-30T08:09:47Z</time>
      </trkpt>
      <trkpt lat="43.35899" lon="-0.22658">
        <ele>301.51</ele>
        <time>2013-06-30T08:09:53Z</time>
      </trkpt>
      <trkpt lat="43.359" lon="-0.22672">
        <ele>301.03</ele>
        <time>2013-06-30T08:09:59Z</time>
      </trkpt>
      <trkpt lat="43.35898" lon="-0.22687">
        <ele>301.03</ele>
        <time>2013-06-30T08:10:05Z</time>
      </trkpt>
      <trkpt lat="43.35896" lon="-0.227">
        <ele>301.03</ele>
        <time>2013-06-30T08:10:11Z</time>
      </trkpt>
      <trkpt lat="43.35894" lon="-0.22713">
        <ele>300.07</ele>
        <time>2013-06-30T08:10:17Z</time>
      </trkpt>
      <trkpt lat="43.35892" lon="-0.22727">
        <ele>299.59</ele>
        <time>2013-06-30T08:10:23Z</time>
      </trkpt>
      <trkpt lat="43.3589" lon="-0.22741">
        <ele>299.59</ele>
        <time>2013-06-30T08:10:29Z</time>
      </trkpt>
      <trkpt lat="43.35889" lon="-0.22753">
        <ele>299.11</ele>
        <time>2013-06-30T08:10:35Z</time>
      </trkpt>
      <trkpt lat="43.35888" lon="-0.22766">
        <ele>298.15</ele>
        <time>2013-06-30T08:10:41Z</time>
      </trkpt>
      <trkpt lat="43.35886" lon="-0.2278">
        <ele>297.18</ele>
        <time>2013-06-30T08:10:48Z</time>
      </trkpt>
      <trkpt lat="43.35883" lon="-0.22795">
        <ele>296.7</ele>
        <time>2013-06-30T08:10:55Z</time>
      </trkpt>
      <trkpt lat="43.35879" lon="-0.22809">
        <ele>295.74</ele>
        <time>2013-06-30T08:11:01Z</time>
      </trkpt>
      <trkpt lat="43.35877" lon="-0.22823">
        <ele>294.78</ele>
        <time>2013-06-30T08:11:07Z</time>
      </trkpt>
      <trkpt lat="43.35873" lon="-0.22837">
        <ele>294.3</ele>
        <time>2013-06-30T08:11:13Z</time>
      </trkpt>
      <trkpt lat="43.35869" lon="-0.22848">
        <ele>293.82</ele>
        <time>2013-06-30T08:11:19Z</time>
      </trkpt>
      <trkpt lat="43.35863" lon="-0.2286">
        <ele>293.34</ele>
        <time>2013-06-30T08:11:26Z</time>
      </trkpt>
      <trkpt lat="43.35856" lon="-0.22872">
        <ele>292.38</ele>
        <time>2013-06-30T08:11:33Z</time>
      </trkpt>
      <trkpt lat="43.3585" lon="-0.22883">
        <ele>292.38</ele>
        <time>2013-06-30T08:11:40Z</time>
      </trkpt>
      <trkpt lat="43.35846" lon="-0.22897">
        <ele>292.38</ele>
        <time>2013-06-30T08:11:48Z</time>
      </trkpt>
      <trkpt lat="43.35841" lon="-0.2291">
        <ele>292.38</ele>
        <time>2013-06-30T08:11:54Z</time>
      </trkpt>
      <trkpt lat="43.35838" lon="-0.22923">
        <ele>291.9</ele>
        <time>2013-06-30T08:12:00Z</time>
      </trkpt>
      <trkpt lat="43.35837" lon="-0.22937">
        <ele>292.38</ele>
        <time>2013-06-30T08:12:06Z</time>
      </trkpt>
      <trkpt lat="43.35837" lon="-0.22952">
        <ele>292.38</ele>
        <time>2013-06-30T08:12:12Z</time>
      </trkpt>
      <trkpt lat="43.35837" lon="-0.22968">
        <ele>292.86</ele>
        <time>2013-06-30T08:12:19Z</time>
      </trkpt>
      <trkpt lat="43.35838" lon="-0.22983">
        <ele>292.38</ele>
        <time>2013-06-30T08:12:26Z</time>
      </trkpt>
      <trkpt lat="43.35838" lon="-0.22998">
        <ele>292.38</ele>
        <time>2013-06-30T08:12:33Z</time>
      </trkpt>
      <trkpt lat="43.35838" lon="-0.23013">
        <ele>293.34</ele>
        <time>2013-06-30T08:12:40Z</time>
      </trkpt>
      <trkpt lat="43.35839" lon="-0.2303">
        <ele>293.34</ele>
        <time>2013-06-30T08:12:47Z</time>
      </trkpt>
      <trkpt lat="43.3584" lon="-0.23044">
        <ele>293.82</ele>
        <time>2013-06-30T08:12:53Z</time>
      </trkpt>
      <trkpt lat="43.3584" lon="-0.23058">
        <ele>293.82</ele>
        <time>2013-06-30T08:12:59Z</time>
      </trkpt>
      <trkpt lat="43.3584" lon="-0.23072">
        <ele>294.3</ele>
        <time>2013-06-30T08:13:05Z</time>
      </trkpt>
      <trkpt lat="43.35839" lon="-0.23085">
        <ele>294.3</ele>
        <time>2013-06-30T08:13:11Z</time>
      </trkpt>
      <trkpt lat="43.35839" lon="-0.23097">
        <ele>295.26</ele>
        <time>2013-06-30T08:13:17Z</time>
      </trkpt>
      <trkpt lat="43.3584" lon="-0.23111">
        <ele>295.26</ele>
        <time>2013-06-30T08:13:23Z</time>
      </trkpt>
      <trkpt lat="43.3584" lon="-0.23123">
        <ele>295.26</ele>
        <time>2013-06-30T08:13:29Z</time>
      </trkpt>
      <trkpt lat="43.35841" lon="-0.23136">
        <ele>295.74</ele>
        <time>2013-06-30T08:13:36Z</time>
      </trkpt>
      <trkpt lat="43.35842" lon="-0.2315">
        <ele>296.22</ele>
        <time>2013-06-30T08:13:43Z</time>
      </trkpt>
      <trkpt lat="43.35843" lon="-0.23164">
        <ele>297.18</ele>
        <time>2013-06-30T08:13:50Z</time>
      </trkpt>
      <trkpt lat="43.35844" lon="-0.23179">
        <ele>297.67</ele>
        <time>2013-06-30T08:13:57Z</time>
      </trkpt>
      <trkpt lat="43.35848" lon="-0.23191">
        <ele>297.67</ele>
        <time>2013-06-30T08:14:03Z</time>
      </trkpt>
      <trkpt lat="43.35852" lon="-0.23204">
        <ele>298.15</ele>
        <time>2013-06-30T08:14:09Z</time>
      </trkpt>
      <trkpt lat="43.35853" lon="-0.23217">
        <ele>298.15</ele>
        <time>2013-06-30T08:14:16Z</time>
      </trkpt>
      <trkpt lat="43.35855" lon="-0.2323">
        <ele>298.63</ele>
        <time>2013-06-30T08:14:23Z</time>
      </trkpt>
      <trkpt lat="43.35865" lon="-0.23239">
        <ele>299.11</ele>
        <time>2013-06-30T08:14:30Z</time>
      </trkpt>
      <trkpt lat="43.35875" lon="-0.23244">
        <ele>299.11</ele>
        <time>2013-06-30T08:14:36Z</time>
      </trkpt>
      <trkpt lat="43.35884" lon="-0.23248">
        <ele>299.11</ele>
        <time>2013-06-30T08:14:42Z</time>
      </trkpt>
      <trkpt lat="43.35893" lon="-0.23253">
        <ele>299.11</ele>
        <time>2013-06-30T08:14:48Z</time>
      </trkpt>
      <trkpt lat="43.35903" lon="-0.23258">
        <ele>299.11</ele>
        <time>2013-06-30T08:14:54Z</time>
      </trkpt>
      <trkpt lat="43.35912" lon="-0.23265">
        <ele>299.11</ele>
        <time>2013-06-30T08:15:00Z</time>
      </trkpt>
      <trkpt lat="43.35922" lon="-0.23269">
        <ele>299.11</ele>
        <time>2013-06-30T08:15:06Z</time>
      </trkpt>
      <trkpt lat="43.35931" lon="-0.23274">
        <ele>299.11</ele>
        <time>2013-06-30T08:15:12Z</time>
      </trkpt>
      <trkpt lat="43.35941" lon="-0.2328">
        <ele>298.63</ele>
        <time>2013-06-30T08:15:18Z</time>
      </trkpt>
      <trkpt lat="43.3595" lon="-0.23285">
        <ele>298.63</ele>
        <time>2013-06-30T08:15:24Z</time>
      </trkpt>
      <trkpt lat="43.35959" lon="-0.23289">
        <ele>298.63</ele>
        <time>2013-06-30T08:15:30Z</time>
      </trkpt>
      <trkpt lat="43.35967" lon="-0.23293">
        <ele>298.63</ele>
        <time>2013-06-30T08:15:36Z</time>
      </trkpt>
      <trkpt lat="43.35976" lon="-0.23297">
        <ele>298.63</ele>
        <time>2013-06-30T08:15:42Z</time>
      </trkpt>
      <trkpt lat="43.35986" lon="-0.23301">
        <ele>298.63</ele>
        <time>2013-06-30T08:15:48Z</time>
      </trkpt>
      <trkpt lat="43.35995" lon="-0.23305">
        <ele>298.15</ele>
        <time>2013-06-30T08:15:54Z</time>
      </trkpt>
      <trkpt lat="43.36005" lon="-0.2331">
        <ele>298.15</ele>
        <time>2013-06-30T08:16:00Z</time>
      </trkpt>
      <trkpt lat="43.36013" lon="-0.23316">
        <ele>298.15</ele>
        <time>2013-06-30T08:16:06Z</time>
      </trkpt>
      <trkpt lat="43.36022" lon="-0.23323">
        <ele>298.15</ele>
        <time>2013-06-30T08:16:12Z</time>
      </trkpt>
      <trkpt lat="43.36031" lon="-0.23327">
        <ele>298.15</ele>
        <time>2013-06-30T08:16:18Z</time>
      </trkpt>
      <trkpt lat="43.36041" lon="-0.23333">
        <ele>298.15</ele>
        <time>2013-06-30T08:16:24Z</time>
      </trkpt>
      <trkpt lat="43.3605" lon="-0.23337">
        <ele>298.15</ele>
        <time>2013-06-30T08:16:30Z</time>
      </trkpt>
      <trkpt lat="43.36057" lon="-0.23343">
        <ele>298.63</ele>
        <time>2013-06-30T08:16:36Z</time>
      </trkpt>
      <trkpt lat="43.36066" lon="-0.2335">
        <ele>298.63</ele>
        <time>2013-06-30T08:16:42Z</time>
      </trkpt>
      <trkpt lat="43.36075" lon="-0.23354">
        <ele>298.63</ele>
        <time>2013-06-30T08:16:48Z</time>
      </trkpt>
      <trkpt lat="43.36084" lon="-0.23358">
        <ele>298.63</ele>
        <time>2013-06-30T08:16:54Z</time>
      </trkpt>
      <trkpt lat="43.36092" lon="-0.23363">
        <ele>298.63</ele>
        <time>2013-06-30T08:17:00Z</time>
      </trkpt>
      <trkpt lat="43.36101" lon="-0.23368">
        <ele>298.63</ele>
        <time>2013-06-30T08:17:06Z</time>
      </trkpt>
      <trkpt lat="43.36107" lon="-0.23375">
        <ele>298.15</ele>
        <time>2013-06-30T08:17:13Z</time>
      </trkpt>
      <trkpt lat="43.36115" lon="-0.23376">
        <ele>298.63</ele>
        <time>2013-06-30T08:17:44Z</time>
      </trkpt>
      <trkpt lat="43.36125" lon="-0.2338">
        <ele>298.15</ele>
        <time>2013-06-30T08:17:50Z</time>
      </trkpt>
      <trkpt lat="43.36134" lon="-0.23384">
        <ele>298.15</ele>
        <time>2013-06-30T08:17:57Z</time>
      </trkpt>
      <trkpt lat="43.36144" lon="-0.23389">
        <ele>299.11</ele>
        <time>2013-06-30T08:18:04Z</time>
      </trkpt>
      <trkpt lat="43.36155" lon="-0.23393">
        <ele>298.15</ele>
        <time>2013-06-30T08:18:11Z</time>
      </trkpt>
      <trkpt lat="43.36164" lon="-0.23395">
        <ele>298.63</ele>
        <time>2013-06-30T08:18:18Z</time>
      </trkpt>
      <trkpt lat="43.36174" lon="-0.23397">
        <ele>298.15</ele>
        <time>2013-06-30T08:18:24Z</time>
      </trkpt>
      <trkpt lat="43.36183" lon="-0.23399">
        <ele>298.63</ele>
        <time>2013-06-30T08:18:30Z</time>
      </trkpt>
      <trkpt lat="43.36193" lon="-0.234">
        <ele>298.15</ele>
        <time>2013-06-30T08:18:36Z</time>
      </trkpt>
      <trkpt lat="43.36202" lon="-0.23402">
        <ele>298.63</ele>
        <time>2013-06-30T08:18:42Z</time>
      </trkpt>
      <trkpt lat="43.36212" lon="-0.23404">
        <ele>298.15</ele>
        <time>2013-06-30T08:18:48Z</time>
      </trkpt>
      <trkpt lat="43.36221" lon="-0.23406">
        <ele>298.63</ele>
        <time>2013-06-30T08:18:54Z</time>
      </trkpt>
      <trkpt lat="43.36231" lon="-0.23408">
        <ele>297.67</ele>
        <time>2013-06-30T08:19:00Z</time>
      </trkpt>
      <trkpt lat="43.3624" lon="-0.23409">
        <ele>297.67</ele>
        <time>2013-06-30T08:19:06Z</time>
      </trkpt>
      <trkpt lat="43.36249" lon="-0.23411">
        <ele>297.67</ele>
        <time>2013-06-30T08:19:12Z</time>
      </trkpt>
      <trkpt lat="43.36259" lon="-0.23413">
        <ele>297.67</ele>
        <time>2013-06-30T08:19:18Z</time>
      </trkpt>
      <trkpt lat="43.36268" lon="-0.23415">
        <ele>297.18</ele>
        <time>2013-06-30T08:19:24Z</time>
      </trkpt>
      <trkpt lat="43.36277" lon="-0.23417">
        <ele>297.18</ele>
        <time>2013-06-30T08:19:30Z</time>
      </trkpt>
      <trkpt lat="43.36287" lon="-0.23418">
        <ele>297.18</ele>
        <time>2013-06-30T08:19:36Z</time>
      </trkpt>
      <trkpt lat="43.36296" lon="-0.23421">
        <ele>297.18</ele>
        <time>2013-06-30T08:19:42Z</time>
      </trkpt>
      <trkpt lat="43.36305" lon="-0.23422">
        <ele>297.18</ele>
        <time>2013-06-30T08:19:48Z</time>
      </trkpt>
      <trkpt lat="43.36315" lon="-0.23425">
        <ele>297.67</ele>
        <time>2013-06-30T08:19:54Z</time>
      </trkpt>
      <trkpt lat="43.36325" lon="-0.23426">
        <ele>297.67</ele>
        <time>2013-06-30T08:20:00Z</time>
      </trkpt>
      <trkpt lat="43.36335" lon="-0.23426">
        <ele>297.67</ele>
        <time>2013-06-30T08:20:06Z</time>
      </trkpt>
      <trkpt lat="43.36344" lon="-0.23425">
        <ele>297.18</ele>
        <time>2013-06-30T08:20:13Z</time>
      </trkpt>
      <trkpt lat="43.36354" lon="-0.23424">
        <ele>297.18</ele>
        <time>2013-06-30T08:20:19Z</time>
      </trkpt>
      <trkpt lat="43.36364" lon="-0.23423">
        <ele>296.7</ele>
        <time>2013-06-30T08:20:25Z</time>
      </trkpt>
      <trkpt lat="43.36374" lon="-0.23422">
        <ele>296.7</ele>
        <time>2013-06-30T08:20:31Z</time>
      </trkpt>
      <trkpt lat="43.36384" lon="-0.23421">
        <ele>296.7</ele>
        <time>2013-06-30T08:20:38Z</time>
      </trkpt>
      <trkpt lat="43.36394" lon="-0.23422">
        <ele>296.22</ele>
        <time>2013-06-30T08:20:44Z</time>
      </trkpt>
      <trkpt lat="43.36404" lon="-0.23421">
        <ele>296.22</ele>
        <time>2013-06-30T08:20:50Z</time>
      </trkpt>
      <trkpt lat="43.36413" lon="-0.2342">
        <ele>295.74</ele>
        <time>2013-06-30T08:20:56Z</time>
      </trkpt>
      <trkpt lat="43.36423" lon="-0.2342">
        <ele>294.78</ele>
        <time>2013-06-30T08:21:02Z</time>
      </trkpt>
      <trkpt lat="43.36432" lon="-0.2342">
        <ele>294.78</ele>
        <time>2013-06-30T08:21:08Z</time>
      </trkpt>
      <trkpt lat="43.36441" lon="-0.2342">
        <ele>294.3</ele>
        <time>2013-06-30T08:21:14Z</time>
      </trkpt>
      <trkpt lat="43.3645" lon="-0.23419">
        <ele>293.34</ele>
        <time>2013-06-30T08:21:20Z</time>
      </trkpt>
      <trkpt lat="43.36459" lon="-0.2342">
        <ele>291.9</ele>
        <time>2013-06-30T08:21:26Z</time>
      </trkpt>
      <trkpt lat="43.36468" lon="-0.23418">
        <ele>289.97</ele>
        <time>2013-06-30T08:21:32Z</time>
      </trkpt>
      <trkpt lat="43.36478" lon="-0.23418">
        <ele>288.53</ele>
        <time>2013-06-30T08:21:38Z</time>
      </trkpt>
      <trkpt lat="43.36488" lon="-0.23416">
        <ele>288.05</ele>
        <time>2013-06-30T08:21:44Z</time>
      </trkpt>
      <trkpt lat="43.36498" lon="-0.23415">
        <ele>286.61</ele>
        <time>2013-06-30T08:21:50Z</time>
      </trkpt>
      <trkpt lat="43.36507" lon="-0.23414">
        <ele>285.65</ele>
        <time>2013-06-30T08:21:56Z</time>
      </trkpt>
      <trkpt lat="43.36517" lon="-0.23414">
        <ele>284.21</ele>
        <time>2013-06-30T08:22:02Z</time>
      </trkpt>
      <trkpt lat="43.36527" lon="-0.23415">
        <ele>283.25</ele>
        <time>2013-06-30T08:22:08Z</time>
      </trkpt>
      <trkpt lat="43.36536" lon="-0.23415">
        <ele>282.77</ele>
        <time>2013-06-30T08:22:14Z</time>
      </trkpt>
      <trkpt lat="43.36546" lon="-0.23413">
        <ele>281.32</ele>
        <time>2013-06-30T08:22:20Z</time>
      </trkpt>
      <trkpt lat="43.36557" lon="-0.23412">
        <ele>280.36</ele>
        <time>2013-06-30T08:22:27Z</time>
      </trkpt>
      <trkpt lat="43.36568" lon="-0.23414">
        <ele>278.92</ele>
        <time>2013-06-30T08:22:34Z</time>
      </trkpt>
      <trkpt lat="43.36578" lon="-0.23415">
        <ele>277</ele>
        <time>2013-06-30T08:22:43Z</time>
      </trkpt>
      <trkpt lat="43.36586" lon="-0.23417">
        <ele>278.44</ele>
        <time>2013-06-30T08:22:57Z</time>
      </trkpt>
      <trkpt lat="43.36599" lon="-0.23411">
        <ele>279.88</ele>
        <time>2013-06-30T08:23:09Z</time>
      </trkpt>
      <trkpt lat="43.36608" lon="-0.23403">
        <ele>279.88</ele>
        <time>2013-06-30T08:23:16Z</time>
      </trkpt>
      <trkpt lat="43.36615" lon="-0.23395">
        <ele>280.36</ele>
        <time>2013-06-30T08:23:22Z</time>
      </trkpt>
      <trkpt lat="43.36624" lon="-0.23391">
        <ele>279.88</ele>
        <time>2013-06-30T08:23:29Z</time>
      </trkpt>
      <trkpt lat="43.36632" lon="-0.23391">
        <ele>280.84</ele>
        <time>2013-06-30T08:23:38Z</time>
      </trkpt>
      <trkpt lat="43.36639" lon="-0.2338">
        <ele>281.32</ele>
        <time>2013-06-30T08:23:45Z</time>
      </trkpt>
      <trkpt lat="43.36647" lon="-0.2337">
        <ele>281.32</ele>
        <time>2013-06-30T08:23:52Z</time>
      </trkpt>
      <trkpt lat="43.36654" lon="-0.23359">
        <ele>281.8</ele>
        <time>2013-06-30T08:24:00Z</time>
      </trkpt>
      <trkpt lat="43.36661" lon="-0.23348">
        <ele>282.28</ele>
        <time>2013-06-30T08:24:07Z</time>
      </trkpt>
      <trkpt lat="43.36668" lon="-0.23338">
        <ele>282.77</ele>
        <time>2013-06-30T08:24:14Z</time>
      </trkpt>
      <trkpt lat="43.36676" lon="-0.23329">
        <ele>282.77</ele>
        <time>2013-06-30T08:24:21Z</time>
      </trkpt>
      <trkpt lat="43.36676" lon="-0.23316">
        <ele>283.25</ele>
        <time>2013-06-30T08:24:28Z</time>
      </trkpt>
      <trkpt lat="43.36669" lon="-0.23303">
        <ele>283.25</ele>
        <time>2013-06-30T08:24:36Z</time>
      </trkpt>
      <trkpt lat="43.36658" lon="-0.23297">
        <ele>283.25</ele>
        <time>2013-06-30T08:24:44Z</time>
      </trkpt>
      <trkpt lat="43.36647" lon="-0.23287">
        <ele>283.25</ele>
        <time>2013-06-30T08:24:52Z</time>
      </trkpt>
      <trkpt lat="43.36639" lon="-0.23277">
        <ele>282.77</ele>
        <time>2013-06-30T08:25:00Z</time>
      </trkpt>
      <trkpt lat="43.36631" lon="-0.23266">
        <ele>282.77</ele>
        <time>2013-06-30T08:25:07Z</time>
      </trkpt>
      <trkpt lat="43.36623" lon="-0.23255">
        <ele>281.8</ele>
        <time>2013-06-30T08:25:13Z</time>
      </trkpt>
      <trkpt lat="43.36615" lon="-0.23245">
        <ele>282.28</ele>
        <time>2013-06-30T08:25:20Z</time>
      </trkpt>
      <trkpt lat="43.36609" lon="-0.23234">
        <ele>282.28</ele>
        <time>2013-06-30T08:25:28Z</time>
      </trkpt>
      <trkpt lat="43.36601" lon="-0.23222">
        <ele>282.77</ele>
        <time>2013-06-30T08:25:38Z</time>
      </trkpt>
      <trkpt lat="43.36592" lon="-0.23209">
        <ele>283.73</ele>
        <time>2013-06-30T08:25:47Z</time>
      </trkpt>
      <trkpt lat="43.36582" lon="-0.23196">
        <ele>285.17</ele>
        <time>2013-06-30T08:25:56Z</time>
      </trkpt>
      <trkpt lat="43.36575" lon="-0.23185">
        <ele>286.13</ele>
        <time>2013-06-30T08:26:05Z</time>
      </trkpt>
      <trkpt lat="43.36567" lon="-0.23173">
        <ele>287.57</ele>
        <time>2013-06-30T08:26:17Z</time>
      </trkpt>
      <trkpt lat="43.36558" lon="-0.23158">
        <ele>289.01</ele>
        <time>2013-06-30T08:26:28Z</time>
      </trkpt>
      <trkpt lat="43.36548" lon="-0.2314">
        <ele>289.49</ele>
        <time>2013-06-30T08:26:37Z</time>
      </trkpt>
      <trkpt lat="43.3654" lon="-0.23129">
        <ele>290.94</ele>
        <time>2013-06-30T08:26:46Z</time>
      </trkpt>
      <trkpt lat="43.36534" lon="-0.23118">
        <ele>291.42</ele>
        <time>2013-06-30T08:26:55Z</time>
      </trkpt>
      <trkpt lat="43.36531" lon="-0.23103">
        <ele>292.38</ele>
        <time>2013-06-30T08:27:04Z</time>
      </trkpt>
      <trkpt lat="43.36533" lon="-0.23089">
        <ele>293.34</ele>
        <time>2013-06-30T08:27:12Z</time>
      </trkpt>
      <trkpt lat="43.36535" lon="-0.23075">
        <ele>294.3</ele>
        <time>2013-06-30T08:27:21Z</time>
      </trkpt>
      <trkpt lat="43.36537" lon="-0.23061">
        <ele>295.26</ele>
        <time>2013-06-30T08:27:29Z</time>
      </trkpt>
      <trkpt lat="43.36532" lon="-0.2305">
        <ele>295.74</ele>
        <time>2013-06-30T08:27:37Z</time>
      </trkpt>
      <trkpt lat="43.3652" lon="-0.23043">
        <ele>295.74</ele>
        <time>2013-06-30T08:27:45Z</time>
      </trkpt>
      <trkpt lat="43.3651" lon="-0.23037">
        <ele>296.22</ele>
        <time>2013-06-30T08:27:52Z</time>
      </trkpt>
      <trkpt lat="43.36502" lon="-0.23032">
        <ele>296.22</ele>
        <time>2013-06-30T08:27:59Z</time>
      </trkpt>
      <trkpt lat="43.36492" lon="-0.23027">
        <ele>295.74</ele>
        <time>2013-06-30T08:28:05Z</time>
      </trkpt>
      <trkpt lat="43.36484" lon="-0.23021">
        <ele>296.22</ele>
        <time>2013-06-30T08:28:12Z</time>
      </trkpt>
      <trkpt lat="43.36475" lon="-0.23016">
        <ele>296.22</ele>
        <time>2013-06-30T08:28:19Z</time>
      </trkpt>
      <trkpt lat="43.36465" lon="-0.23012">
        <ele>296.22</ele>
        <time>2013-06-30T08:28:26Z</time>
      </trkpt>
      <trkpt lat="43.36456" lon="-0.23005">
        <ele>295.74</ele>
        <time>2013-06-30T08:28:33Z</time>
      </trkpt>
      <trkpt lat="43.36448" lon="-0.23">
        <ele>295.74</ele>
        <time>2013-06-30T08:28:40Z</time>
      </trkpt>
      <trkpt lat="43.36438" lon="-0.22993">
        <ele>296.22</ele>
        <time>2013-06-30T08:28:47Z</time>
      </trkpt>
      <trkpt lat="43.3643" lon="-0.22982">
        <ele>296.7</ele>
        <time>2013-06-30T08:28:54Z</time>
      </trkpt>
      <trkpt lat="43.36424" lon="-0.22973">
        <ele>296.7</ele>
        <time>2013-06-30T08:29:00Z</time>
      </trkpt>
      <trkpt lat="43.36423" lon="-0.2296">
        <ele>297.18</ele>
        <time>2013-06-30T08:29:07Z</time>
      </trkpt>
      <trkpt lat="43.36427" lon="-0.22947">
        <ele>298.15</ele>
        <time>2013-06-30T08:29:13Z</time>
      </trkpt>
      <trkpt lat="43.3643" lon="-0.22936">
        <ele>298.15</ele>
        <time>2013-06-30T08:29:20Z</time>
      </trkpt>
      <trkpt lat="43.36434" lon="-0.22923">
        <ele>298.63</ele>
        <time>2013-06-30T08:29:28Z</time>
      </trkpt>
      <trkpt lat="43.36439" lon="-0.22912">
        <ele>299.59</ele>
        <time>2013-06-30T08:29:34Z</time>
      </trkpt>
      <trkpt lat="43.36444" lon="-0.22902">
        <ele>300.07</ele>
        <time>2013-06-30T08:29:41Z</time>
      </trkpt>
      <trkpt lat="43.36448" lon="-0.2289">
        <ele>299.59</ele>
        <time>2013-06-30T08:29:48Z</time>
      </trkpt>
      <trkpt lat="43.36453" lon="-0.22879">
        <ele>300.07</ele>
        <time>2013-06-30T08:29:54Z</time>
      </trkpt>
      <trkpt lat="43.36458" lon="-0.22868">
        <ele>301.03</ele>
        <time>2013-06-30T08:30:01Z</time>
      </trkpt>
      <trkpt lat="43.36462" lon="-0.22857">
        <ele>300.55</ele>
        <time>2013-06-30T08:30:08Z</time>
      </trkpt>
      <trkpt lat="43.36467" lon="-0.22847">
        <ele>300.55</ele>
        <time>2013-06-30T08:30:14Z</time>
      </trkpt>
      <trkpt lat="43.36472" lon="-0.22836">
        <ele>301.03</ele>
        <time>2013-06-30T08:30:21Z</time>
      </trkpt>
      <trkpt lat="43.36476" lon="-0.22823">
        <ele>301.03</ele>
        <time>2013-06-30T08:30:28Z</time>
      </trkpt>
      <trkpt lat="43.36482" lon="-0.22812">
        <ele>301.51</ele>
        <time>2013-06-30T08:30:35Z</time>
      </trkpt>
      <trkpt lat="43.36487" lon="-0.22801">
        <ele>301.99</ele>
        <time>2013-06-30T08:30:42Z</time>
      </trkpt>
      <trkpt lat="43.36491" lon="-0.22789">
        <ele>301.99</ele>
        <time>2013-06-30T08:30:48Z</time>
      </trkpt>
      <trkpt lat="43.36495" lon="-0.22779">
        <ele>301.51</ele>
        <time>2013-06-30T08:30:54Z</time>
      </trkpt>
      <trkpt lat="43.36499" lon="-0.22769">
        <ele>301.99</ele>
        <time>2013-06-30T08:31:00Z</time>
      </trkpt>
      <trkpt lat="43.36504" lon="-0.22759">
        <ele>301.99</ele>
        <time>2013-06-30T08:31:06Z</time>
      </trkpt>
      <trkpt lat="43.36508" lon="-0.22747">
        <ele>301.99</ele>
        <time>2013-06-30T08:31:13Z</time>
      </trkpt>
      <trkpt lat="43.36512" lon="-0.22736">
        <ele>301.99</ele>
        <time>2013-06-30T08:31:19Z</time>
      </trkpt>
      <trkpt lat="43.36518" lon="-0.22724">
        <ele>301.51</ele>
        <time>2013-06-30T08:31:26Z</time>
      </trkpt>
      <trkpt lat="43.36523" lon="-0.22713">
        <ele>301.99</ele>
        <time>2013-06-30T08:31:33Z</time>
      </trkpt>
      <trkpt lat="43.36526" lon="-0.22701">
        <ele>301.99</ele>
        <time>2013-06-30T08:31:39Z</time>
      </trkpt>
      <trkpt lat="43.36528" lon="-0.22688">
        <ele>302.47</ele>
        <time>2013-06-30T08:31:45Z</time>
      </trkpt>
      <trkpt lat="43.36531" lon="-0.22675">
        <ele>302.47</ele>
        <time>2013-06-30T08:31:52Z</time>
      </trkpt>
      <trkpt lat="43.36533" lon="-0.22663">
        <ele>301.99</ele>
        <time>2013-06-30T08:31:59Z</time>
      </trkpt>
      <trkpt lat="43.36534" lon="-0.2265">
        <ele>301.99</ele>
        <time>2013-06-30T08:32:05Z</time>
      </trkpt>
      <trkpt lat="43.36536" lon="-0.22638">
        <ele>301.99</ele>
        <time>2013-06-30T08:32:12Z</time>
      </trkpt>
      <trkpt lat="43.36537" lon="-0.22626">
        <ele>301.99</ele>
        <time>2013-06-30T08:32:20Z</time>
      </trkpt>
      <trkpt lat="43.36539" lon="-0.22612">
        <ele>301.99</ele>
        <time>2013-06-30T08:32:27Z</time>
      </trkpt>
      <trkpt lat="43.3654" lon="-0.226">
        <ele>301.51</ele>
        <time>2013-06-30T08:32:33Z</time>
      </trkpt>
      <trkpt lat="43.36542" lon="-0.22588">
        <ele>301.99</ele>
        <time>2013-06-30T08:32:39Z</time>
      </trkpt>
      <trkpt lat="43.36544" lon="-0.22577">
        <ele>301.99</ele>
        <time>2013-06-30T08:32:45Z</time>
      </trkpt>
      <trkpt lat="43.36546" lon="-0.22564">
        <ele>301.51</ele>
        <time>2013-06-30T08:32:52Z</time>
      </trkpt>
      <trkpt lat="43.3655" lon="-0.22551">
        <ele>301.99</ele>
        <time>2013-06-30T08:32:59Z</time>
      </trkpt>
      <trkpt lat="43.36554" lon="-0.22539">
        <ele>302.47</ele>
        <time>2013-06-30T08:33:05Z</time>
      </trkpt>
      <trkpt lat="43.36556" lon="-0.22525">
        <ele>301.99</ele>
        <time>2013-06-30T08:33:12Z</time>
      </trkpt>
      <trkpt lat="43.36558" lon="-0.22513">
        <ele>302.47</ele>
        <time>2013-06-30T08:33:18Z</time>
      </trkpt>
      <trkpt lat="43.36561" lon="-0.225">
        <ele>302.47</ele>
        <time>2013-06-30T08:33:25Z</time>
      </trkpt>
      <trkpt lat="43.36563" lon="-0.22487">
        <ele>301.99</ele>
        <time>2013-06-30T08:33:32Z</time>
      </trkpt>
      <trkpt lat="43.36566" lon="-0.22475">
        <ele>302.47</ele>
        <time>2013-06-30T08:33:38Z</time>
      </trkpt>
      <trkpt lat="43.36569" lon="-0.22462">
        <ele>301.99</ele>
        <time>2013-06-30T08:33:45Z</time>
      </trkpt>
      <trkpt lat="43.3657" lon="-0.22451">
        <ele>301.99</ele>
        <time>2013-06-30T08:33:52Z</time>
      </trkpt>
      <trkpt lat="43.36571" lon="-0.2244">
        <ele>302.47</ele>
        <time>2013-06-30T08:34:03Z</time>
      </trkpt>
      <trkpt lat="43.36575" lon="-0.22427">
        <ele>302.47</ele>
        <time>2013-06-30T08:34:10Z</time>
      </trkpt>
      <trkpt lat="43.36576" lon="-0.22414">
        <ele>302.95</ele>
        <time>2013-06-30T08:34:16Z</time>
      </trkpt>
      <trkpt lat="43.36578" lon="-0.22401">
        <ele>302.47</ele>
        <time>2013-06-30T08:34:23Z</time>
      </trkpt>
      <trkpt lat="43.36582" lon="-0.22389">
        <ele>302.47</ele>
        <time>2013-06-30T08:34:29Z</time>
      </trkpt>
      <trkpt lat="43.36584" lon="-0.22376">
        <ele>302.47</ele>
        <time>2013-06-30T08:34:36Z</time>
      </trkpt>
      <trkpt lat="43.36587" lon="-0.22365">
        <ele>302.47</ele>
        <time>2013-06-30T08:34:42Z</time>
      </trkpt>
      <trkpt lat="43.36588" lon="-0.22352">
        <ele>302.47</ele>
        <time>2013-06-30T08:34:48Z</time>
      </trkpt>
      <trkpt lat="43.36591" lon="-0.2234">
        <ele>301.99</ele>
        <time>2013-06-30T08:34:54Z</time>
      </trkpt>
      <trkpt lat="43.36593" lon="-0.22328">
        <ele>301.99</ele>
        <time>2013-06-30T08:35:00Z</time>
      </trkpt>
      <trkpt lat="43.36594" lon="-0.22315">
        <ele>301.51</ele>
        <time>2013-06-30T08:35:07Z</time>
      </trkpt>
      <trkpt lat="43.36596" lon="-0.22301">
        <ele>301.51</ele>
        <time>2013-06-30T08:35:14Z</time>
      </trkpt>
      <trkpt lat="43.36597" lon="-0.22287">
        <ele>301.51</ele>
        <time>2013-06-30T08:35:21Z</time>
      </trkpt>
      <trkpt lat="43.36601" lon="-0.22276">
        <ele>301.03</ele>
        <time>2013-06-30T08:35:27Z</time>
      </trkpt>
      <trkpt lat="43.36603" lon="-0.22263">
        <ele>300.55</ele>
        <time>2013-06-30T08:35:34Z</time>
      </trkpt>
      <trkpt lat="43.36607" lon="-0.22249">
        <ele>300.55</ele>
        <time>2013-06-30T08:35:41Z</time>
      </trkpt>
      <trkpt lat="43.3661" lon="-0.22236">
        <ele>300.55</ele>
        <time>2013-06-30T08:35:47Z</time>
      </trkpt>
      <trkpt lat="43.36613" lon="-0.22223">
        <ele>300.55</ele>
        <time>2013-06-30T08:35:53Z</time>
      </trkpt>
      <trkpt lat="43.36614" lon="-0.22211">
        <ele>300.55</ele>
        <time>2013-06-30T08:35:59Z</time>
      </trkpt>
      <trkpt lat="43.36618" lon="-0.22199">
        <ele>300.55</ele>
        <time>2013-06-30T08:36:06Z</time>
      </trkpt>
      <trkpt lat="43.36625" lon="-0.22187">
        <ele>301.03</ele>
        <time>2013-06-30T08:36:13Z</time>
      </trkpt>
      <trkpt lat="43.36632" lon="-0.22187">
        <ele>301.51</ele>
        <time>2013-06-30T08:36:34Z</time>
      </trkpt>
      <trkpt lat="43.3664" lon="-0.22195">
        <ele>301.03</ele>
        <time>2013-06-30T08:36:41Z</time>
      </trkpt>
      <trkpt lat="43.36649" lon="-0.22202">
        <ele>301.03</ele>
        <time>2013-06-30T08:36:47Z</time>
      </trkpt>
      <trkpt lat="43.36657" lon="-0.22208">
        <ele>301.03</ele>
        <time>2013-06-30T08:36:53Z</time>
      </trkpt>
      <trkpt lat="43.36664" lon="-0.22214">
        <ele>301.03</ele>
        <time>2013-06-30T08:36:59Z</time>
      </trkpt>
      <trkpt lat="43.36673" lon="-0.22223">
        <ele>300.55</ele>
        <time>2013-06-30T08:37:06Z</time>
      </trkpt>
      <trkpt lat="43.36681" lon="-0.22231">
        <ele>301.03</ele>
        <time>2013-06-30T08:37:13Z</time>
      </trkpt>
      <trkpt lat="43.36689" lon="-0.22239">
        <ele>300.55</ele>
        <time>2013-06-30T08:37:20Z</time>
      </trkpt>
      <trkpt lat="43.36698" lon="-0.22247">
        <ele>300.55</ele>
        <time>2013-06-30T08:37:27Z</time>
      </trkpt>
      <trkpt lat="43.36707" lon="-0.22256">
        <ele>300.55</ele>
        <time>2013-06-30T08:37:34Z</time>
      </trkpt>
      <trkpt lat="43.36716" lon="-0.22265">
        <ele>300.55</ele>
        <time>2013-06-30T08:37:41Z</time>
      </trkpt>
      <trkpt lat="43.36724" lon="-0.22273">
        <ele>300.07</ele>
        <time>2013-06-30T08:37:47Z</time>
      </trkpt>
      <trkpt lat="43.36732" lon="-0.22279">
        <ele>300.55</ele>
        <time>2013-06-30T08:37:53Z</time>
      </trkpt>
      <trkpt lat="43.3674" lon="-0.22287">
        <ele>300.07</ele>
        <time>2013-06-30T08:37:59Z</time>
      </trkpt>
      <trkpt lat="43.36748" lon="-0.22294">
        <ele>300.07</ele>
        <time>2013-06-30T08:38:05Z</time>
      </trkpt>
      <trkpt lat="43.36756" lon="-0.22301">
        <ele>300.07</ele>
        <time>2013-06-30T08:38:11Z</time>
      </trkpt>
      <trkpt lat="43.36764" lon="-0.22308">
        <ele>300.07</ele>
        <time>2013-06-30T08:38:17Z</time>
      </trkpt>
      <trkpt lat="43.36772" lon="-0.22316">
        <ele>300.07</ele>
        <time>2013-06-30T08:38:23Z</time>
      </trkpt>
      <trkpt lat="43.3678" lon="-0.22322">
        <ele>300.07</ele>
        <time>2013-06-30T08:38:29Z</time>
      </trkpt>
      <trkpt lat="43.36787" lon="-0.2233">
        <ele>300.07</ele>
        <time>2013-06-30T08:38:35Z</time>
      </trkpt>
      <trkpt lat="43.36795" lon="-0.22339">
        <ele>299.59</ele>
        <time>2013-06-30T08:38:42Z</time>
      </trkpt>
      <trkpt lat="43.36803" lon="-0.22349">
        <ele>300.07</ele>
        <time>2013-06-30T08:38:49Z</time>
      </trkpt>
      <trkpt lat="43.36811" lon="-0.22358">
        <ele>300.07</ele>
        <time>2013-06-30T08:38:56Z</time>
      </trkpt>
      <trkpt lat="43.3682" lon="-0.22367">
        <ele>299.59</ele>
        <time>2013-06-30T08:39:03Z</time>
      </trkpt>
      <trkpt lat="43.36828" lon="-0.22375">
        <ele>300.07</ele>
        <time>2013-06-30T08:39:10Z</time>
      </trkpt>
      <trkpt lat="43.36837" lon="-0.22384">
        <ele>299.59</ele>
        <time>2013-06-30T08:39:17Z</time>
      </trkpt>
      <trkpt lat="43.36845" lon="-0.22394">
        <ele>300.07</ele>
        <time>2013-06-30T08:39:24Z</time>
      </trkpt>
      <trkpt lat="43.36852" lon="-0.22402">
        <ele>299.11</ele>
        <time>2013-06-30T08:39:30Z</time>
      </trkpt>
      <trkpt lat="43.36861" lon="-0.22411">
        <ele>298.63</ele>
        <time>2013-06-30T08:39:37Z</time>
      </trkpt>
      <trkpt lat="43.36871" lon="-0.22418">
        <ele>298.63</ele>
        <time>2013-06-30T08:39:44Z</time>
      </trkpt>
      <trkpt lat="43.36881" lon="-0.22421">
        <ele>298.63</ele>
        <time>2013-06-30T08:39:50Z</time>
      </trkpt>
      <trkpt lat="43.3689" lon="-0.22421">
        <ele>299.11</ele>
        <time>2013-06-30T08:39:56Z</time>
      </trkpt>
      <trkpt lat="43.369" lon="-0.2242">
        <ele>299.11</ele>
        <time>2013-06-30T08:40:03Z</time>
      </trkpt>
      <trkpt lat="43.36911" lon="-0.22418">
        <ele>298.63</ele>
        <time>2013-06-30T08:40:10Z</time>
      </trkpt>
      <trkpt lat="43.3692" lon="-0.22412">
        <ele>299.11</ele>
        <time>2013-06-30T08:40:17Z</time>
      </trkpt>
      <trkpt lat="43.36931" lon="-0.22404">
        <ele>298.63</ele>
        <time>2013-06-30T08:40:24Z</time>
      </trkpt>
      <trkpt lat="43.36938" lon="-0.22393">
        <ele>299.59</ele>
        <time>2013-06-30T08:40:31Z</time>
      </trkpt>
      <trkpt lat="43.36944" lon="-0.22381">
        <ele>299.59</ele>
        <time>2013-06-30T08:40:38Z</time>
      </trkpt>
      <trkpt lat="43.3695" lon="-0.22369">
        <ele>299.59</ele>
        <time>2013-06-30T08:40:45Z</time>
      </trkpt>
      <trkpt lat="43.36956" lon="-0.22356">
        <ele>299.59</ele>
        <time>2013-06-30T08:40:52Z</time>
      </trkpt>
      <trkpt lat="43.36962" lon="-0.22344">
        <ele>299.59</ele>
        <time>2013-06-30T08:40:59Z</time>
      </trkpt>
      <trkpt lat="43.36967" lon="-0.22333">
        <ele>299.59</ele>
        <time>2013-06-30T08:41:05Z</time>
      </trkpt>
      <trkpt lat="43.36973" lon="-0.22323">
        <ele>299.59</ele>
        <time>2013-06-30T08:41:11Z</time>
      </trkpt>
      <trkpt lat="43.36978" lon="-0.22312">
        <ele>300.07</ele>
        <time>2013-06-30T08:41:17Z</time>
      </trkpt>
      <trkpt lat="43.36985" lon="-0.223">
        <ele>300.07</ele>
        <time>2013-06-30T08:41:24Z</time>
      </trkpt>
      <trkpt lat="43.36991" lon="-0.22291">
        <ele>300.07</ele>
        <time>2013-06-30T08:41:30Z</time>
      </trkpt>
      <trkpt lat="43.36998" lon="-0.22283">
        <ele>300.55</ele>
        <time>2013-06-30T08:41:37Z</time>
      </trkpt>
      <trkpt lat="43.37006" lon="-0.22273">
        <ele>300.07</ele>
        <time>2013-06-30T08:41:45Z</time>
      </trkpt>
      <trkpt lat="43.37013" lon="-0.22262">
        <ele>299.59</ele>
        <time>2013-06-30T08:41:52Z</time>
      </trkpt>
      <trkpt lat="43.37019" lon="-0.22252">
        <ele>299.11</ele>
        <time>2013-06-30T08:41:58Z</time>
      </trkpt>
      <trkpt lat="43.37024" lon="-0.22238">
        <ele>299.11</ele>
        <time>2013-06-30T08:42:06Z</time>
      </trkpt>
      <trkpt lat="43.37021" lon="-0.22222">
        <ele>299.11</ele>
        <time>2013-06-30T08:42:12Z</time>
      </trkpt>
      <trkpt lat="43.3702" lon="-0.22209">
        <ele>299.11</ele>
        <time>2013-06-30T08:42:18Z</time>
      </trkpt>
      <trkpt lat="43.37017" lon="-0.22196">
        <ele>298.63</ele>
        <time>2013-06-30T08:42:24Z</time>
      </trkpt>
      <trkpt lat="43.37015" lon="-0.22182">
        <ele>299.11</ele>
        <time>2013-06-30T08:42:31Z</time>
      </trkpt>
      <trkpt lat="43.37013" lon="-0.22169">
        <ele>298.63</ele>
        <time>2013-06-30T08:42:37Z</time>
      </trkpt>
      <trkpt lat="43.37011" lon="-0.22158">
        <ele>298.15</ele>
        <time>2013-06-30T08:42:43Z</time>
      </trkpt>
      <trkpt lat="43.3701" lon="-0.22145">
        <ele>298.15</ele>
        <time>2013-06-30T08:42:49Z</time>
      </trkpt>
      <trkpt lat="43.37009" lon="-0.22132">
        <ele>297.18</ele>
        <time>2013-06-30T08:42:55Z</time>
      </trkpt>
      <trkpt lat="43.37007" lon="-0.22119">
        <ele>296.7</ele>
        <time>2013-06-30T08:43:01Z</time>
      </trkpt>
      <trkpt lat="43.37004" lon="-0.22108">
        <ele>296.22</ele>
        <time>2013-06-30T08:43:07Z</time>
      </trkpt>
      <trkpt lat="43.37" lon="-0.22097">
        <ele>295.74</ele>
        <time>2013-06-30T08:43:13Z</time>
      </trkpt>
      <trkpt lat="43.36997" lon="-0.22085">
        <ele>295.26</ele>
        <time>2013-06-30T08:43:19Z</time>
      </trkpt>
      <trkpt lat="43.36992" lon="-0.22072">
        <ele>294.78</ele>
        <time>2013-06-30T08:43:26Z</time>
      </trkpt>
      <trkpt lat="43.3699" lon="-0.2206">
        <ele>294.3</ele>
        <time>2013-06-30T08:43:32Z</time>
      </trkpt>
      <trkpt lat="43.36987" lon="-0.22047">
        <ele>294.3</ele>
        <time>2013-06-30T08:43:38Z</time>
      </trkpt>
      <trkpt lat="43.36985" lon="-0.22034">
        <ele>294.3</ele>
        <time>2013-06-30T08:43:44Z</time>
      </trkpt>
      <trkpt lat="43.36986" lon="-0.22022">
        <ele>294.78</ele>
        <time>2013-06-30T08:43:50Z</time>
      </trkpt>
      <trkpt lat="43.36988" lon="-0.22011">
        <ele>294.78</ele>
        <time>2013-06-30T08:43:56Z</time>
      </trkpt>
      <trkpt lat="43.3699" lon="-0.21999">
        <ele>295.26</ele>
        <time>2013-06-30T08:44:02Z</time>
      </trkpt>
      <trkpt lat="43.36992" lon="-0.21987">
        <ele>295.26</ele>
        <time>2013-06-30T08:44:08Z</time>
      </trkpt>
      <trkpt lat="43.36993" lon="-0.21976">
        <ele>295.26</ele>
        <time>2013-06-30T08:44:14Z</time>
      </trkpt>
      <trkpt lat="43.36993" lon="-0.21963">
        <ele>294.78</ele>
        <time>2013-06-30T08:44:20Z</time>
      </trkpt>
      <trkpt lat="43.36991" lon="-0.21952">
        <ele>296.22</ele>
        <time>2013-06-30T08:44:27Z</time>
      </trkpt>
      <trkpt lat="43.36993" lon="-0.21941">
        <ele>296.7</ele>
        <time>2013-06-30T08:44:48Z</time>
      </trkpt>
      <trkpt lat="43.36997" lon="-0.21933">
        <ele>296.7</ele>
        <time>2013-06-30T08:45:48Z</time>
      </trkpt>
      <trkpt lat="43.37003" lon="-0.21923">
        <ele>297.18</ele>
        <time>2013-06-30T08:45:56Z</time>
      </trkpt>
      <trkpt lat="43.3701" lon="-0.2191">
        <ele>296.22</ele>
        <time>2013-06-30T08:46:04Z</time>
      </trkpt>
      <trkpt lat="43.37015" lon="-0.219">
        <ele>296.7</ele>
        <time>2013-06-30T08:46:10Z</time>
      </trkpt>
      <trkpt lat="43.37021" lon="-0.21889">
        <ele>296.7</ele>
        <time>2013-06-30T08:46:16Z</time>
      </trkpt>
      <trkpt lat="43.37026" lon="-0.21879">
        <ele>296.22</ele>
        <time>2013-06-30T08:46:22Z</time>
      </trkpt>
      <trkpt lat="43.37032" lon="-0.21869">
        <ele>295.74</ele>
        <time>2013-06-30T08:46:28Z</time>
      </trkpt>
      <trkpt lat="43.37036" lon="-0.21857">
        <ele>295.74</ele>
        <time>2013-06-30T08:46:34Z</time>
      </trkpt>
      <trkpt lat="43.3704" lon="-0.21845">
        <ele>295.26</ele>
        <time>2013-06-30T08:46:40Z</time>
      </trkpt>
      <trkpt lat="43.37045" lon="-0.21833">
        <ele>294.3</ele>
        <time>2013-06-30T08:46:47Z</time>
      </trkpt>
      <trkpt lat="43.3705" lon="-0.21819">
        <ele>293.82</ele>
        <time>2013-06-30T08:46:54Z</time>
      </trkpt>
      <trkpt lat="43.37053" lon="-0.21807">
        <ele>293.82</ele>
        <time>2013-06-30T08:47:00Z</time>
      </trkpt>
      <trkpt lat="43.37058" lon="-0.21795">
        <ele>292.86</ele>
        <time>2013-06-30T08:47:06Z</time>
      </trkpt>
      <trkpt lat="43.37063" lon="-0.21784">
        <ele>292.38</ele>
        <time>2013-06-30T08:47:13Z</time>
      </trkpt>
      <trkpt lat="43.37072" lon="-0.21773">
        <ele>291.9</ele>
        <time>2013-06-30T08:47:20Z</time>
      </trkpt>
      <trkpt lat="43.37079" lon="-0.21764">
        <ele>290.94</ele>
        <time>2013-06-30T08:47:26Z</time>
      </trkpt>
      <trkpt lat="43.37085" lon="-0.21755">
        <ele>289.97</ele>
        <time>2013-06-30T08:47:32Z</time>
      </trkpt>
      <trkpt lat="43.37092" lon="-0.21743">
        <ele>289.49</ele>
        <time>2013-06-30T08:47:39Z</time>
      </trkpt>
      <trkpt lat="43.37097" lon="-0.21732">
        <ele>289.01</ele>
        <time>2013-06-30T08:47:45Z</time>
      </trkpt>
      <trkpt lat="43.37103" lon="-0.21722">
        <ele>287.57</ele>
        <time>2013-06-30T08:47:51Z</time>
      </trkpt>
      <trkpt lat="43.37108" lon="-0.21712">
        <ele>287.09</ele>
        <time>2013-06-30T08:47:57Z</time>
      </trkpt>
      <trkpt lat="43.37115" lon="-0.21702">
        <ele>287.09</ele>
        <time>2013-06-30T08:48:04Z</time>
      </trkpt>
      <trkpt lat="43.37122" lon="-0.21693">
        <ele>286.61</ele>
        <time>2013-06-30T08:48:10Z</time>
      </trkpt>
      <trkpt lat="43.37129" lon="-0.21683">
        <ele>286.61</ele>
        <time>2013-06-30T08:48:16Z</time>
      </trkpt>
      <trkpt lat="43.37133" lon="-0.21671">
        <ele>286.13</ele>
        <time>2013-06-30T08:48:22Z</time>
      </trkpt>
      <trkpt lat="43.37128" lon="-0.21658">
        <ele>286.13</ele>
        <time>2013-06-30T08:48:28Z</time>
      </trkpt>
      <trkpt lat="43.37119" lon="-0.2165">
        <ele>286.13</ele>
        <time>2013-06-30T08:48:35Z</time>
      </trkpt>
      <trkpt lat="43.3711" lon="-0.21641">
        <ele>286.13</ele>
        <time>2013-06-30T08:48:42Z</time>
      </trkpt>
      <trkpt lat="43.37101" lon="-0.21634">
        <ele>286.13</ele>
        <time>2013-06-30T08:48:49Z</time>
      </trkpt>
      <trkpt lat="43.37091" lon="-0.21629">
        <ele>286.13</ele>
        <time>2013-06-30T08:48:56Z</time>
      </trkpt>
      <trkpt lat="43.37081" lon="-0.21622">
        <ele>286.61</ele>
        <time>2013-06-30T08:49:03Z</time>
      </trkpt>
      <trkpt lat="43.37073" lon="-0.21614">
        <ele>287.57</ele>
        <time>2013-06-30T08:49:11Z</time>
      </trkpt>
      <trkpt lat="43.37064" lon="-0.21609">
        <ele>287.57</ele>
        <time>2013-06-30T08:49:18Z</time>
      </trkpt>
      <trkpt lat="43.37054" lon="-0.21603">
        <ele>288.05</ele>
        <time>2013-06-30T08:49:25Z</time>
      </trkpt>
      <trkpt lat="43.37046" lon="-0.21594">
        <ele>288.53</ele>
        <time>2013-06-30T08:49:32Z</time>
      </trkpt>
      <trkpt lat="43.37042" lon="-0.21578">
        <ele>286.61</ele>
        <time>2013-06-30T08:49:40Z</time>
      </trkpt>
      <trkpt lat="43.37046" lon="-0.21565">
        <ele>285.17</ele>
        <time>2013-06-30T08:49:47Z</time>
      </trkpt>
      <trkpt lat="43.37053" lon="-0.21555">
        <ele>284.69</ele>
        <time>2013-06-30T08:49:53Z</time>
      </trkpt>
      <trkpt lat="43.37059" lon="-0.21545">
        <ele>282.77</ele>
        <time>2013-06-30T08:49:59Z</time>
      </trkpt>
      <trkpt lat="43.37065" lon="-0.21533">
        <ele>281.8</ele>
        <time>2013-06-30T08:50:05Z</time>
      </trkpt>
      <trkpt lat="43.37069" lon="-0.21522">
        <ele>281.32</ele>
        <time>2013-06-30T08:50:11Z</time>
      </trkpt>
      <trkpt lat="43.37074" lon="-0.21509">
        <ele>280.36</ele>
        <time>2013-06-30T08:50:18Z</time>
      </trkpt>
      <trkpt lat="43.37079" lon="-0.21498">
        <ele>280.36</ele>
        <time>2013-06-30T08:50:24Z</time>
      </trkpt>
      <trkpt lat="43.37084" lon="-0.21487">
        <ele>279.88</ele>
        <time>2013-06-30T08:50:30Z</time>
      </trkpt>
      <trkpt lat="43.37086" lon="-0.21475">
        <ele>279.4</ele>
        <time>2013-06-30T08:50:36Z</time>
      </trkpt>
      <trkpt lat="43.37086" lon="-0.21462">
        <ele>279.4</ele>
        <time>2013-06-30T08:50:42Z</time>
      </trkpt>
      <trkpt lat="43.37082" lon="-0.21447">
        <ele>279.4</ele>
        <time>2013-06-30T08:50:49Z</time>
      </trkpt>
      <trkpt lat="43.37077" lon="-0.21436">
        <ele>278.92</ele>
        <time>2013-06-30T08:50:56Z</time>
      </trkpt>
      <trkpt lat="43.3707" lon="-0.21424">
        <ele>279.4</ele>
        <time>2013-06-30T08:51:03Z</time>
      </trkpt>
      <trkpt lat="43.37074" lon="-0.21412">
        <ele>278.92</ele>
        <time>2013-06-30T08:51:11Z</time>
      </trkpt>
      <trkpt lat="43.37084" lon="-0.21404">
        <ele>278.44</ele>
        <time>2013-06-30T08:51:19Z</time>
      </trkpt>
      <trkpt lat="43.37094" lon="-0.21398">
        <ele>277.96</ele>
        <time>2013-06-30T08:51:26Z</time>
      </trkpt>
      <trkpt lat="43.37102" lon="-0.21391">
        <ele>277.48</ele>
        <time>2013-06-30T08:51:32Z</time>
      </trkpt>
      <trkpt lat="43.37111" lon="-0.21383">
        <ele>277.48</ele>
        <time>2013-06-30T08:51:39Z</time>
      </trkpt>
      <trkpt lat="43.37119" lon="-0.21373">
        <ele>277</ele>
        <time>2013-06-30T08:51:46Z</time>
      </trkpt>
      <trkpt lat="43.37127" lon="-0.21366">
        <ele>276.52</ele>
        <time>2013-06-30T08:51:53Z</time>
      </trkpt>
      <trkpt lat="43.37136" lon="-0.21357">
        <ele>276.04</ele>
        <time>2013-06-30T08:52:00Z</time>
      </trkpt>
      <trkpt lat="43.37144" lon="-0.21349">
        <ele>275.07</ele>
        <time>2013-06-30T08:52:07Z</time>
      </trkpt>
      <trkpt lat="43.37153" lon="-0.21339">
        <ele>274.59</ele>
        <time>2013-06-30T08:52:14Z</time>
      </trkpt>
      <trkpt lat="43.37161" lon="-0.2133">
        <ele>274.59</ele>
        <time>2013-06-30T08:52:20Z</time>
      </trkpt>
      <trkpt lat="43.37169" lon="-0.21322">
        <ele>274.11</ele>
        <time>2013-06-30T08:52:27Z</time>
      </trkpt>
      <trkpt lat="43.37177" lon="-0.21314">
        <ele>273.63</ele>
        <time>2013-06-30T08:52:33Z</time>
      </trkpt>
      <trkpt lat="43.37184" lon="-0.21305">
        <ele>273.63</ele>
        <time>2013-06-30T08:52:39Z</time>
      </trkpt>
      <trkpt lat="43.37188" lon="-0.21294">
        <ele>273.15</ele>
        <time>2013-06-30T08:52:45Z</time>
      </trkpt>
      <trkpt lat="43.37188" lon="-0.21281">
        <ele>273.15</ele>
        <time>2013-06-30T08:52:51Z</time>
      </trkpt>
      <trkpt lat="43.37183" lon="-0.21268">
        <ele>273.15</ele>
        <time>2013-06-30T08:52:58Z</time>
      </trkpt>
      <trkpt lat="43.37177" lon="-0.21255">
        <ele>273.63</ele>
        <time>2013-06-30T08:53:05Z</time>
      </trkpt>
      <trkpt lat="43.37173" lon="-0.21243">
        <ele>273.63</ele>
        <time>2013-06-30T08:53:12Z</time>
      </trkpt>
      <trkpt lat="43.37167" lon="-0.2123">
        <ele>274.59</ele>
        <time>2013-06-30T08:53:19Z</time>
      </trkpt>
      <trkpt lat="43.37161" lon="-0.21218">
        <ele>274.59</ele>
        <time>2013-06-30T08:53:26Z</time>
      </trkpt>
      <trkpt lat="43.37153" lon="-0.21205">
        <ele>275.07</ele>
        <time>2013-06-30T08:53:34Z</time>
      </trkpt>
      <trkpt lat="43.37147" lon="-0.21193">
        <ele>275.07</ele>
        <time>2013-06-30T08:53:40Z</time>
      </trkpt>
      <trkpt lat="43.37141" lon="-0.21182">
        <ele>275.07</ele>
        <time>2013-06-30T08:53:47Z</time>
      </trkpt>
      <trkpt lat="43.37134" lon="-0.21169">
        <ele>274.59</ele>
        <time>2013-06-30T08:53:55Z</time>
      </trkpt>
      <trkpt lat="43.37128" lon="-0.21156">
        <ele>275.07</ele>
        <time>2013-06-30T08:54:02Z</time>
      </trkpt>
      <trkpt lat="43.3712" lon="-0.21148">
        <ele>275.07</ele>
        <time>2013-06-30T08:54:09Z</time>
      </trkpt>
      <trkpt lat="43.37109" lon="-0.21139">
        <ele>275.07</ele>
        <time>2013-06-30T08:54:17Z</time>
      </trkpt>
      <trkpt lat="43.37103" lon="-0.21127">
        <ele>275.56</ele>
        <time>2013-06-30T08:54:25Z</time>
      </trkpt>
      <trkpt lat="43.37096" lon="-0.21116">
        <ele>275.07</ele>
        <time>2013-06-30T08:54:33Z</time>
      </trkpt>
      <trkpt lat="43.37088" lon="-0.21105">
        <ele>275.07</ele>
        <time>2013-06-30T08:54:41Z</time>
      </trkpt>
      <trkpt lat="43.37083" lon="-0.21094">
        <ele>275.07</ele>
        <time>2013-06-30T08:54:48Z</time>
      </trkpt>
      <trkpt lat="43.3708" lon="-0.21081">
        <ele>274.59</ele>
        <time>2013-06-30T08:54:55Z</time>
      </trkpt>
      <trkpt lat="43.37078" lon="-0.21067">
        <ele>273.63</ele>
        <time>2013-06-30T08:55:02Z</time>
      </trkpt>
      <trkpt lat="43.37075" lon="-0.2105">
        <ele>273.15</ele>
        <time>2013-06-30T08:55:10Z</time>
      </trkpt>
      <trkpt lat="43.37069" lon="-0.21034">
        <ele>273.63</ele>
        <time>2013-06-30T08:55:19Z</time>
      </trkpt>
      <trkpt lat="43.37062" lon="-0.2102">
        <ele>273.63</ele>
        <time>2013-06-30T08:55:27Z</time>
      </trkpt>
      <trkpt lat="43.37054" lon="-0.2101">
        <ele>274.11</ele>
        <time>2013-06-30T08:55:34Z</time>
      </trkpt>
      <trkpt lat="43.37046" lon="-0.20997">
        <ele>274.59</ele>
        <time>2013-06-30T08:55:42Z</time>
      </trkpt>
      <trkpt lat="43.3704" lon="-0.20983">
        <ele>275.07</ele>
        <time>2013-06-30T08:55:50Z</time>
      </trkpt>
      <trkpt lat="43.37033" lon="-0.20971">
        <ele>275.07</ele>
        <time>2013-06-30T08:55:57Z</time>
      </trkpt>
      <trkpt lat="43.37024" lon="-0.20962">
        <ele>276.04</ele>
        <time>2013-06-30T08:56:04Z</time>
      </trkpt>
      <trkpt lat="43.37016" lon="-0.20954">
        <ele>276.04</ele>
        <time>2013-06-30T08:56:11Z</time>
      </trkpt>
      <trkpt lat="43.37005" lon="-0.2095">
        <ele>277</ele>
        <time>2013-06-30T08:56:18Z</time>
      </trkpt>
      <trkpt lat="43.36994" lon="-0.2095">
        <ele>277</ele>
        <time>2013-06-30T08:56:25Z</time>
      </trkpt>
      <trkpt lat="43.36984" lon="-0.20954">
        <ele>277.48</ele>
        <time>2013-06-30T08:56:32Z</time>
      </trkpt>
      <trkpt lat="43.36975" lon="-0.20956">
        <ele>278.44</ele>
        <time>2013-06-30T08:56:39Z</time>
      </trkpt>
      <trkpt lat="43.36966" lon="-0.20957">
        <ele>278.92</ele>
        <time>2013-06-30T08:56:46Z</time>
      </trkpt>
      <trkpt lat="43.36958" lon="-0.20948">
        <ele>278.92</ele>
        <time>2013-06-30T08:56:53Z</time>
      </trkpt>
      <trkpt lat="43.36951" lon="-0.20937">
        <ele>278.92</ele>
        <time>2013-06-30T08:57:00Z</time>
      </trkpt>
      <trkpt lat="43.36946" lon="-0.20927">
        <ele>279.4</ele>
        <time>2013-06-30T08:57:06Z</time>
      </trkpt>
      <trkpt lat="43.36939" lon="-0.20915">
        <ele>279.4</ele>
        <time>2013-06-30T08:57:13Z</time>
      </trkpt>
      <trkpt lat="43.36934" lon="-0.20905">
        <ele>279.88</ele>
        <time>2013-06-30T08:57:20Z</time>
      </trkpt>
      <trkpt lat="43.36925" lon="-0.20896">
        <ele>279.88</ele>
        <time>2013-06-30T08:57:27Z</time>
      </trkpt>
      <trkpt lat="43.36917" lon="-0.20894">
        <ele>280.36</ele>
        <time>2013-06-30T08:57:33Z</time>
      </trkpt>
      <trkpt lat="43.36909" lon="-0.20902">
        <ele>280.84</ele>
        <time>2013-06-30T08:57:39Z</time>
      </trkpt>
      <trkpt lat="43.369" lon="-0.20912">
        <ele>280.84</ele>
        <time>2013-06-30T08:57:46Z</time>
      </trkpt>
      <trkpt lat="43.36892" lon="-0.20921">
        <ele>281.32</ele>
        <time>2013-06-30T08:57:53Z</time>
      </trkpt>
      <trkpt lat="43.36884" lon="-0.20928">
        <ele>281.8</ele>
        <time>2013-06-30T08:58:00Z</time>
      </trkpt>
      <trkpt lat="43.36875" lon="-0.20934">
        <ele>281.8</ele>
        <time>2013-06-30T08:58:07Z</time>
      </trkpt>
      <trkpt lat="43.36866" lon="-0.20942">
        <ele>282.28</ele>
        <time>2013-06-30T08:58:14Z</time>
      </trkpt>
      <trkpt lat="43.36858" lon="-0.20949">
        <ele>282.77</ele>
        <time>2013-06-30T08:58:20Z</time>
      </trkpt>
      <trkpt lat="43.36852" lon="-0.20957">
        <ele>282.77</ele>
        <time>2013-06-30T08:58:26Z</time>
      </trkpt>
      <trkpt lat="43.36844" lon="-0.20964">
        <ele>282.28</ele>
        <time>2013-06-30T08:58:32Z</time>
      </trkpt>
      <trkpt lat="43.36836" lon="-0.2097">
        <ele>282.77</ele>
        <time>2013-06-30T08:58:38Z</time>
      </trkpt>
      <trkpt lat="43.36829" lon="-0.20978">
        <ele>282.77</ele>
        <time>2013-06-30T08:58:44Z</time>
      </trkpt>
      <trkpt lat="43.36822" lon="-0.20985">
        <ele>282.77</ele>
        <time>2013-06-30T08:58:50Z</time>
      </trkpt>
      <trkpt lat="43.36813" lon="-0.20992">
        <ele>282.77</ele>
        <time>2013-06-30T08:58:57Z</time>
      </trkpt>
      <trkpt lat="43.36803" lon="-0.20996">
        <ele>282.77</ele>
        <time>2013-06-30T08:59:04Z</time>
      </trkpt>
      <trkpt lat="43.36795" lon="-0.20993">
        <ele>283.73</ele>
        <time>2013-06-30T08:59:11Z</time>
      </trkpt>
      <trkpt lat="43.36789" lon="-0.2098">
        <ele>283.73</ele>
        <time>2013-06-30T08:59:19Z</time>
      </trkpt>
      <trkpt lat="43.36782" lon="-0.2097">
        <ele>283.73</ele>
        <time>2013-06-30T08:59:27Z</time>
      </trkpt>
      <trkpt lat="43.36775" lon="-0.2096">
        <ele>283.73</ele>
        <time>2013-06-30T08:59:33Z</time>
      </trkpt>
      <trkpt lat="43.36769" lon="-0.20951">
        <ele>283.73</ele>
        <time>2013-06-30T08:59:40Z</time>
      </trkpt>
      <trkpt lat="43.36764" lon="-0.20939">
        <ele>283.73</ele>
        <time>2013-06-30T08:59:46Z</time>
      </trkpt>
      <trkpt lat="43.36757" lon="-0.20929">
        <ele>283.73</ele>
        <time>2013-06-30T08:59:53Z</time>
      </trkpt>
      <trkpt lat="43.3675" lon="-0.2092">
        <ele>283.73</ele>
        <time>2013-06-30T08:59:59Z</time>
      </trkpt>
      <trkpt lat="43.36744" lon="-0.20909">
        <ele>284.21</ele>
        <time>2013-06-30T09:00:06Z</time>
      </trkpt>
      <trkpt lat="43.36738" lon="-0.20898">
        <ele>284.21</ele>
        <time>2013-06-30T09:00:13Z</time>
      </trkpt>
      <trkpt lat="43.36732" lon="-0.20886">
        <ele>283.73</ele>
        <time>2013-06-30T09:00:20Z</time>
      </trkpt>
      <trkpt lat="43.36728" lon="-0.20872">
        <ele>284.21</ele>
        <time>2013-06-30T09:00:27Z</time>
      </trkpt>
      <trkpt lat="43.36726" lon="-0.20861">
        <ele>284.21</ele>
        <time>2013-06-30T09:00:33Z</time>
      </trkpt>
      <trkpt lat="43.36723" lon="-0.20849">
        <ele>283.73</ele>
        <time>2013-06-30T09:00:39Z</time>
      </trkpt>
      <trkpt lat="43.36722" lon="-0.20836">
        <ele>283.73</ele>
        <time>2013-06-30T09:00:46Z</time>
      </trkpt>
      <trkpt lat="43.3672" lon="-0.20822">
        <ele>283.73</ele>
        <time>2013-06-30T09:00:53Z</time>
      </trkpt>
      <trkpt lat="43.36718" lon="-0.20809">
        <ele>283.25</ele>
        <time>2013-06-30T09:00:59Z</time>
      </trkpt>
      <trkpt lat="43.36717" lon="-0.20797">
        <ele>283.73</ele>
        <time>2013-06-30T09:01:05Z</time>
      </trkpt>
      <trkpt lat="43.36715" lon="-0.20785">
        <ele>283.73</ele>
        <time>2013-06-30T09:01:11Z</time>
      </trkpt>
      <trkpt lat="43.36714" lon="-0.20772">
        <ele>283.73</ele>
        <time>2013-06-30T09:01:17Z</time>
      </trkpt>
      <trkpt lat="43.36713" lon="-0.20758">
        <ele>283.73</ele>
        <time>2013-06-30T09:01:24Z</time>
      </trkpt>
      <trkpt lat="43.36713" lon="-0.20745">
        <ele>283.73</ele>
        <time>2013-06-30T09:01:31Z</time>
      </trkpt>
      <trkpt lat="43.36711" lon="-0.2073">
        <ele>284.21</ele>
        <time>2013-06-30T09:01:39Z</time>
      </trkpt>
      <trkpt lat="43.36709" lon="-0.20716">
        <ele>283.73</ele>
        <time>2013-06-30T09:01:45Z</time>
      </trkpt>
      <trkpt lat="43.36707" lon="-0.20702">
        <ele>284.21</ele>
        <time>2013-06-30T09:01:51Z</time>
      </trkpt>
      <trkpt lat="43.36703" lon="-0.2069">
        <ele>284.21</ele>
        <time>2013-06-30T09:01:57Z</time>
      </trkpt>
      <trkpt lat="43.367" lon="-0.20679">
        <ele>284.21</ele>
        <time>2013-06-30T09:02:04Z</time>
      </trkpt>
      <trkpt lat="43.367" lon="-0.20666">
        <ele>284.69</ele>
        <time>2013-06-30T09:02:12Z</time>
      </trkpt>
      <trkpt lat="43.36706" lon="-0.20656">
        <ele>284.21</ele>
        <time>2013-06-30T09:02:19Z</time>
      </trkpt>
      <trkpt lat="43.36711" lon="-0.20646">
        <ele>284.21</ele>
        <time>2013-06-30T09:02:25Z</time>
      </trkpt>
      <trkpt lat="43.36712" lon="-0.20633">
        <ele>284.21</ele>
        <time>2013-06-30T09:02:31Z</time>
      </trkpt>
      <trkpt lat="43.36713" lon="-0.20619">
        <ele>284.21</ele>
        <time>2013-06-30T09:02:38Z</time>
      </trkpt>
      <trkpt lat="43.3671" lon="-0.20608">
        <ele>284.69</ele>
        <time>2013-06-30T09:02:44Z</time>
      </trkpt>
      <trkpt lat="43.36704" lon="-0.20598">
        <ele>283.73</ele>
        <time>2013-06-30T09:02:51Z</time>
      </trkpt>
      <trkpt lat="43.36695" lon="-0.2059">
        <ele>284.21</ele>
        <time>2013-06-30T09:02:58Z</time>
      </trkpt>
      <trkpt lat="43.36688" lon="-0.20579">
        <ele>284.69</ele>
        <time>2013-06-30T09:03:04Z</time>
      </trkpt>
      <trkpt lat="43.3668" lon="-0.2057">
        <ele>284.21</ele>
        <time>2013-06-30T09:03:11Z</time>
      </trkpt>
      <trkpt lat="43.36673" lon="-0.20559">
        <ele>284.21</ele>
        <time>2013-06-30T09:03:18Z</time>
      </trkpt>
      <trkpt lat="43.36673" lon="-0.20545">
        <ele>283.73</ele>
        <time>2013-06-30T09:03:25Z</time>
      </trkpt>
      <trkpt lat="43.36677" lon="-0.20534">
        <ele>283.73</ele>
        <time>2013-06-30T09:03:32Z</time>
      </trkpt>
      <trkpt lat="43.36676" lon="-0.2052">
        <ele>283.25</ele>
        <time>2013-06-30T09:03:38Z</time>
      </trkpt>
      <trkpt lat="43.3668" lon="-0.20509">
        <ele>283.25</ele>
        <time>2013-06-30T09:03:44Z</time>
      </trkpt>
      <trkpt lat="43.36687" lon="-0.205">
        <ele>283.25</ele>
        <time>2013-06-30T09:03:51Z</time>
      </trkpt>
      <trkpt lat="43.36694" lon="-0.20491">
        <ele>282.28</ele>
        <time>2013-06-30T09:03:57Z</time>
      </trkpt>
      <trkpt lat="43.36701" lon="-0.20483">
        <ele>282.28</ele>
        <time>2013-06-30T09:04:03Z</time>
      </trkpt>
      <trkpt lat="43.36708" lon="-0.20474">
        <ele>282.28</ele>
        <time>2013-06-30T09:04:10Z</time>
      </trkpt>
      <trkpt lat="43.36716" lon="-0.20464">
        <ele>282.28</ele>
        <time>2013-06-30T09:04:16Z</time>
      </trkpt>
      <trkpt lat="43.36723" lon="-0.20455">
        <ele>281.32</ele>
        <time>2013-06-30T09:04:22Z</time>
      </trkpt>
      <trkpt lat="43.36731" lon="-0.20446">
        <ele>280.84</ele>
        <time>2013-06-30T09:04:28Z</time>
      </trkpt>
      <trkpt lat="43.36737" lon="-0.20439">
        <ele>280.36</ele>
        <time>2013-06-30T09:04:34Z</time>
      </trkpt>
      <trkpt lat="43.36745" lon="-0.2043">
        <ele>280.36</ele>
        <time>2013-06-30T09:04:41Z</time>
      </trkpt>
      <trkpt lat="43.36751" lon="-0.20421">
        <ele>279.88</ele>
        <time>2013-06-30T09:04:48Z</time>
      </trkpt>
      <trkpt lat="43.36759" lon="-0.20411">
        <ele>279.4</ele>
        <time>2013-06-30T09:04:55Z</time>
      </trkpt>
      <trkpt lat="43.36765" lon="-0.20401">
        <ele>279.88</ele>
        <time>2013-06-30T09:05:01Z</time>
      </trkpt>
      <trkpt lat="43.36771" lon="-0.20391">
        <ele>279.88</ele>
        <time>2013-06-30T09:05:08Z</time>
      </trkpt>
      <trkpt lat="43.36766" lon="-0.20383">
        <ele>279.88</ele>
        <time>2013-06-30T09:05:14Z</time>
      </trkpt>
      <trkpt lat="43.36758" lon="-0.20374">
        <ele>279.88</ele>
        <time>2013-06-30T09:05:20Z</time>
      </trkpt>
      <trkpt lat="43.36751" lon="-0.20366">
        <ele>279.88</ele>
        <time>2013-06-30T09:05:26Z</time>
      </trkpt>
      <trkpt lat="43.36744" lon="-0.20357">
        <ele>279.4</ele>
        <time>2013-06-30T09:05:32Z</time>
      </trkpt>
      <trkpt lat="43.36736" lon="-0.2035">
        <ele>279.88</ele>
        <time>2013-06-30T09:05:38Z</time>
      </trkpt>
      <trkpt lat="43.36728" lon="-0.20342">
        <ele>279.88</ele>
        <time>2013-06-30T09:05:44Z</time>
      </trkpt>
      <trkpt lat="43.3672" lon="-0.20334">
        <ele>279.88</ele>
        <time>2013-06-30T09:05:50Z</time>
      </trkpt>
      <trkpt lat="43.36712" lon="-0.20326">
        <ele>279.88</ele>
        <time>2013-06-30T09:05:56Z</time>
      </trkpt>
      <trkpt lat="43.36705" lon="-0.20319">
        <ele>280.36</ele>
        <time>2013-06-30T09:06:02Z</time>
      </trkpt>
      <trkpt lat="43.36697" lon="-0.20312">
        <ele>280.36</ele>
        <time>2013-06-30T09:06:08Z</time>
      </trkpt>
      <trkpt lat="43.3669" lon="-0.20305">
        <ele>280.36</ele>
        <time>2013-06-30T09:06:14Z</time>
      </trkpt>
      <trkpt lat="43.36683" lon="-0.20296">
        <ele>281.32</ele>
        <time>2013-06-30T09:06:20Z</time>
      </trkpt>
      <trkpt lat="43.36676" lon="-0.20287">
        <ele>280.84</ele>
        <time>2013-06-30T09:06:27Z</time>
      </trkpt>
      <trkpt lat="43.36667" lon="-0.2028">
        <ele>281.8</ele>
        <time>2013-06-30T09:06:35Z</time>
      </trkpt>
      <trkpt lat="43.36658" lon="-0.20274">
        <ele>282.28</ele>
        <time>2013-06-30T09:06:42Z</time>
      </trkpt>
      <trkpt lat="43.36649" lon="-0.20268">
        <ele>282.77</ele>
        <time>2013-06-30T09:06:49Z</time>
      </trkpt>
      <trkpt lat="43.36641" lon="-0.2026">
        <ele>283.25</ele>
        <time>2013-06-30T09:06:55Z</time>
      </trkpt>
      <trkpt lat="43.36633" lon="-0.20253">
        <ele>283.25</ele>
        <time>2013-06-30T09:07:01Z</time>
      </trkpt>
      <trkpt lat="43.36626" lon="-0.20244">
        <ele>283.25</ele>
        <time>2013-06-30T09:07:07Z</time>
      </trkpt>
      <trkpt lat="43.36619" lon="-0.20234">
        <ele>282.77</ele>
        <time>2013-06-30T09:07:13Z</time>
      </trkpt>
      <trkpt lat="43.36612" lon="-0.20224">
        <ele>282.77</ele>
        <time>2013-06-30T09:07:19Z</time>
      </trkpt>
      <trkpt lat="43.36606" lon="-0.20215">
        <ele>282.28</ele>
        <time>2013-06-30T09:07:25Z</time>
      </trkpt>
      <trkpt lat="43.36599" lon="-0.20205">
        <ele>282.77</ele>
        <time>2013-06-30T09:07:32Z</time>
      </trkpt>
      <trkpt lat="43.36592" lon="-0.20195">
        <ele>282.77</ele>
        <time>2013-06-30T09:07:39Z</time>
      </trkpt>
      <trkpt lat="43.36585" lon="-0.20184">
        <ele>282.77</ele>
        <time>2013-06-30T09:07:46Z</time>
      </trkpt>
      <trkpt lat="43.36578" lon="-0.20174">
        <ele>282.77</ele>
        <time>2013-06-30T09:07:53Z</time>
      </trkpt>
      <trkpt lat="43.3657" lon="-0.20163">
        <ele>282.77</ele>
        <time>2013-06-30T09:08:00Z</time>
      </trkpt>
      <trkpt lat="43.36563" lon="-0.20153">
        <ele>282.77</ele>
        <time>2013-06-30T09:08:07Z</time>
      </trkpt>
      <trkpt lat="43.36556" lon="-0.20144">
        <ele>282.28</ele>
        <time>2013-06-30T09:08:13Z</time>
      </trkpt>
      <trkpt lat="43.36549" lon="-0.20135">
        <ele>282.77</ele>
        <time>2013-06-30T09:08:19Z</time>
      </trkpt>
      <trkpt lat="43.36542" lon="-0.20127">
        <ele>282.77</ele>
        <time>2013-06-30T09:08:25Z</time>
      </trkpt>
      <trkpt lat="43.36535" lon="-0.20119">
        <ele>282.77</ele>
        <time>2013-06-30T09:08:31Z</time>
      </trkpt>
      <trkpt lat="43.36527" lon="-0.20112">
        <ele>282.28</ele>
        <time>2013-06-30T09:08:37Z</time>
      </trkpt>
      <trkpt lat="43.36518" lon="-0.20105">
        <ele>282.77</ele>
        <time>2013-06-30T09:08:43Z</time>
      </trkpt>
      <trkpt lat="43.36511" lon="-0.20101">
        <ele>282.77</ele>
        <time>2013-06-30T09:08:49Z</time>
      </trkpt>
      <trkpt lat="43.36502" lon="-0.20096">
        <ele>282.77</ele>
        <time>2013-06-30T09:08:55Z</time>
      </trkpt>
      <trkpt lat="43.36493" lon="-0.20093">
        <ele>283.25</ele>
        <time>2013-06-30T09:09:01Z</time>
      </trkpt>
      <trkpt lat="43.36483" lon="-0.20092">
        <ele>283.25</ele>
        <time>2013-06-30T09:09:08Z</time>
      </trkpt>
      <trkpt lat="43.36473" lon="-0.20096">
        <ele>283.73</ele>
        <time>2013-06-30T09:09:15Z</time>
      </trkpt>
      <trkpt lat="43.36465" lon="-0.201">
        <ele>284.21</ele>
        <time>2013-06-30T09:09:22Z</time>
      </trkpt>
      <trkpt lat="43.36455" lon="-0.20104">
        <ele>284.21</ele>
        <time>2013-06-30T09:09:29Z</time>
      </trkpt>
      <trkpt lat="43.36446" lon="-0.20108">
        <ele>285.17</ele>
        <time>2013-06-30T09:09:35Z</time>
      </trkpt>
      <trkpt lat="43.36438" lon="-0.20113">
        <ele>285.65</ele>
        <time>2013-06-30T09:09:42Z</time>
      </trkpt>
      <trkpt lat="43.36428" lon="-0.20116">
        <ele>285.65</ele>
        <time>2013-06-30T09:09:49Z</time>
      </trkpt>
      <trkpt lat="43.36418" lon="-0.20119">
        <ele>286.13</ele>
        <time>2013-06-30T09:09:55Z</time>
      </trkpt>
      <trkpt lat="43.36409" lon="-0.20121">
        <ele>285.65</ele>
        <time>2013-06-30T09:10:01Z</time>
      </trkpt>
      <trkpt lat="43.36399" lon="-0.20125">
        <ele>286.13</ele>
        <time>2013-06-30T09:10:08Z</time>
      </trkpt>
      <trkpt lat="43.36389" lon="-0.20129">
        <ele>285.65</ele>
        <time>2013-06-30T09:10:15Z</time>
      </trkpt>
      <trkpt lat="43.36379" lon="-0.20135">
        <ele>286.13</ele>
        <time>2013-06-30T09:10:22Z</time>
      </trkpt>
      <trkpt lat="43.36371" lon="-0.2014">
        <ele>286.61</ele>
        <time>2013-06-30T09:10:28Z</time>
      </trkpt>
      <trkpt lat="43.36363" lon="-0.20146">
        <ele>287.09</ele>
        <time>2013-06-30T09:10:34Z</time>
      </trkpt>
      <trkpt lat="43.36355" lon="-0.20152">
        <ele>287.09</ele>
        <time>2013-06-30T09:10:40Z</time>
      </trkpt>
      <trkpt lat="43.36346" lon="-0.20159">
        <ele>288.05</ele>
        <time>2013-06-30T09:10:47Z</time>
      </trkpt>
      <trkpt lat="43.36338" lon="-0.20166">
        <ele>288.53</ele>
        <time>2013-06-30T09:10:54Z</time>
      </trkpt>
      <trkpt lat="43.3633" lon="-0.20177">
        <ele>289.49</ele>
        <time>2013-06-30T09:11:02Z</time>
      </trkpt>
      <trkpt lat="43.36322" lon="-0.20188">
        <ele>290.46</ele>
        <time>2013-06-30T09:11:10Z</time>
      </trkpt>
      <trkpt lat="43.36316" lon="-0.20199">
        <ele>291.42</ele>
        <time>2013-06-30T09:11:17Z</time>
      </trkpt>
      <trkpt lat="43.36311" lon="-0.20211">
        <ele>292.38</ele>
        <time>2013-06-30T09:11:24Z</time>
      </trkpt>
      <trkpt lat="43.36304" lon="-0.20222">
        <ele>293.34</ele>
        <time>2013-06-30T09:11:31Z</time>
      </trkpt>
      <trkpt lat="43.36298" lon="-0.20232">
        <ele>293.82</ele>
        <time>2013-06-30T09:11:38Z</time>
      </trkpt>
      <trkpt lat="43.36292" lon="-0.20241">
        <ele>294.78</ele>
        <time>2013-06-30T09:11:45Z</time>
      </trkpt>
      <trkpt lat="43.36286" lon="-0.20252">
        <ele>294.78</ele>
        <time>2013-06-30T09:11:52Z</time>
      </trkpt>
      <trkpt lat="43.3628" lon="-0.20263">
        <ele>294.78</ele>
        <time>2013-06-30T09:11:59Z</time>
      </trkpt>
      <trkpt lat="43.36275" lon="-0.20273">
        <ele>294.78</ele>
        <time>2013-06-30T09:12:05Z</time>
      </trkpt>
      <trkpt lat="43.36269" lon="-0.20283">
        <ele>295.26</ele>
        <time>2013-06-30T09:12:11Z</time>
      </trkpt>
      <trkpt lat="43.36265" lon="-0.20293">
        <ele>295.74</ele>
        <time>2013-06-30T09:12:17Z</time>
      </trkpt>
      <trkpt lat="43.3626" lon="-0.20305">
        <ele>295.74</ele>
        <time>2013-06-30T09:12:23Z</time>
      </trkpt>
      <trkpt lat="43.36256" lon="-0.20316">
        <ele>296.22</ele>
        <time>2013-06-30T09:12:29Z</time>
      </trkpt>
      <trkpt lat="43.36251" lon="-0.20327">
        <ele>295.74</ele>
        <time>2013-06-30T09:12:35Z</time>
      </trkpt>
      <trkpt lat="43.36246" lon="-0.20338">
        <ele>296.22</ele>
        <time>2013-06-30T09:12:42Z</time>
      </trkpt>
      <trkpt lat="43.36241" lon="-0.2035">
        <ele>296.7</ele>
        <time>2013-06-30T09:12:49Z</time>
      </trkpt>
      <trkpt lat="43.36234" lon="-0.20362">
        <ele>296.22</ele>
        <time>2013-06-30T09:12:56Z</time>
      </trkpt>
      <trkpt lat="43.36227" lon="-0.20373">
        <ele>296.7</ele>
        <time>2013-06-30T09:13:02Z</time>
      </trkpt>
      <trkpt lat="43.36222" lon="-0.20383">
        <ele>296.7</ele>
        <time>2013-06-30T09:13:08Z</time>
      </trkpt>
      <trkpt lat="43.36218" lon="-0.20393">
        <ele>296.7</ele>
        <time>2013-06-30T09:13:14Z</time>
      </trkpt>
      <trkpt lat="43.36212" lon="-0.20403">
        <ele>297.67</ele>
        <time>2013-06-30T09:13:20Z</time>
      </trkpt>
      <trkpt lat="43.36206" lon="-0.20415">
        <ele>298.15</ele>
        <time>2013-06-30T09:13:27Z</time>
      </trkpt>
      <trkpt lat="43.36201" lon="-0.20425">
        <ele>298.15</ele>
        <time>2013-06-30T09:13:33Z</time>
      </trkpt>
      <trkpt lat="43.36196" lon="-0.20435">
        <ele>298.63</ele>
        <time>2013-06-30T09:13:39Z</time>
      </trkpt>
      <trkpt lat="43.36192" lon="-0.20445">
        <ele>298.15</ele>
        <time>2013-06-30T09:13:45Z</time>
      </trkpt>
      <trkpt lat="43.36186" lon="-0.20457">
        <ele>298.63</ele>
        <time>2013-06-30T09:13:52Z</time>
      </trkpt>
      <trkpt lat="43.36181" lon="-0.20468">
        <ele>298.63</ele>
        <time>2013-06-30T09:13:59Z</time>
      </trkpt>
      <trkpt lat="43.36177" lon="-0.2048">
        <ele>299.11</ele>
        <time>2013-06-30T09:14:05Z</time>
      </trkpt>
      <trkpt lat="43.36172" lon="-0.2049">
        <ele>299.59</ele>
        <time>2013-06-30T09:14:11Z</time>
      </trkpt>
      <trkpt lat="43.36167" lon="-0.205">
        <ele>300.07</ele>
        <time>2013-06-30T09:14:17Z</time>
      </trkpt>
      <trkpt lat="43.36162" lon="-0.2051">
        <ele>300.07</ele>
        <time>2013-06-30T09:14:23Z</time>
      </trkpt>
      <trkpt lat="43.36157" lon="-0.2052">
        <ele>300.55</ele>
        <time>2013-06-30T09:14:29Z</time>
      </trkpt>
      <trkpt lat="43.36152" lon="-0.2053">
        <ele>300.55</ele>
        <time>2013-06-30T09:14:35Z</time>
      </trkpt>
      <trkpt lat="43.36147" lon="-0.2054">
        <ele>300.55</ele>
        <time>2013-06-30T09:14:41Z</time>
      </trkpt>
      <trkpt lat="43.36142" lon="-0.20551">
        <ele>301.03</ele>
        <time>2013-06-30T09:14:48Z</time>
      </trkpt>
      <trkpt lat="43.36136" lon="-0.20562">
        <ele>301.51</ele>
        <time>2013-06-30T09:14:55Z</time>
      </trkpt>
      <trkpt lat="43.3613" lon="-0.20572">
        <ele>301.99</ele>
        <time>2013-06-30T09:15:02Z</time>
      </trkpt>
      <trkpt lat="43.36124" lon="-0.20583">
        <ele>302.47</ele>
        <time>2013-06-30T09:15:09Z</time>
      </trkpt>
      <trkpt lat="43.36118" lon="-0.20595">
        <ele>302.47</ele>
        <time>2013-06-30T09:15:16Z</time>
      </trkpt>
      <trkpt lat="43.36111" lon="-0.20607">
        <ele>302.95</ele>
        <time>2013-06-30T09:15:23Z</time>
      </trkpt>
      <trkpt lat="43.36106" lon="-0.20618">
        <ele>303.43</ele>
        <time>2013-06-30T09:15:30Z</time>
      </trkpt>
      <trkpt lat="43.36101" lon="-0.20629">
        <ele>303.91</ele>
        <time>2013-06-30T09:15:37Z</time>
      </trkpt>
      <trkpt lat="43.36097" lon="-0.20642">
        <ele>304.88</ele>
        <time>2013-06-30T09:15:44Z</time>
      </trkpt>
      <trkpt lat="43.36092" lon="-0.20655">
        <ele>305.36</ele>
        <time>2013-06-30T09:15:51Z</time>
      </trkpt>
      <trkpt lat="43.36089" lon="-0.20665">
        <ele>306.32</ele>
        <time>2013-06-30T09:15:57Z</time>
      </trkpt>
      <trkpt lat="43.36085" lon="-0.20676">
        <ele>306.32</ele>
        <time>2013-06-30T09:16:03Z</time>
      </trkpt>
      <trkpt lat="43.3608" lon="-0.20687">
        <ele>307.28</ele>
        <time>2013-06-30T09:16:10Z</time>
      </trkpt>
      <trkpt lat="43.36074" lon="-0.20696">
        <ele>307.76</ele>
        <time>2013-06-30T09:16:17Z</time>
      </trkpt>
      <trkpt lat="43.36068" lon="-0.20708">
        <ele>307.76</ele>
        <time>2013-06-30T09:16:25Z</time>
      </trkpt>
      <trkpt lat="43.36065" lon="-0.2072">
        <ele>307.76</ele>
        <time>2013-06-30T09:16:32Z</time>
      </trkpt>
      <trkpt lat="43.3606" lon="-0.20732">
        <ele>307.76</ele>
        <time>2013-06-30T09:16:39Z</time>
      </trkpt>
      <trkpt lat="43.36055" lon="-0.20744">
        <ele>307.76</ele>
        <time>2013-06-30T09:16:46Z</time>
      </trkpt>
      <trkpt lat="43.36049" lon="-0.20757">
        <ele>307.76</ele>
        <time>2013-06-30T09:16:53Z</time>
      </trkpt>
      <trkpt lat="43.36044" lon="-0.20768">
        <ele>307.76</ele>
        <time>2013-06-30T09:17:00Z</time>
      </trkpt>
      <trkpt lat="43.36039" lon="-0.2078">
        <ele>307.76</ele>
        <time>2013-06-30T09:17:07Z</time>
      </trkpt>
      <trkpt lat="43.36031" lon="-0.2079">
        <ele>307.76</ele>
        <time>2013-06-30T09:17:14Z</time>
      </trkpt>
      <trkpt lat="43.36024" lon="-0.20799">
        <ele>307.76</ele>
        <time>2013-06-30T09:17:21Z</time>
      </trkpt>
      <trkpt lat="43.36015" lon="-0.20808">
        <ele>308.24</ele>
        <time>2013-06-30T09:17:28Z</time>
      </trkpt>
      <trkpt lat="43.36008" lon="-0.20817">
        <ele>308.72</ele>
        <time>2013-06-30T09:17:35Z</time>
      </trkpt>
      <trkpt lat="43.36" lon="-0.20826">
        <ele>308.72</ele>
        <time>2013-06-30T09:17:42Z</time>
      </trkpt>
      <trkpt lat="43.35992" lon="-0.20834">
        <ele>308.72</ele>
        <time>2013-06-30T09:17:49Z</time>
      </trkpt>
      <trkpt lat="43.35984" lon="-0.20838">
        <ele>308.72</ele>
        <time>2013-06-30T09:17:57Z</time>
      </trkpt>
      <trkpt lat="43.35977" lon="-0.20824">
        <ele>309.2</ele>
        <time>2013-06-30T09:18:04Z</time>
      </trkpt>
      <trkpt lat="43.3597" lon="-0.20813">
        <ele>309.2</ele>
        <time>2013-06-30T09:18:11Z</time>
      </trkpt>
      <trkpt lat="43.35964" lon="-0.20802">
        <ele>309.68</ele>
        <time>2013-06-30T09:18:18Z</time>
      </trkpt>
      <trkpt lat="43.35958" lon="-0.20791">
        <ele>309.2</ele>
        <time>2013-06-30T09:18:25Z</time>
      </trkpt>
      <trkpt lat="43.35952" lon="-0.20779">
        <ele>309.68</ele>
        <time>2013-06-30T09:18:32Z</time>
      </trkpt>
      <trkpt lat="43.35944" lon="-0.2077">
        <ele>309.68</ele>
        <time>2013-06-30T09:18:39Z</time>
      </trkpt>
      <trkpt lat="43.35935" lon="-0.20763">
        <ele>309.68</ele>
        <time>2013-06-30T09:18:46Z</time>
      </trkpt>
      <trkpt lat="43.35925" lon="-0.20756">
        <ele>310.16</ele>
        <time>2013-06-30T09:18:53Z</time>
      </trkpt>
      <trkpt lat="43.35917" lon="-0.20749">
        <ele>310.16</ele>
        <time>2013-06-30T09:19:00Z</time>
      </trkpt>
      <trkpt lat="43.35908" lon="-0.20745">
        <ele>310.64</ele>
        <time>2013-06-30T09:19:07Z</time>
      </trkpt>
      <trkpt lat="43.35898" lon="-0.20745">
        <ele>310.64</ele>
        <time>2013-06-30T09:19:14Z</time>
      </trkpt>
      <trkpt lat="43.35888" lon="-0.20752">
        <ele>311.12</ele>
        <time>2013-06-30T09:19:21Z</time>
      </trkpt>
      <trkpt lat="43.35881" lon="-0.2076">
        <ele>311.12</ele>
        <time>2013-06-30T09:19:28Z</time>
      </trkpt>
      <trkpt lat="43.35881" lon="-0.20775">
        <ele>312.09</ele>
        <time>2013-06-30T09:19:36Z</time>
      </trkpt>
    </trkseg>
  </trk>
</gpx>